Darstellungsparameter: Aktuell verwendete Einstellungen:
Skalierung der Graphiken ... ?
xyx+y,   Skalierungsfaktor:      Skalierung: Modus: x, Faktor: 1
Darstellungszeitraum ... ?
Vom - - bis: - -   Zeitraum: 16.10.2009 - 15.10.2019
Min/Max/Avg-Anzeige ... ?
Zeige MMA aktuell
Zeige MMA Monat
Zeige MMA alles
Zeige --A aktuell
Zeige --A Monat
Zeige --A alles
Keine MMA-Anzeige
MMA:
Average (ber die Originaldaten)
MMA-Basis: 16.10.2009 - 15.10.2019
Quicknavigation für Darstellung... ?
Tage:      1T, 2T, 3T, 5T -1T -2T -3T -5T +1T +2T +3T +5T
Wochen: 1W, 2W, 3W -1W -2W -3W +1W +2W +3W
Monate: 1M, 3M, 6M -1M -3M -6M +1M +3M +6M
Jahre:    1J, 3J, 5J, 10J -1J -3J -5J -10J +1J +3J +5J +10J
Nutze für die Darstellung ... ?
Originaldaten oder Mittelwerte auf ...
Stundenbasis Tagesbasis Wochenbasis
Monatsbasis Jahresbasis      Datenbasis: Original-Daten
Darstellen als:
Statistik (Auto) Statistik J:M      Darstellung:
Zur Graphik,    zurück zur Übersicht aller Sensoren.
 
Tabellarische Datenbersicht: ?
 
Sensor: Nr:Datum:Temp:Abs-Feuchte:Windchill:Wind:
Aussen-T/F 1 16-10-2009 00:03:02 5.3 C 4.51 g/m*3 5.3 C 0 km/h
2 16-10-2009 00:15:01 4.9 C 4.52 g/m*3 4.9 C 0 km/h
3 16-10-2009 00:27:01 4.3 C 4.48 g/m*3 4.3 C 0 km/h
4 16-10-2009 00:39:02 4.1 C 4.54 g/m*3 4.1 C 0 km/h
5 16-10-2009 00:51:02 3.8 C 4.58 g/m*3 3.8 C 0 km/h
6 16-10-2009 01:03:02 3.6 C 4.64 g/m*3 3.6 C 0 km/h
7 16-10-2009 01:15:02 3.6 C 4.64 g/m*3 3.6 C 0 km/h
8 16-10-2009 01:27:02 3.5 C 4.61 g/m*3 3.5 C 0 km/h
9 16-10-2009 01:39:02 3.3 C 4.61 g/m*3 3.3 C 0 km/h
10 16-10-2009 01:51:01 3.2 C 4.64 g/m*3 3.2 C 0 km/h
11 16-10-2009 02:03:02 3 C 4.64 g/m*3 3 C 0 km/h
12 16-10-2009 02:15:01 2.9 C 4.72 g/m*3 2.9 C 0 km/h
13 16-10-2009 02:27:01 2.7 C 4.78 g/m*3 2.7 C 0 km/h
14 16-10-2009 02:39:02 2.5 C 4.77 g/m*3 2.5 C 0 km/h
15 16-10-2009 02:52:03 2.2 C 4.73 g/m*3 2.2 C 0 km/h
16 16-10-2009 03:04:03 2 C 4.67 g/m*3 2 C 0 km/h
17 16-10-2009 03:16:03 1.8 C 4.71 g/m*3 1.8 C 0 km/h
18 16-10-2009 03:28:03 1.8 C 4.77 g/m*3 1.8 C 0 km/h
19 16-10-2009 03:40:02 2.1 C 4.92 g/m*3 2.1 C 0 km/h
20 16-10-2009 03:52:02 2.2 C 4.96 g/m*3 2.2 C 0 km/h
21 16-10-2009 04:04:02 2.4 C 5.02 g/m*3 2.4 C 0 km/h
22 16-10-2009 04:16:02 2.5 C 5.06 g/m*3 2.5 C 0 km/h
23 16-10-2009 04:28:02 2.5 C 5.06 g/m*3 2.5 C 0 km/h
24 16-10-2009 04:40:02 2.5 C 5.06 g/m*3 2.5 C 0 km/h
25 16-10-2009 04:52:02 2.5 C 5 g/m*3 2.5 C 0 km/h
Sensor: Nr:Datum:Temp:Abs-Feuchte:Windchill:Wind:
Aussen-T/F 26 16-10-2009 05:04:02 2.2 C 4.9 g/m*3 2.2 C 0 km/h
27 16-10-2009 05:16:02 2.5 C 5 g/m*3 2.5 C 0 km/h
28 16-10-2009 05:28:02 2.8 C 5.04 g/m*3 2.8 C 0 km/h
29 16-10-2009 05:40:02 2.8 C 4.99 g/m*3 2.8 C 0 km/h
30 16-10-2009 05:52:01 2.8 C 4.93 g/m*3 2.8 C 0 km/h
31 16-10-2009 06:04:02 2.7 C 4.89 g/m*3 2.7 C 0 km/h
32 16-10-2009 06:16:01 2.7 C 4.89 g/m*3 2.7 C 0 km/h
33 16-10-2009 06:28:01 3 C 4.93 g/m*3 3 C 0 km/h
34 16-10-2009 06:40:01 2.9 C 4.9 g/m*3 2.9 C 0 km/h
35 16-10-2009 06:52:01 2.8 C 4.87 g/m*3 2.8 C 0 km/h
36 16-10-2009 07:04:01 2.8 C 4.93 g/m*3 2.8 C 0 km/h
37 16-10-2009 07:16:02 2.9 C 4.96 g/m*3 2.9 C 0 km/h
38 16-10-2009 07:28:02 3 C 4.93 g/m*3 3 C 0 km/h
39 16-10-2009 07:40:01 3.2 C 5.06 g/m*3 3.2 C 0 km/h
40 16-10-2009 07:52:01 3.3 C 5.04 g/m*3 3.3 C 0 km/h
41 16-10-2009 08:04:01 3.4 C 5.07 g/m*3 3.4 C 0 km/h
42 16-10-2009 08:16:02 3.6 C 5.26 g/m*3 3.6 C 0 km/h
43 16-10-2009 08:28:02 3.8 C 5.4 g/m*3 3.8 C 0 km/h
44 16-10-2009 08:40:01 3.9 C 5.43 g/m*3 3.9 C 0 km/h
45 16-10-2009 08:52:02 4 C 5.4 g/m*3 4 C 0 km/h
46 16-10-2009 09:04:02 4.2 C 5.48 g/m*3 4.2 C 0 km/h
47 16-10-2009 09:16:02 4.3 C 5.58 g/m*3 4.3 C 0 km/h
48 16-10-2009 09:28:02 4.7 C 5.73 g/m*3 4.7 C 0 km/h
49 16-10-2009 09:40:02 4.9 C 5.81 g/m*3 4.9 C 0 km/h
50 16-10-2009 09:52:02 5 C 5.91 g/m*3 5 C 0 km/h
Sensor: Nr:Datum:Temp:Abs-Feuchte:Windchill:Wind:
Aussen-T/F 51 16-10-2009 10:04:01 5.1 C 6.09 g/m*3 5.1 C 0 km/h
52 16-10-2009 10:16:02 5.2 C 6.2 g/m*3 5.2 C 0 km/h
53 16-10-2009 10:28:02 5.4 C 6.28 g/m*3 5.4 C 0 km/h
54 16-10-2009 10:40:02 5.6 C 6.43 g/m*3 5.6 C 0 km/h
55 16-10-2009 10:52:02 5.6 C 6.5 g/m*3 5.6 C 0 km/h
56 16-10-2009 11:04:02 5.7 C 6.55 g/m*3 5.7 C 0 km/h
57 16-10-2009 11:16:02 5.8 C 6.66 g/m*3 5.8 C 0 km/h
58 16-10-2009 11:28:02 5.9 C 6.78 g/m*3 5.9 C 0 km/h
59 16-10-2009 11:40:02 5.9 C 6.78 g/m*3 5.9 C 0 km/h
60 16-10-2009 11:52:02 6.2 C 6.91 g/m*3 6.2 C 0 km/h
61 16-10-2009 12:04:02 6.3 C 7.03 g/m*3 6.3 C 0 km/h
62 16-10-2009 12:16:01 6.5 C 7.12 g/m*3 6.5 C 0 km/h
63 16-10-2009 12:28:01 7 C 7.36 g/m*3 7 C 0 km/h
64 16-10-2009 12:40:02 7 C 7.36 g/m*3 7 C 0 km/h
65 16-10-2009 12:52:02 8.3 C 8.01 g/m*3 8.3 C 0 km/h
66 16-10-2009 13:04:02 9.5 C 8.65 g/m*3 9.5 C 0 km/h
67 16-10-2009 13:16:01 9.5 C 8.56 g/m*3 9.5 C 0 km/h
68 16-10-2009 13:28:01 9.5 C 8.37 g/m*3 9.5 C 0 km/h
69 16-10-2009 13:40:02 10.4 C 8.29 g/m*3 10.4 C 0 km/h
70 16-10-2009 13:52:02 11.1 C 7.76 g/m*3 11.1 C 0 km/h
71 16-10-2009 14:04:02 11.2 C 7.2 g/m*3 11.2 C 0 km/h
72 16-10-2009 14:16:01 11.5 C 6.82 g/m*3 11.5 C 0 km/h
73 16-10-2009 14:28:01 11.6 C 6.65 g/m*3 11.6 C 0 km/h
74 16-10-2009 14:40:02 11.1 C 6.04 g/m*3 11.1 C 0 km/h
75 16-10-2009 14:52:01 10.8 C 6.03 g/m*3 10.8 C 0 km/h
Sensor: Nr:Datum:Temp:Abs-Feuchte:Windchill:Wind:
Aussen-T/F 76 16-10-2009 15:04:02 10.6 C 5.86 g/m*3 10.6 C 0 km/h
77 16-10-2009 15:16:02 10.8 C 5.93 g/m*3 10.8 C 0 km/h
78 16-10-2009 15:28:02 11 C 5.61 g/m*3 11 C 0 km/h
79 16-10-2009 15:40:02 11.1 C 5.54 g/m*3 11.1 C 0 km/h
80 16-10-2009 15:52:01 12 C 5.65 g/m*3 12 C 0 km/h
81 16-10-2009 16:04:02 11.6 C 5.3 g/m*3 11.6 C 0 km/h
82 16-10-2009 16:16:02 11.5 C 5.37 g/m*3 11.5 C 0 km/h
83 16-10-2009 16:28:02 11.4 C 5.23 g/m*3 11.4 C 0 km/h
84 16-10-2009 16:40:01 12 C 5.01 g/m*3 12 C 0 km/h
85 16-10-2009 16:52:02 11.7 C 5.12 g/m*3 11.7 C 0 km/h
86 16-10-2009 17:04:01 11.8 C 5.16 g/m*3 11.8 C 0 km/h
87 16-10-2009 17:16:02 11.4 C 5.23 g/m*3 11.4 C 0 km/h
88 16-10-2009 17:28:02 11 C 5.2 g/m*3 11 C 0 km/h
89 16-10-2009 17:40:01 9.6 C 6.14 g/m*3 9.6 C 0 km/h
90 16-10-2009 17:52:02 8.7 C 6.57 g/m*3 8.7 C 0 km/h
91 16-10-2009 18:04:02 8.5 C 6.74 g/m*3 8.5 C 0 km/h
92 16-10-2009 18:16:02 8.7 C 6.49 g/m*3 8.7 C 0 km/h
93 16-10-2009 18:28:02 8 C 6.53 g/m*3 8 C 0 km/h
94 16-10-2009 18:40:03 7.9 C 6.57 g/m*3 7.9 C 0 km/h
95 16-10-2009 18:52:02 7.8 C 6.61 g/m*3 7.8 C 0 km/h
96 16-10-2009 19:04:02 8 C 6.61 g/m*3 8 C 0 km/h
97 16-10-2009 19:16:02 8.2 C 6.36 g/m*3 8.2 C 0 km/h
98 16-10-2009 19:28:02 7.8 C 6.53 g/m*3 7.8 C 0 km/h
99 16-10-2009 19:40:02 7.9 C 6.65 g/m*3 7.9 C 0 km/h
100 16-10-2009 19:52:02 8.2 C 6.36 g/m*3 8.2 C 0 km/h
Sensor: Nr:Datum:Temp:Abs-Feuchte:Windchill:Wind:
Aussen-T/F 101 16-10-2009 20:04:02 8.6 C 6.1 g/m*3 8.6 C 0 km/h
102 16-10-2009 20:16:02 8.6 C 5.84 g/m*3 8.6 C 0 km/h
103 16-10-2009 20:28:02 8.6 C 5.76 g/m*3 8.6 C 0 km/h
104 16-10-2009 20:40:02 8.8 C 5.74 g/m*3 8.8 C 0 km/h
105 16-10-2009 20:52:01 8.5 C 5.81 g/m*3 8.5 C 0 km/h
106 16-10-2009 21:04:02 8.2 C 5.78 g/m*3 8.2 C 0 km/h
107 16-10-2009 21:16:01 8.1 C 5.99 g/m*3 8.1 C 0 km/h
108 16-10-2009 21:28:01 8.2 C 6.03 g/m*3 8.2 C 0 km/h
109 16-10-2009 21:40:02 8.3 C 6.07 g/m*3 8.3 C 0 km/h
110 16-10-2009 21:52:02 8.4 C 6.11 g/m*3 8.4 C 0 km/h
111 16-10-2009 22:04:01 8.4 C 6.02 g/m*3 8.4 C 0 km/h
112 16-10-2009 22:16:02 8 C 6.12 g/m*3 8 C 0 km/h
113 16-10-2009 22:28:02 7.8 C 6.37 g/m*3 7.8 C 0 km/h
114 16-10-2009 22:40:02 8 C 6.37 g/m*3 8 C 0 km/h
115 16-10-2009 22:53:03 8.1 C 6.24 g/m*3 8.1 C 0 km/h
116 16-10-2009 23:05:03 8.1 C 6.16 g/m*3 8.1 C 0 km/h
117 16-10-2009 23:17:03 8.1 C 6.16 g/m*3 8.1 C 0 km/h
118 16-10-2009 23:29:03 8.1 C 6.16 g/m*3 8.1 C 0 km/h
119 16-10-2009 23:41:03 8.1 C 6.16 g/m*3 8.1 C 0 km/h
120 16-10-2009 23:53:04 8 C 6.28 g/m*3 8 C 0 km/h
121 17-10-2009 00:05:04 8 C 6.45 g/m*3 8 C 0 km/h
122 17-10-2009 00:17:04 7.9 C 6.57 g/m*3 7.9 C 0 km/h
123 17-10-2009 00:29:04 8 C 6.45 g/m*3 8 C 0 km/h
124 17-10-2009 00:41:04 8 C 6.53 g/m*3 8 C 0 km/h
125 17-10-2009 00:53:04 8 C 6.45 g/m*3 8 C 0 km/h
Sensor: Nr:Datum:Temp:Abs-Feuchte:Windchill:Wind:
Aussen-T/F 126 17-10-2009 01:05:04 8 C 6.45 g/m*3 8 C 0 km/h
127 17-10-2009 01:17:04 8.1 C 6.49 g/m*3 8.1 C 0 km/h
128 17-10-2009 01:29:04 8.1 C 6.41 g/m*3 8.1 C 0 km/h
129 17-10-2009 01:41:04 8.1 C 6.41 g/m*3 8.1 C 0 km/h
130 17-10-2009 01:53:04 8.1 C 6.41 g/m*3 8.1 C 0 km/h
131 17-10-2009 02:05:04 8.1 C 6.41 g/m*3 8.1 C 0 km/h
132 17-10-2009 02:17:04 8.1 C 6.41 g/m*3 8.1 C 0 km/h
133 17-10-2009 02:29:04 8.1 C 6.41 g/m*3 8.1 C 0 km/h
134 17-10-2009 02:41:04 8.2 C 6.36 g/m*3 8.2 C 0 km/h
135 17-10-2009 02:53:04 8.2 C 6.36 g/m*3 8.2 C 0 km/h
136 17-10-2009 03:05:04 8.1 C 6.32 g/m*3 8.1 C 0 km/h
137 17-10-2009 03:17:04 8.3 C 6.24 g/m*3 8.3 C 0 km/h
138 17-10-2009 03:29:04 8.2 C 6.2 g/m*3 8.2 C 0 km/h
139 17-10-2009 03:41:05 8.2 C 6.2 g/m*3 8.2 C 0 km/h
140 17-10-2009 03:53:05 8.2 C 6.11 g/m*3 8.2 C 0 km/h
141 17-10-2009 04:05:05 8.1 C 6.16 g/m*3 8.1 C 0 km/h
142 17-10-2009 04:17:05 8.1 C 6.07 g/m*3 8.1 C 0 km/h
143 17-10-2009 04:29:05 8.1 C 6.16 g/m*3 8.1 C 0 km/h
144 17-10-2009 04:41:05 8.1 C 5.99 g/m*3 8.1 C 0 km/h
145 17-10-2009 04:53:05 8.1 C 5.99 g/m*3 8.1 C 0 km/h
146 17-10-2009 05:05:05 8.1 C 5.99 g/m*3 8.1 C 0 km/h
147 17-10-2009 05:17:05 8.2 C 5.86 g/m*3 8.2 C 0 km/h
148 17-10-2009 05:29:05 8.2 C 5.86 g/m*3 8.2 C 0 km/h
149 17-10-2009 05:41:05 8.1 C 5.82 g/m*3 8.1 C 0 km/h
150 17-10-2009 05:53:05 8.1 C 5.82 g/m*3 8.1 C 0 km/h
Sensor: Nr:Datum:Temp:Abs-Feuchte:Windchill:Wind:
Aussen-T/F 151 17-10-2009 06:05:05 8 C 5.87 g/m*3 8 C 0 km/h
152 17-10-2009 06:17:05 7.7 C 5.84 g/m*3 7.7 C 0 km/h
153 17-10-2009 06:29:05 7.5 C 5.84 g/m*3 7.5 C 0 km/h
154 17-10-2009 06:41:05 7.1 C 5.77 g/m*3 7.1 C 0 km/h
155 17-10-2009 06:53:05 6.8 C 5.81 g/m*3 6.8 C 0 km/h
156 17-10-2009 07:05:05 6.9 C 5.93 g/m*3 6.9 C 0 km/h
157 17-10-2009 07:17:05 6.7 C 5.93 g/m*3 6.7 C 0 km/h
158 17-10-2009 07:29:06 6.5 C 6 g/m*3 6.5 C 0 km/h
159 17-10-2009 07:41:06 6.5 C 6.07 g/m*3 6.5 C 0 km/h
160 17-10-2009 07:53:06 6.8 C 6.19 g/m*3 6.8 C 0 km/h
161 17-10-2009 08:05:06 6.7 C 6.15 g/m*3 6.7 C 0 km/h
162 17-10-2009 08:17:06 6.5 C 6.15 g/m*3 6.5 C 0 km/h
163 17-10-2009 08:29:06 6.4 C 6.18 g/m*3 6.4 C 0 km/h
164 17-10-2009 08:41:06 6.4 C 6.18 g/m*3 6.4 C 0 km/h
165 17-10-2009 08:53:02 6.3 C 6.14 g/m*3 6.3 C 0 km/h
166 17-10-2009 09:05:02 6.3 C 6.14 g/m*3 6.3 C 0 km/h
167 17-10-2009 09:17:01 6.3 C 6.22 g/m*3 6.3 C 0 km/h
168 17-10-2009 09:29:01 6.7 C 6.38 g/m*3 6.7 C 0 km/h
169 17-10-2009 09:41:02 7.2 C 6.44 g/m*3 7.2 C 0 km/h
170 17-10-2009 09:53:02 7.3 C 6.24 g/m*3 7.3 C 0 km/h
171 17-10-2009 10:05:02 7.3 C 6.24 g/m*3 7.3 C 0 km/h
172 17-10-2009 10:17:02 7.6 C 6.28 g/m*3 7.6 C 0 km/h
173 17-10-2009 10:29:02 8 C 6.2 g/m*3 8 C 0 km/h
174 17-10-2009 10:41:02 8.2 C 6.2 g/m*3 8.2 C 0 km/h
175 17-10-2009 10:53:02 8.4 C 6.11 g/m*3 8.4 C 0 km/h
Sensor: Nr:Datum:Temp:Abs-Feuchte:Windchill:Wind:
Aussen-T/F 176 17-10-2009 11:05:02 8.7 C 6.14 g/m*3 8.7 C 0 km/h
177 17-10-2009 11:17:02 8.9 C 6.13 g/m*3 8.9 C 0 km/h
178 17-10-2009 11:29:02 9.4 C 5.79 g/m*3 9.4 C 0 km/h
179 17-10-2009 11:41:02 9.5 C 5.46 g/m*3 9.5 C 0 km/h
180 17-10-2009 11:53:02 9.6 C 5.4 g/m*3 9.6 C 0 km/h
181 17-10-2009 12:05:02 9.9 C 5.14 g/m*3 9.9 C 0 km/h
182 17-10-2009 12:17:02 9.6 C 5.04 g/m*3 9.6 C 0 km/h
183 17-10-2009 12:29:02 9.8 C 4.92 g/m*3 9.8 C 0 km/h
184 17-10-2009 12:41:02 10 C 4.89 g/m*3 10 C 0 km/h
185 17-10-2009 12:53:02 10.5 C 5.14 g/m*3 10.5 C 0 km/h
186 17-10-2009 13:05:02 10.7 C 4.81 g/m*3 10.7 C 0 km/h
187 17-10-2009 13:17:02 10.4 C 4.72 g/m*3 10.4 C 0 km/h
188 17-10-2009 13:29:02 10.5 C 4.56 g/m*3 10.5 C 0 km/h
189 17-10-2009 13:41:01 10.2 C 4.28 g/m*3 10.2 C 0 km/h
190 17-10-2009 13:53:02 10.2 C 4.19 g/m*3 10.2 C 0 km/h
191 17-10-2009 14:05:01 11 C 4.5 g/m*3 11 C 0 km/h
192 17-10-2009 14:17:01 11.1 C 4.23 g/m*3 11.1 C 0 km/h
193 17-10-2009 14:29:01 10.5 C 4.17 g/m*3 10.5 C 0 km/h
194 17-10-2009 14:41:02 10.3 C 4.41 g/m*3 10.3 C 0 km/h
195 17-10-2009 14:53:02 9.5 C 5.01 g/m*3 9.5 C 0 km/h
196 17-10-2009 15:05:01 9.8 C 4.92 g/m*3 9.8 C 0 km/h
197 17-10-2009 15:17:02 10.1 C 5.01 g/m*3 10.1 C 0 km/h
198 17-10-2009 15:29:02 10.6 C 5.17 g/m*3 10.6 C 0 km/h
199 17-10-2009 15:41:02 10.6 C 4.78 g/m*3 10.6 C 0 km/h
200 17-10-2009 15:53:01 10.5 C 4.56 g/m*3 10.5 C 0 km/h
Sensor: Nr:Datum:Temp:Abs-Feuchte:Windchill:Wind:
Aussen-T/F 201 17-10-2009 16:05:02 10.1 C 4.63 g/m*3 10.1 C 0 km/h
202 17-10-2009 16:17:01 10.8 C 4.74 g/m*3 10.8 C 0 km/h
203 17-10-2009 16:29:01 10.7 C 4.62 g/m*3 10.7 C 0 km/h
204 17-10-2009 16:41:02 10.6 C 4.78 g/m*3 10.6 C 0 km/h
205 17-10-2009 16:53:03 10.3 C 4.79 g/m*3 10.3 C 0 km/h
206 17-10-2009 17:05:03 10.2 C 4.85 g/m*3 10.2 C 0 km/h
207 17-10-2009 17:17:02 10.1 C 4.82 g/m*3 10.1 C 0 km/h
208 17-10-2009 17:29:02 10 C 4.89 g/m*3 10 C 0 km/h
209 17-10-2009 17:41:03 10 C 4.89 g/m*3 10 C 0 km/h
210 17-10-2009 17:53:02 9.9 C 4.86 g/m*3 9.9 C 0 km/h
211 17-10-2009 18:05:03 9.7 C 4.98 g/m*3 9.7 C 0 km/h
212 17-10-2009 18:17:03 9.6 C 5.04 g/m*3 9.6 C 0 km/h
213 17-10-2009 18:29:03 9.4 C 4.88 g/m*3 9.4 C 0 km/h
214 17-10-2009 18:41:03 9.2 C 4.82 g/m*3 9.2 C 0 km/h
215 17-10-2009 18:53:02 9.1 C 4.88 g/m*3 9.1 C 0 km/h
216 17-10-2009 19:05:03 8.9 C 4.91 g/m*3 8.9 C 0 km/h
217 17-10-2009 19:17:02 8.7 C 5.02 g/m*3 8.7 C 0 km/h
218 17-10-2009 19:29:02 8.7 C 5.02 g/m*3 8.7 C 0 km/h
219 17-10-2009 19:41:02 8.6 C 4.98 g/m*3 8.6 C 0 km/h
220 17-10-2009 19:53:02 8.4 C 5.01 g/m*3 8.4 C 0 km/h
221 17-10-2009 20:05:01 8.2 C 5.02 g/m*3 8.2 C 0 km/h
222 17-10-2009 20:17:02 8.2 C 5.11 g/m*3 8.2 C 0 km/h
223 17-10-2009 20:29:03 8.1 C 5.24 g/m*3 8.1 C 0 km/h
224 17-10-2009 20:41:02 8.1 C 5.24 g/m*3 8.1 C 0 km/h
225 17-10-2009 20:53:02 8.2 C 5.19 g/m*3 8.2 C 0 km/h
Sensor: Nr:Datum:Temp:Abs-Feuchte:Windchill:Wind:
Aussen-T/F 226 17-10-2009 21:05:01 8.2 C 5.28 g/m*3 8.2 C 0 km/h
227 17-10-2009 21:17:02 8.1 C 5.33 g/m*3 8.1 C 0 km/h
228 17-10-2009 21:29:02 8.1 C 5.33 g/m*3 8.1 C 0 km/h
229 17-10-2009 21:41:01 8 C 5.37 g/m*3 8 C 0 km/h
230 17-10-2009 21:53:03 7.8 C 5.47 g/m*3 7.8 C 0 km/h
231 17-10-2009 22:05:02 7.9 C 5.59 g/m*3 7.9 C 0 km/h
232 17-10-2009 22:17:02 8 C 5.46 g/m*3 8 C 0 km/h
233 17-10-2009 22:29:02 8 C 5.46 g/m*3 8 C 0 km/h
234 17-10-2009 22:41:02 8 C 5.46 g/m*3 8 C 0 km/h
235 17-10-2009 22:53:01 7.8 C 5.55 g/m*3 7.8 C 0 km/h
236 17-10-2009 23:06:01 7.8 C 5.55 g/m*3 7.8 C 0 km/h
237 17-10-2009 23:18:01 7.7 C 5.51 g/m*3 7.7 C 0 km/h
238 17-10-2009 23:30:01 7.6 C 5.56 g/m*3 7.6 C 0 km/h
239 17-10-2009 23:42:01 7.4 C 5.49 g/m*3 7.4 C 0 km/h
240 17-10-2009 23:54:02 7.1 C 5.54 g/m*3 7.1 C 0 km/h
241 18-10-2009 00:06:02 7 C 5.5 g/m*3 7 C 0 km/h
242 18-10-2009 00:18:02 6.7 C 5.62 g/m*3 6.7 C 0 km/h
243 18-10-2009 00:30:02 6.7 C 5.62 g/m*3 6.7 C 0 km/h
244 18-10-2009 00:42:02 6.3 C 5.48 g/m*3 6.3 C 0 km/h
245 18-10-2009 00:54:02 5.7 C 5.48 g/m*3 5.7 C 0 km/h
246 18-10-2009 01:06:02 5.3 C 5.48 g/m*3 5.3 C 0 km/h
247 18-10-2009 01:18:02 5.1 C 5.47 g/m*3 5.1 C 0 km/h
248 18-10-2009 01:30:02 5.1 C 5.54 g/m*3 5.1 C 0 km/h
249 18-10-2009 01:42:02 5.2 C 5.65 g/m*3 5.2 C 0 km/h
250 18-10-2009 01:54:02 5.5 C 5.76 g/m*3 5.5 C 0 km/h
Sensor: Nr:Datum:Temp:Abs-Feuchte:Windchill:Wind:
Aussen-T/F 251 18-10-2009 02:06:02 5.6 C 5.8 g/m*3 5.6 C 0 km/h
252 18-10-2009 02:18:02 5.8 C 5.87 g/m*3 5.8 C 0 km/h
253 18-10-2009 02:30:02 5.8 C 5.87 g/m*3 5.8 C 0 km/h
254 18-10-2009 02:42:02 5.9 C 5.84 g/m*3 5.9 C 0 km/h
255 18-10-2009 02:54:02 6 C 5.81 g/m*3 6 C 0 km/h
256 18-10-2009 03:06:02 6 C 5.81 g/m*3 6 C 0 km/h
257 18-10-2009 03:18:02 5.9 C 5.77 g/m*3 5.9 C 0 km/h
258 18-10-2009 03:30:02 5.7 C 5.69 g/m*3 5.7 C 0 km/h
259 18-10-2009 03:42:03 5.5 C 5.62 g/m*3 5.5 C 0 km/h
260 18-10-2009 03:54:03 5.5 C 5.69 g/m*3 5.5 C 0 km/h
261 18-10-2009 04:06:03 5.5 C 5.69 g/m*3 5.5 C 0 km/h
262 18-10-2009 04:18:03 5.4 C 5.72 g/m*3 5.4 C 0 km/h
263 18-10-2009 04:30:03 5.5 C 5.76 g/m*3 5.5 C 0 km/h
264 18-10-2009 04:42:03 5.6 C 5.8 g/m*3 5.6 C 0 km/h
265 18-10-2009 04:54:03 5.6 C 5.8 g/m*3 5.6 C 0 km/h
266 18-10-2009 05:06:03 5.6 C 5.8 g/m*3 5.6 C 0 km/h
267 18-10-2009 05:18:03 5.6 C 5.8 g/m*3 5.6 C 0 km/h
268 18-10-2009 05:30:03 5.6 C 5.8 g/m*3 5.6 C 0 km/h
269 18-10-2009 05:42:03 5.6 C 5.8 g/m*3 5.6 C 0 km/h
270 18-10-2009 05:54:03 5.6 C 5.8 g/m*3 5.6 C 0 km/h
271 18-10-2009 06:06:03 5.6 C 5.8 g/m*3 5.6 C 0 km/h
272 18-10-2009 06:18:03 5.5 C 5.76 g/m*3 5.5 C 0 km/h
273 18-10-2009 06:30:03 5.6 C 5.87 g/m*3 5.6 C 0 km/h
274 18-10-2009 06:42:03 5.2 C 5.78 g/m*3 5.2 C 0 km/h
275 18-10-2009 06:54:03 4.7 C 5.66 g/m*3 4.7 C 0 km/h
Sensor: Nr:Datum:Temp:Abs-Feuchte:Windchill:Wind:
Aussen-T/F 276 18-10-2009 07:06:03 4.3 C 5.58 g/m*3 4.3 C 0 km/h
277 18-10-2009 07:18:03 4.1 C 5.63 g/m*3 4.1 C 0 km/h
278 18-10-2009 07:30:04 4.2 C 5.73 g/m*3 4.2 C 0 km/h
279 18-10-2009 07:42:04 4.6 C 6.02 g/m*3 4.6 C 0 km/h
280 18-10-2009 07:54:04 4.8 C 6.17 g/m*3 4.8 C 0 km/h
281 18-10-2009 08:06:04 4.8 C 6.17 g/m*3 4.8 C 0 km/h
282 18-10-2009 08:18:04 5 C 6.18 g/m*3 5 C 0 km/h
283 18-10-2009 08:30:04 5.1 C 6.22 g/m*3 5.1 C 0 km/h
284 18-10-2009 08:42:04 5.2 C 6.2 g/m*3 5.2 C 0 km/h
285 18-10-2009 08:54:04 5.3 C 6.24 g/m*3 5.3 C 0 km/h
286 18-10-2009 09:06:02 5.4 C 6.28 g/m*3 5.4 C 0 km/h
287 18-10-2009 09:18:01 5.5 C 6.32 g/m*3 5.5 C 0 km/h
288 18-10-2009 09:30:01 5.8 C 6.38 g/m*3 5.8 C 0 km/h
289 18-10-2009 09:42:01 6.2 C 6.47 g/m*3 6.2 C 0 km/h
290 18-10-2009 09:54:02 6.4 C 6.56 g/m*3 6.4 C 0 km/h
291 18-10-2009 10:06:02 6.7 C 6.61 g/m*3 6.7 C 0 km/h
292 18-10-2009 10:18:01 7.1 C 6.55 g/m*3 7.1 C 0 km/h
293 18-10-2009 10:30:01 7.1 C 6.4 g/m*3 7.1 C 0 km/h
294 18-10-2009 10:42:02 7.4 C 6.2 g/m*3 7.4 C 0 km/h
295 18-10-2009 10:54:02 7.3 C 5.85 g/m*3 7.3 C 0 km/h
296 18-10-2009 11:06:02 7.1 C 5.69 g/m*3 7.1 C 0 km/h
297 18-10-2009 11:18:02 7.2 C 5.73 g/m*3 7.2 C 0 km/h
298 18-10-2009 11:30:02 7.7 C 5.76 g/m*3 7.7 C 0 km/h
299 18-10-2009 11:42:02 7.9 C 5.67 g/m*3 7.9 C 0 km/h
300 18-10-2009 11:54:02 8 C 5.54 g/m*3 8 C 0 km/h
Sensor: Nr:Datum:Temp:Abs-Feuchte:Windchill:Wind:
Aussen-T/F 301 18-10-2009 12:06:02 8 C 5.54 g/m*3 8 C 0 km/h
302 18-10-2009 12:18:03 8 C 5.62 g/m*3 8 C 0 km/h
303 18-10-2009 12:30:03 9.1 C 5.68 g/m*3 9.1 C 0 km/h
304 18-10-2009 12:42:02 9.8 C 5.29 g/m*3 9.8 C 0 km/h
305 18-10-2009 12:54:02 10 C 5.26 g/m*3 10 C 0 km/h
306 18-10-2009 13:06:02 9.3 C 4.67 g/m*3 9.3 C 0 km/h
307 18-10-2009 13:18:02 9.6 C 4.76 g/m*3 9.6 C 0 km/h
308 18-10-2009 13:30:02 11 C 4.4 g/m*3 11 C 0 km/h
309 18-10-2009 13:42:02 10.8 C 4.25 g/m*3 10.8 C 0 km/h
310 18-10-2009 13:54:02 10.7 C 4.32 g/m*3 10.7 C 0 km/h
311 18-10-2009 14:06:02 11.7 C 4.29 g/m*3 11.7 C 0 km/h
312 18-10-2009 14:18:02 12.4 C 4.04 g/m*3 12.4 C 0 km/h
313 18-10-2009 14:30:03 11.2 C 3.85 g/m*3 11.2 C 0 km/h
314 18-10-2009 14:42:01 11.8 C 4.21 g/m*3 11.8 C 0 km/h
315 18-10-2009 14:54:02 11 C 4 g/m*3 11 C 0 km/h
316 18-10-2009 15:06:01 11.2 C 4.16 g/m*3 11.2 C 0 km/h
317 18-10-2009 15:18:02 11.6 C 3.95 g/m*3 11.6 C 0 km/h
318 18-10-2009 15:30:02 12.1 C 3.86 g/m*3 12.1 C 0 km/h
319 18-10-2009 15:42:02 12.4 C 3.82 g/m*3 12.4 C 0 km/h
320 18-10-2009 15:54:02 13.3 C 3.81 g/m*3 13.3 C 0 km/h
321 18-10-2009 16:06:03 12.6 C 3.54 g/m*3 12.6 C 0 km/h
322 18-10-2009 16:18:02 12.8 C 3.58 g/m*3 12.8 C 0 km/h
323 18-10-2009 16:30:02 13.3 C 3.81 g/m*3 13.3 C 0 km/h
324 18-10-2009 16:42:02 14.4 C 3.83 g/m*3 14.4 C 0 km/h
325 18-10-2009 16:54:02 14.5 C 3.73 g/m*3 14.5 C 0 km/h
Sensor: Nr:Datum:Temp:Abs-Feuchte:Windchill:Wind:
Aussen-T/F 326 18-10-2009 17:06:02 14 C 3.62 g/m*3 14 C 0 km/h
327 18-10-2009 17:18:01 14 C 3.74 g/m*3 14 C 0 km/h
328 18-10-2009 17:30:01 13.6 C 3.88 g/m*3 13.6 C 0 km/h
329 18-10-2009 17:42:02 13.4 C 4.07 g/m*3 13.4 C 0 km/h
330 18-10-2009 17:54:02 12.7 C 4.23 g/m*3 12.7 C 0 km/h
331 18-10-2009 18:06:02 11.9 C 4.34 g/m*3 11.9 C 0 km/h
332 18-10-2009 18:18:02 10.8 C 4.45 g/m*3 10.8 C 0 km/h
333 18-10-2009 18:30:02 10.1 C 4.35 g/m*3 10.1 C 0 km/h
334 18-10-2009 18:42:02 9.2 C 4.38 g/m*3 9.2 C 0 km/h
335 18-10-2009 18:54:02 8.5 C 4.44 g/m*3 8.5 C 0 km/h
336 18-10-2009 19:06:02 8.1 C 4.49 g/m*3 8.1 C 0 km/h
337 18-10-2009 19:18:02 7.8 C 4.65 g/m*3 7.8 C 0 km/h
338 18-10-2009 19:30:02 7.5 C 4.64 g/m*3 7.5 C 0 km/h
339 18-10-2009 19:42:02 7.2 C 4.55 g/m*3 7.2 C 0 km/h
340 18-10-2009 19:54:02 7 C 4.57 g/m*3 7 C 0 km/h
341 18-10-2009 20:06:02 6.7 C 4.71 g/m*3 6.7 C 0 km/h
342 18-10-2009 20:18:03 6.5 C 4.72 g/m*3 6.5 C 0 km/h
343 18-10-2009 20:30:03 6.3 C 4.66 g/m*3 6.3 C 0 km/h
344 18-10-2009 20:42:02 6 C 4.72 g/m*3 6 C 0 km/h
345 18-10-2009 20:54:03 5.8 C 4.87 g/m*3 5.8 C 0 km/h
346 18-10-2009 21:06:02 5.3 C 4.85 g/m*3 5.3 C 0 km/h
347 18-10-2009 21:18:02 5.2 C 4.82 g/m*3 5.2 C 0 km/h
348 18-10-2009 21:30:02 5.2 C 4.89 g/m*3 5.2 C 0 km/h
349 18-10-2009 21:42:02 5 C 4.89 g/m*3 5 C 0 km/h
350 18-10-2009 21:54:02 5 C 4.89 g/m*3 5 C 0 km/h
Sensor: Nr:Datum:Temp:Abs-Feuchte:Windchill:Wind:
Aussen-T/F 351 18-10-2009 22:06:01 4.8 C 4.96 g/m*3 4.8 C 0 km/h
352 18-10-2009 22:19:01 4.7 C 5 g/m*3 4.7 C 0 km/h
353 18-10-2009 22:31:01 4.5 C 4.93 g/m*3 4.5 C 0 km/h
354 18-10-2009 22:43:01 4.5 C 4.93 g/m*3 4.5 C 0 km/h
355 18-10-2009 22:55:01 4.3 C 4.93 g/m*3 4.3 C 0 km/h
356 18-10-2009 23:07:01 4.1 C 4.93 g/m*3 4.1 C 0 km/h
357 18-10-2009 23:19:01 3.8 C 4.96 g/m*3 3.8 C 0 km/h
358 18-10-2009 23:31:01 3.7 C 4.92 g/m*3 3.7 C 0 km/h
359 18-10-2009 23:43:01 3.5 C 4.92 g/m*3 3.5 C 0 km/h
360 18-10-2009 23:55:01 3.3 C 4.85 g/m*3 3.3 C 0 km/h
361 19-10-2009 00:07:01 3.2 C 4.88 g/m*3 3.2 C 0 km/h
362 19-10-2009 00:19:01 3.1 C 4.91 g/m*3 3.1 C 0 km/h
363 19-10-2009 00:31:01 2.8 C 4.87 g/m*3 2.8 C 0 km/h
364 19-10-2009 00:43:01 2.8 C 4.87 g/m*3 2.8 C 0 km/h
365 19-10-2009 00:55:01 2.6 C 4.8 g/m*3 2.6 C 0 km/h
366 19-10-2009 01:07:01 2.5 C 4.77 g/m*3 2.5 C 0 km/h
367 19-10-2009 01:19:01 2.5 C 4.83 g/m*3 2.5 C 0 km/h
368 19-10-2009 01:31:01 2.5 C 4.83 g/m*3 2.5 C 0 km/h
369 19-10-2009 01:43:01 2.2 C 4.73 g/m*3 2.2 C 0 km/h
370 19-10-2009 01:55:01 2.1 C 4.7 g/m*3 2.1 C 0 km/h
371 19-10-2009 02:07:01 1.8 C 4.66 g/m*3 1.8 C 0 km/h
372 19-10-2009 02:19:01 1.8 C 4.71 g/m*3 1.8 C 0 km/h
373 19-10-2009 02:31:02 1.7 C 4.68 g/m*3 1.7 C 0 km/h
374 19-10-2009 02:43:02 1.6 C 4.65 g/m*3 1.6 C 0 km/h
375 19-10-2009 02:55:02 1.5 C 4.67 g/m*3 1.5 C 0 km/h
Sensor: Nr:Datum:Temp:Abs-Feuchte:Windchill:Wind:
Aussen-T/F 376 19-10-2009 03:07:02 1.3 C 4.61 g/m*3 1.3 C 0 km/h
377 19-10-2009 03:19:02 1.2 C 4.58 g/m*3 1.2 C 0 km/h
378 19-10-2009 03:31:02 1.1 C 4.55 g/m*3 1.1 C 0 km/h
379 19-10-2009 03:43:02 1.1 C 4.55 g/m*3 1.1 C 0 km/h
380 19-10-2009 03:55:02 0.9 C 4.54 g/m*3 0.9 C 0 km/h
381 19-10-2009 04:07:02 0.7 C 4.47 g/m*3 0.7 C 0 km/h
382 19-10-2009 04:19:02 0.7 C 4.47 g/m*3 0.7 C 0 km/h
383 19-10-2009 04:31:02 0.6 C 4.44 g/m*3 0.6 C 0 km/h
384 19-10-2009 04:43:02 0.5 C 4.46 g/m*3 0.5 C 0 km/h
385 19-10-2009 04:55:02 0.4 C 4.43 g/m*3 0.4 C 0 km/h
386 19-10-2009 05:07:02 0.2 C 4.37 g/m*3 0.2 C 0 km/h
387 19-10-2009 05:19:02 0.2 C 4.37 g/m*3 0.2 C 0 km/h
388 19-10-2009 05:31:02 0.2 C 4.37 g/m*3 0.2 C 0 km/h
389 19-10-2009 05:43:02 0.2 C 4.42 g/m*3 0.2 C 0 km/h
390 19-10-2009 05:55:02 0 C 4.36 g/m*3 0 C 0 km/h
391 19-10-2009 06:07:02 -0.1 C 4.33 g/m*3 -0.1 C 0 km/h
392 19-10-2009 06:19:02 0 C 4.36 g/m*3 0 C 0 km/h
393 19-10-2009 06:31:03 0 C 4.36 g/m*3 0 C 0 km/h
394 19-10-2009 06:43:03 0.2 C 4.47 g/m*3 0.2 C 0 km/h
395 19-10-2009 06:55:03 0.3 C 4.5 g/m*3 0.3 C 0 km/h
396 19-10-2009 07:07:01 0.2 C 4.47 g/m*3 0.2 C 0 km/h
397 19-10-2009 07:19:01 0.3 C 4.5 g/m*3 0.3 C 0 km/h
398 19-10-2009 07:31:02 0.4 C 4.53 g/m*3 0.4 C 0 km/h
399 19-10-2009 07:43:02 0.3 C 4.5 g/m*3 0.3 C 0 km/h
400 19-10-2009 07:55:02 0.2 C 4.42 g/m*3 0.2 C 0 km/h
Sensor: Nr:Datum:Temp:Abs-Feuchte:Windchill:Wind:
Aussen-T/F 401 19-10-2009 08:07:01 0.4 C 4.48 g/m*3 0.4 C 0 km/h
402 19-10-2009 08:19:02 0.4 C 4.48 g/m*3 0.4 C 0 km/h
403 19-10-2009 08:31:02 0.5 C 4.51 g/m*3 0.5 C 0 km/h
404 19-10-2009 08:43:02 0.3 C 4.4 g/m*3 0.3 C 0 km/h
405 19-10-2009 08:55:01 0.2 C 4.37 g/m*3 0.2 C 0 km/h
406 19-10-2009 09:07:02 0.2 C 4.37 g/m*3 0.2 C 0 km/h
407 19-10-2009 09:19:01 0.5 C 4.46 g/m*3 0.5 C 0 km/h
408 19-10-2009 09:31:02 0.6 C 4.49 g/m*3 0.6 C 0 km/h
409 19-10-2009 09:43:02 1 C 4.57 g/m*3 1 C 0 km/h
410 19-10-2009 09:55:02 0.6 C 4.44 g/m*3 0.6 C 0 km/h
411 19-10-2009 10:07:02 0.9 C 4.54 g/m*3 0.9 C 0 km/h
412 19-10-2009 10:19:02 1.3 C 4.61 g/m*3 1.3 C 0 km/h
413 19-10-2009 10:31:02 1.2 C 4.53 g/m*3 1.2 C 0 km/h
414 19-10-2009 10:43:02 1.1 C 4.49 g/m*3 1.1 C 0 km/h
415 19-10-2009 10:55:02 1.4 C 4.59 g/m*3 1.4 C 0 km/h
416 19-10-2009 11:07:02 2.3 C 4.82 g/m*3 2.3 C 0 km/h
417 19-10-2009 11:19:02 2.9 C 4.9 g/m*3 2.9 C 0 km/h
418 19-10-2009 11:31:02 3.5 C 4.92 g/m*3 3.5 C 0 km/h
419 19-10-2009 11:43:02 3.8 C 4.83 g/m*3 3.8 C 0 km/h
420 19-10-2009 11:55:02 3.7 C 4.74 g/m*3 3.7 C 0 km/h
421 19-10-2009 12:07:02 4.4 C 5.03 g/m*3 4.4 C 0 km/h
422 19-10-2009 12:19:03 4.6 C 5.1 g/m*3 4.6 C 0 km/h
423 19-10-2009 12:31:02 4.8 C 5.23 g/m*3 4.8 C 0 km/h
424 19-10-2009 12:43:02 5.2 C 5.23 g/m*3 5.2 C 0 km/h
425 19-10-2009 12:55:02 6 C 5.23 g/m*3 6 C 0 km/h
Sensor: Nr:Datum:Temp:Abs-Feuchte:Windchill:Wind:
Aussen-T/F 426 19-10-2009 13:07:02 6.7 C 5.39 g/m*3 6.7 C 0 km/h
427 19-10-2009 13:19:02 7.8 C 5.39 g/m*3 7.8 C 0 km/h
428 19-10-2009 13:31:02 9.1 C 5.23 g/m*3 9.1 C 0 km/h
429 19-10-2009 13:43:02 9.8 C 5.29 g/m*3 9.8 C 0 km/h
430 19-10-2009 13:55:02 10.9 C 5.27 g/m*3 10.9 C 0 km/h
431 19-10-2009 14:07:02 12 C 5.12 g/m*3 12 C 0 km/h
432 19-10-2009 14:19:02 13 C 4.88 g/m*3 13 C 0 km/h
433 19-10-2009 14:31:01 13.3 C 4.62 g/m*3 13.3 C 0 km/h
434 19-10-2009 14:43:01 13.2 C 4.59 g/m*3 13.2 C 0 km/h
435 19-10-2009 14:55:02 13.3 C 4.62 g/m*3 13.3 C 0 km/h
436 19-10-2009 15:07:01 13.1 C 4.56 g/m*3 13.1 C 0 km/h
437 19-10-2009 15:19:02 13.5 C 3.74 g/m*3 13.5 C 0 km/h
438 19-10-2009 15:31:02 13.8 C 3.57 g/m*3 13.8 C 0 km/h
439 19-10-2009 15:43:02 14.1 C 3.28 g/m*3 14.1 C 0 km/h
440 19-10-2009 15:55:02 14.3 C 3.19 g/m*3 14.3 C 0 km/h
441 19-10-2009 16:07:02 14.4 C 2.97 g/m*3 14.4 C 0 km/h
442 19-10-2009 16:19:02 15 C 2.82 g/m*3 15 C 0 km/h
443 19-10-2009 16:31:02 14.9 C 3.31 g/m*3 14.9 C 0 km/h
444 19-10-2009 16:43:02 15 C 3.21 g/m*3 15 C 0 km/h
445 19-10-2009 16:55:02 14.7 C 3.4 g/m*3 14.7 C 0 km/h
446 19-10-2009 17:07:02 14.5 C 3.11 g/m*3 14.5 C 0 km/h
447 19-10-2009 17:19:01 13.9 C 3.6 g/m*3 13.9 C 0 km/h
448 19-10-2009 17:31:02 13 C 3.4 g/m*3 13 C 0 km/h
449 19-10-2009 17:43:03 11.6 C 3.74 g/m*3 11.6 C 0 km/h
450 19-10-2009 17:55:02 10 C 3.76 g/m*3 10 C 0 km/h
Sensor: Nr:Datum:Temp:Abs-Feuchte:Windchill:Wind:
Aussen-T/F 451 19-10-2009 18:07:02 8.9 C 3.85 g/m*3 8.9 C 0 km/h
452 19-10-2009 18:19:01 8.1 C 3.91 g/m*3 8.1 C 0 km/h
453 19-10-2009 18:31:02 7.3 C 3.95 g/m*3 7.3 C 0 km/h
454 19-10-2009 18:43:02 6.7 C 4.03 g/m*3 6.7 C 0 km/h
455 19-10-2009 18:55:02 6.2 C 3.9 g/m*3 6.2 C 0 km/h
456 19-10-2009 19:07:02 5.9 C 3.97 g/m*3 5.9 C 0 km/h
457 19-10-2009 19:19:01 5.5 C 4 g/m*3 5.5 C 0 km/h
458 19-10-2009 19:31:02 5.4 C 4.12 g/m*3 5.4 C 0 km/h
459 19-10-2009 19:43:02 5.3 C 4.09 g/m*3 5.3 C 0 km/h
460 19-10-2009 19:55:02 5.1 C 4.17 g/m*3 5.1 C 0 km/h
461 19-10-2009 20:07:02 5 C 4.21 g/m*3 5 C 0 km/h
462 19-10-2009 20:19:02 4.7 C 4.26 g/m*3 4.7 C 0 km/h
463 19-10-2009 20:31:02 4.6 C 4.3 g/m*3 4.6 C 0 km/h
464 19-10-2009 20:43:02 4.5 C 4.34 g/m*3 4.5 C 0 km/h
465 19-10-2009 20:55:02 4.4 C 4.37 g/m*3 4.4 C 0 km/h
466 19-10-2009 21:07:02 4.2 C 4.38 g/m*3 4.2 C 0 km/h
467 19-10-2009 21:19:02 4.1 C 4.48 g/m*3 4.1 C 0 km/h
468 19-10-2009 21:31:02 4 C 4.45 g/m*3 4 C 0 km/h
469 19-10-2009 21:43:02 3.8 C 4.45 g/m*3 3.8 C 0 km/h
470 19-10-2009 21:55:02 3.7 C 4.49 g/m*3 3.7 C 0 km/h
471 19-10-2009 22:08:02 3.6 C 4.52 g/m*3 3.6 C 0 km/h
472 19-10-2009 22:20:02 3.5 C 4.55 g/m*3 3.5 C 0 km/h
473 19-10-2009 22:32:02 3.3 C 4.55 g/m*3 3.3 C 0 km/h
474 19-10-2009 22:44:02 3.3 C 4.61 g/m*3 3.3 C 0 km/h
475 19-10-2009 22:56:02 3.2 C 4.64 g/m*3 3.2 C 0 km/h
Sensor: Nr:Datum:Temp:Abs-Feuchte:Windchill:Wind:
Aussen-T/F 476 19-10-2009 23:08:02 3.1 C 4.67 g/m*3 3.1 C 0 km/h
477 19-10-2009 23:20:02 2.8 C 4.63 g/m*3 2.8 C 0 km/h
478 19-10-2009 23:32:02 2.8 C 4.69 g/m*3 2.8 C 0 km/h
479 19-10-2009 23:44:02 2.7 C 4.66 g/m*3 2.7 C 0 km/h
480 19-10-2009 23:56:02 2.6 C 4.69 g/m*3 2.6 C 0 km/h
481 20-10-2009 00:08:02 2.5 C 4.71 g/m*3 2.5 C 0 km/h
482 20-10-2009 00:20:02 2.4 C 4.68 g/m*3 2.4 C 0 km/h
483 20-10-2009 00:32:02 2.5 C 4.71 g/m*3 2.5 C 0 km/h
484 20-10-2009 00:44:02 2.3 C 4.71 g/m*3 2.3 C 0 km/h
485 20-10-2009 00:56:02 2.1 C 4.64 g/m*3 2.1 C 0 km/h
486 20-10-2009 01:08:02 2.1 C 4.64 g/m*3 2.1 C 0 km/h
487 20-10-2009 01:20:02 2 C 4.67 g/m*3 2 C 0 km/h
488 20-10-2009 01:32:02 1.9 C 4.69 g/m*3 1.9 C 0 km/h
489 20-10-2009 01:44:02 1.7 C 4.63 g/m*3 1.7 C 0 km/h
490 20-10-2009 01:56:02 1.6 C 4.6 g/m*3 1.6 C 0 km/h
491 20-10-2009 02:08:02 1.5 C 4.62 g/m*3 1.5 C 0 km/h
492 20-10-2009 02:20:03 1.5 C 4.62 g/m*3 1.5 C 0 km/h
493 20-10-2009 02:32:03 1.4 C 4.59 g/m*3 1.4 C 0 km/h
494 20-10-2009 02:44:03 1.4 C 4.59 g/m*3 1.4 C 0 km/h
495 20-10-2009 02:56:03 1.2 C 4.53 g/m*3 1.2 C 0 km/h
496 20-10-2009 03:08:03 1.1 C 4.49 g/m*3 1.1 C 0 km/h
497 20-10-2009 03:20:03 1 C 4.52 g/m*3 1 C 0 km/h
498 20-10-2009 03:32:03 0.8 C 4.45 g/m*3 0.8 C 0 km/h
499 20-10-2009 03:44:03 0.7 C 4.47 g/m*3 0.7 C 0 km/h
500 20-10-2009 03:56:03 0.7 C 4.47 g/m*3 0.7 C 0 km/h
Sensor: Nr:Datum:Temp:Abs-Feuchte:Windchill:Wind:
Aussen-T/F 501 20-10-2009 04:08:03 0.6 C 4.44 g/m*3 0.6 C 0 km/h
502 20-10-2009 04:20:03 0.5 C 4.41 g/m*3 0.5 C 0 km/h
503 20-10-2009 04:32:03 0.4 C 4.38 g/m*3 0.4 C 0 km/h
504 20-10-2009 04:44:03 0.3 C 4.35 g/m*3 0.3 C 0 km/h
505 20-10-2009 04:56:03 0.2 C 4.32 g/m*3 0.2 C 0 km/h
506 20-10-2009 05:08:03 0.3 C 4.35 g/m*3 0.3 C 0 km/h
507 20-10-2009 05:20:03 0.2 C 4.37 g/m*3 0.2 C 0 km/h
508 20-10-2009 05:32:03 0 C 4.31 g/m*3 0 C 0 km/h
509 20-10-2009 05:44:03 0 C 4.31 g/m*3 0 C 0 km/h
510 20-10-2009 05:56:03 -0.1 C 4.28 g/m*3 -0.1 C 0 km/h
511 20-10-2009 06:08:03 -0.2 C 4.25 g/m*3 -0.2 C 0 km/h
512 20-10-2009 06:20:04 -0.2 C 4.3 g/m*3 -0.2 C 0 km/h
513 20-10-2009 06:32:04 -0.3 C 4.27 g/m*3 -0.3 C 0 km/h
514 20-10-2009 06:44:04 -0.3 C 4.32 g/m*3 -0.3 C 0 km/h
515 20-10-2009 06:56:04 -0.3 C 4.32 g/m*3 -0.3 C 0 km/h
516 20-10-2009 07:08:02 -0.5 C 4.26 g/m*3 -0.5 C 0 km/h
517 20-10-2009 07:20:02 -0.3 C 4.32 g/m*3 -0.3 C 0 km/h
518 20-10-2009 07:32:01 -0.3 C 4.37 g/m*3 -0.3 C 0 km/h
519 20-10-2009 07:44:01 -0.5 C 4.31 g/m*3 -0.5 C 0 km/h
520 20-10-2009 07:56:02 -0.5 C 4.31 g/m*3 -0.5 C 0 km/h
521 20-10-2009 08:08:01 -0.5 C 4.31 g/m*3 -0.5 C 0 km/h
522 20-10-2009 08:20:02 -0.2 C 4.44 g/m*3 -0.2 C 0 km/h
523 20-10-2009 08:32:02 -0.1 C 4.47 g/m*3 -0.1 C 0 km/h
524 20-10-2009 08:44:02 0 C 4.51 g/m*3 0 C 0 km/h
525 20-10-2009 08:56:04 0.1 C 4.54 g/m*3 0.1 C 0 km/h
Sensor: Nr:Datum:Temp:Abs-Feuchte:Windchill:Wind:
Aussen-T/F 526 20-10-2009 09:08:02 0.2 C 4.57 g/m*3 0.2 C 0 km/h
527 20-10-2009 09:20:02 0.4 C 4.63 g/m*3 0.4 C 0 km/h
528 20-10-2009 09:32:02 0.5 C 4.71 g/m*3 0.5 C 0 km/h
529 20-10-2009 09:44:02 0.7 C 4.78 g/m*3 0.7 C 0 km/h
530 20-10-2009 09:56:01 0.9 C 4.85 g/m*3 0.9 C 0 km/h
531 20-10-2009 10:08:02 1.2 C 4.89 g/m*3 1.2 C 0 km/h
532 20-10-2009 10:20:01 1.4 C 4.96 g/m*3 1.4 C 0 km/h
533 20-10-2009 10:32:01 2.6 C 5.21 g/m*3 2.6 C 0 km/h
534 20-10-2009 10:44:01 3.4 C 4.95 g/m*3 3.4 C 0 km/h
535 20-10-2009 10:56:01 4.2 C 4.64 g/m*3 4.2 C 0 km/h
536 20-10-2009 11:08:02 4.8 C 4.56 g/m*3 4.8 C 0 km/h
537 20-10-2009 11:20:01 5.3 C 4.44 g/m*3 5.3 C 0 km/h
538 20-10-2009 11:32:01 5.8 C 4.37 g/m*3 5.8 C 0 km/h
539 20-10-2009 11:44:01 6.3 C 4.29 g/m*3 6.3 C 0 km/h
540 20-10-2009 11:56:01 6.9 C 4.46 g/m*3 6.9 C 0 km/h
541 20-10-2009 12:08:02 7 C 4.49 g/m*3 7 C 0 km/h
542 20-10-2009 12:20:02 7.5 C 4.4 g/m*3 7.5 C 0 km/h
543 20-10-2009 12:32:01 8 C 4.3 g/m*3 8 C 0 km/h
544 20-10-2009 12:44:01 8.3 C 4.3 g/m*3 8.3 C 0 km/h
545 20-10-2009 12:56:01 8.9 C 4.47 g/m*3 8.9 C 0 km/h
546 20-10-2009 13:08:02 9.3 C 4.22 g/m*3 9.3 C 0 km/h
547 20-10-2009 13:20:02 9.8 C 4.27 g/m*3 9.8 C 0 km/h
548 20-10-2009 13:32:01 10.2 C 4.38 g/m*3 10.2 C 0 km/h
549 20-10-2009 13:44:01 10.7 C 4.32 g/m*3 10.7 C 0 km/h
550 20-10-2009 13:56:01 11.2 C 4.26 g/m*3 11.2 C 0 km/h
Sensor: Nr:Datum:Temp:Abs-Feuchte:Windchill:Wind:
Aussen-T/F 551 20-10-2009 14:08:01 11.7 C 4.29 g/m*3 11.7 C 0 km/h
552 20-10-2009 14:20:02 11.9 C 4.24 g/m*3 11.9 C 0 km/h
553 20-10-2009 14:32:01 12.1 C 4.29 g/m*3 12.1 C 0 km/h
554 20-10-2009 14:44:01 12.5 C 4.29 g/m*3 12.5 C 0 km/h
555 20-10-2009 14:56:02 12.9 C 4.17 g/m*3 12.9 C 0 km/h
556 20-10-2009 15:08:01 12.7 C 4.12 g/m*3 12.7 C 0 km/h
557 20-10-2009 15:20:02 12.8 C 4.03 g/m*3 12.8 C 0 km/h
558 20-10-2009 15:32:01 13.3 C 4.04 g/m*3 13.3 C 0 km/h
559 20-10-2009 15:44:01 13.7 C 4.14 g/m*3 13.7 C 0 km/h
560 20-10-2009 15:56:03 14.2 C 4.03 g/m*3 14.2 C 0 km/h
561 20-10-2009 16:08:02 13.8 C 3.93 g/m*3 13.8 C 0 km/h
562 20-10-2009 16:20:02 13.7 C 4.03 g/m*3 13.7 C 0 km/h
563 20-10-2009 16:32:02 13.4 C 4.07 g/m*3 13.4 C 0 km/h
564 20-10-2009 16:44:02 13.5 C 4.09 g/m*3 13.5 C 0 km/h
565 20-10-2009 16:56:02 12.8 C 4.14 g/m*3 12.8 C 0 km/h
566 20-10-2009 17:08:02 11.9 C 4.24 g/m*3 11.9 C 0 km/h
567 20-10-2009 17:20:02 11.2 C 4.26 g/m*3 11.2 C 0 km/h
568 20-10-2009 17:32:02 10.8 C 4.45 g/m*3 10.8 C 0 km/h
569 20-10-2009 17:44:02 10.5 C 4.46 g/m*3 10.5 C 0 km/h
570 20-10-2009 17:56:02 10.3 C 4.5 g/m*3 10.3 C 0 km/h
571 20-10-2009 18:08:01 10.1 C 4.54 g/m*3 10.1 C 0 km/h
572 20-10-2009 18:20:02 9.7 C 4.7 g/m*3 9.7 C 0 km/h
573 20-10-2009 18:32:02 9.4 C 4.61 g/m*3 9.4 C 0 km/h
574 20-10-2009 18:44:02 9.1 C 4.7 g/m*3 9.1 C 0 km/h
575 20-10-2009 18:56:02 8.8 C 4.87 g/m*3 8.8 C 0 km/h
Sensor: Nr:Datum:Temp:Abs-Feuchte:Windchill:Wind:
Aussen-T/F 576 20-10-2009 19:08:03 8.6 C 4.9 g/m*3 8.6 C 0 km/h
577 20-10-2009 19:20:02 8.6 C 4.98 g/m*3 8.6 C 0 km/h
578 20-10-2009 19:32:02 8.4 C 4.92 g/m*3 8.4 C 0 km/h
579 20-10-2009 19:44:02 8.2 C 4.86 g/m*3 8.2 C 0 km/h
580 20-10-2009 19:56:02 7.8 C 4.98 g/m*3 7.8 C 0 km/h
581 20-10-2009 20:08:02 7.8 C 4.98 g/m*3 7.8 C 0 km/h
582 20-10-2009 20:20:01 7.4 C 4.93 g/m*3 7.4 C 0 km/h
583 20-10-2009 20:32:02 7.2 C 5.02 g/m*3 7.2 C 0 km/h
584 20-10-2009 20:44:02 7 C 5.04 g/m*3 7 C 0 km/h
585 20-10-2009 20:56:02 6.9 C 5.16 g/m*3 6.9 C 0 km/h
586 20-10-2009 21:08:02 6.4 C 5.14 g/m*3 6.4 C 0 km/h
587 20-10-2009 21:20:02 6.3 C 5.18 g/m*3 6.3 C 0 km/h
588 20-10-2009 21:32:02 6 C 5.15 g/m*3 6 C 0 km/h
589 20-10-2009 21:44:02 5.9 C 5.19 g/m*3 5.9 C 0 km/h
590 20-10-2009 21:56:01 5.7 C 5.19 g/m*3 5.7 C 0 km/h
591 20-10-2009 22:09:03 5.6 C 5.3 g/m*3 5.6 C 0 km/h
592 20-10-2009 22:21:03 5.5 C 5.27 g/m*3 5.5 C 0 km/h
593 20-10-2009 22:33:03 5.3 C 5.2 g/m*3 5.3 C 0 km/h
594 20-10-2009 22:45:03 5.1 C 5.2 g/m*3 5.1 C 0 km/h
595 20-10-2009 22:57:03 5 C 5.16 g/m*3 5 C 0 km/h
596 20-10-2009 23:09:03 4.8 C 5.23 g/m*3 4.8 C 0 km/h
597 20-10-2009 23:21:03 4.7 C 5.2 g/m*3 4.7 C 0 km/h
598 20-10-2009 23:33:03 4.6 C 5.16 g/m*3 4.6 C 0 km/h
599 20-10-2009 23:45:03 4.4 C 5.09 g/m*3 4.4 C 0 km/h
600 20-10-2009 23:57:03 4.3 C 5.12 g/m*3 4.3 C 0 km/h
Sensor: Nr:Datum:Temp:Abs-Feuchte:Windchill:Wind:
Aussen-T/F 601 21-10-2009 00:09:03 4.2 C 5.09 g/m*3 4.2 C 0 km/h
602 21-10-2009 00:21:03 4.2 C 5.15 g/m*3 4.2 C 0 km/h
603 21-10-2009 00:33:03 4.1 C 5.12 g/m*3 4.1 C 0 km/h
604 21-10-2009 00:45:03 4 C 5.15 g/m*3 4 C 0 km/h
605 21-10-2009 00:57:03 3.9 C 5.18 g/m*3 3.9 C 0 km/h
606 21-10-2009 01:09:03 3.8 C 5.14 g/m*3 3.8 C 0 km/h
607 21-10-2009 01:21:03 3.9 C 5.18 g/m*3 3.9 C 0 km/h
608 21-10-2009 01:33:03 3.8 C 5.14 g/m*3 3.8 C 0 km/h
609 21-10-2009 01:45:03 3.9 C 5.18 g/m*3 3.9 C 0 km/h
610 21-10-2009 01:57:03 3.9 C 5.18 g/m*3 3.9 C 0 km/h
611 21-10-2009 02:09:04 3.9 C 5.18 g/m*3 3.9 C 0 km/h
612 21-10-2009 02:21:04 3.9 C 5.18 g/m*3 3.9 C 0 km/h
613 21-10-2009 02:33:04 3.9 C 5.12 g/m*3 3.9 C 0 km/h
614 21-10-2009 02:45:04 4 C 5.09 g/m*3 4 C 0 km/h
615 21-10-2009 02:57:04 4.2 C 5.15 g/m*3 4.2 C 0 km/h
616 21-10-2009 03:09:04 4.3 C 5.12 g/m*3 4.3 C 0 km/h
617 21-10-2009 03:21:04 4.4 C 5.16 g/m*3 4.4 C 0 km/h
618 21-10-2009 03:33:04 4.4 C 5.09 g/m*3 4.4 C 0 km/h
619 21-10-2009 03:45:04 4.3 C 4.99 g/m*3 4.3 C 0 km/h
620 21-10-2009 03:57:04 4.2 C 4.96 g/m*3 4.2 C 0 km/h
621 21-10-2009 04:09:04 4.2 C 4.96 g/m*3 4.2 C 0 km/h
622 21-10-2009 04:21:04 4.3 C 5.06 g/m*3 4.3 C 0 km/h
623 21-10-2009 04:33:04 4.4 C 5.03 g/m*3 4.4 C 0 km/h
624 21-10-2009 04:45:04 4.4 C 5.03 g/m*3 4.4 C 0 km/h
625 21-10-2009 04:57:04 4.4 C 5.03 g/m*3 4.4 C 0 km/h
Sensor: Nr:Datum:Temp:Abs-Feuchte:Windchill:Wind:
Aussen-T/F 626 21-10-2009 05:09:04 4.5 C 5 g/m*3 4.5 C 0 km/h
627 21-10-2009 05:21:04 4.6 C 4.96 g/m*3 4.6 C 0 km/h
628 21-10-2009 05:33:04 4.6 C 4.9 g/m*3 4.6 C 0 km/h
629 21-10-2009 05:45:04 4.6 C 4.9 g/m*3 4.6 C 0 km/h
630 21-10-2009 05:57:04 4.6 C 4.96 g/m*3 4.6 C 0 km/h
631 21-10-2009 06:09:05 4.5 C 4.93 g/m*3 4.5 C 0 km/h
632 21-10-2009 06:21:05 4.6 C 4.96 g/m*3 4.6 C 0 km/h
633 21-10-2009 06:33:05 4.6 C 4.96 g/m*3 4.6 C 0 km/h
634 21-10-2009 06:45:02 4.6 C 4.96 g/m*3 4.6 C 0 km/h
635 21-10-2009 06:57:02 4.6 C 4.9 g/m*3 4.6 C 0 km/h
636 21-10-2009 07:09:02 4.6 C 4.9 g/m*3 4.6 C 0 km/h
637 21-10-2009 07:21:02 4.6 C 4.9 g/m*3 4.6 C 0 km/h
638 21-10-2009 07:33:02 4.7 C 4.93 g/m*3 4.7 C 0 km/h
639 21-10-2009 07:45:02 4.8 C 4.96 g/m*3 4.8 C 0 km/h
640 21-10-2009 07:57:02 4.9 C 5 g/m*3 4.9 C 0 km/h
641 21-10-2009 08:09:02 5 C 4.96 g/m*3 5 C 0 km/h
642 21-10-2009 08:21:01 5 C 4.89 g/m*3 5 C 0 km/h
643 21-10-2009 08:33:02 5.1 C 4.92 g/m*3 5.1 C 0 km/h
644 21-10-2009 08:45:02 5.2 C 4.96 g/m*3 5.2 C 0 km/h
645 21-10-2009 08:57:02 5.4 C 5.02 g/m*3 5.4 C 0 km/h
646 21-10-2009 09:09:02 5.6 C 4.95 g/m*3 5.6 C 0 km/h
647 21-10-2009 09:21:02 5.7 C 4.84 g/m*3 5.7 C 0 km/h
648 21-10-2009 09:33:02 5.8 C 4.73 g/m*3 5.8 C 0 km/h
649 21-10-2009 09:45:01 6.1 C 4.75 g/m*3 6.1 C 0 km/h
650 21-10-2009 09:57:01 6.4 C 4.77 g/m*3 6.4 C 0 km/h
Sensor: Nr:Datum:Temp:Abs-Feuchte:Windchill:Wind:
Aussen-T/F 651 21-10-2009 10:09:02 6.6 C 4.68 g/m*3 6.6 C 0 km/h
652 21-10-2009 10:21:01 6.9 C 4.7 g/m*3 6.9 C 0 km/h
653 21-10-2009 10:33:01 7.1 C 4.6 g/m*3 7.1 C 0 km/h
654 21-10-2009 10:45:01 7.5 C 4.8 g/m*3 7.5 C 0 km/h
655 21-10-2009 10:57:01 7.8 C 4.73 g/m*3 7.8 C 0 km/h
656 21-10-2009 11:09:02 8.1 C 4.66 g/m*3 8.1 C 0 km/h
657 21-10-2009 11:21:01 8.5 C 4.7 g/m*3 8.5 C 0 km/h
658 21-10-2009 11:33:02 8.8 C 4.7 g/m*3 8.8 C 0 km/h
659 21-10-2009 11:45:02 9.2 C 4.64 g/m*3 9.2 C 0 km/h
660 21-10-2009 11:57:02 9.6 C 4.86 g/m*3 9.6 C 0 km/h
661 21-10-2009 12:09:02 9.9 C 4.76 g/m*3 9.9 C 0 km/h
662 21-10-2009 12:21:01 9.9 C 4.67 g/m*3 9.9 C 0 km/h
663 21-10-2009 12:33:02 9.9 C 4.76 g/m*3 9.9 C 0 km/h
664 21-10-2009 12:45:02 10 C 4.79 g/m*3 10 C 0 km/h
665 21-10-2009 12:57:02 10.2 C 4.76 g/m*3 10.2 C 0 km/h
666 21-10-2009 13:09:02 10.6 C 4.68 g/m*3 10.6 C 0 km/h
667 21-10-2009 13:21:02 11.2 C 4.76 g/m*3 11.2 C 0 km/h
668 21-10-2009 13:33:02 11.7 C 4.71 g/m*3 11.7 C 0 km/h
669 21-10-2009 13:45:02 12.1 C 4.72 g/m*3 12.1 C 0 km/h
670 21-10-2009 13:57:02 12.8 C 4.82 g/m*3 12.8 C 0 km/h
671 21-10-2009 14:09:02 13.2 C 4.71 g/m*3 13.2 C 0 km/h
672 21-10-2009 14:21:02 13.8 C 4.77 g/m*3 13.8 C 0 km/h
673 21-10-2009 14:33:02 13.6 C 4.71 g/m*3 13.6 C 0 km/h
674 21-10-2009 14:45:02 13.5 C 4.68 g/m*3 13.5 C 0 km/h
675 21-10-2009 14:57:02 13.4 C 4.77 g/m*3 13.4 C 0 km/h
Sensor: Nr:Datum:Temp:Abs-Feuchte:Windchill:Wind:
Aussen-T/F 676 21-10-2009 15:09:02 13.2 C 4.71 g/m*3 13.2 C 0 km/h
677 21-10-2009 15:21:02 12.9 C 4.73 g/m*3 12.9 C 0 km/h
678 21-10-2009 15:33:02 13.4 C 4.77 g/m*3 13.4 C 0 km/h
679 21-10-2009 15:45:01 14.3 C 4.67 g/m*3 14.3 C 0 km/h
680 21-10-2009 15:57:01 14.3 C 4.67 g/m*3 14.3 C 0 km/h
681 21-10-2009 16:09:01 14.5 C 4.85 g/m*3 14.5 C 0 km/h
682 21-10-2009 16:21:02 14.6 C 5.01 g/m*3 14.6 C 0 km/h
683 21-10-2009 16:33:01 14.7 C 5.16 g/m*3 14.7 C 0 km/h
684 21-10-2009 16:45:01 14.8 C 4.69 g/m*3 14.8 C 0 km/h
685 21-10-2009 16:57:01 15 C 4.62 g/m*3 15 C 0 km/h
686 21-10-2009 17:09:01 14.7 C 4.78 g/m*3 14.7 C 0 km/h
687 21-10-2009 17:21:02 14.2 C 4.88 g/m*3 14.2 C 0 km/h
688 21-10-2009 17:33:01 13.8 C 4.41 g/m*3 13.8 C 0 km/h
689 21-10-2009 17:45:03 13.6 C 4.71 g/m*3 13.6 C 0 km/h
690 21-10-2009 17:57:03 12.8 C 4.59 g/m*3 12.8 C 0 km/h
691 21-10-2009 18:09:02 12 C 4.69 g/m*3 12 C 0 km/h
692 21-10-2009 18:21:03 11.3 C 4.49 g/m*3 11.3 C 0 km/h
693 21-10-2009 18:33:02 11 C 4.5 g/m*3 11 C 0 km/h
694 21-10-2009 18:45:02 10.6 C 4.59 g/m*3 10.6 C 0 km/h
695 21-10-2009 18:57:02 10.1 C 4.63 g/m*3 10.1 C 0 km/h
696 21-10-2009 19:09:02 9.8 C 4.64 g/m*3 9.8 C 0 km/h
697 21-10-2009 19:21:02 9.7 C 4.61 g/m*3 9.7 C 0 km/h
698 21-10-2009 19:33:02 9.4 C 4.7 g/m*3 9.4 C 0 km/h
699 21-10-2009 19:45:02 9.3 C 4.76 g/m*3 9.3 C 0 km/h
700 21-10-2009 19:57:02 9.1 C 4.79 g/m*3 9.1 C 0 km/h
Sensor: Nr:Datum:Temp:Abs-Feuchte:Windchill:Wind:
Aussen-T/F 701 21-10-2009 20:09:01 9 C 4.94 g/m*3 9 C 0 km/h
702 21-10-2009 20:21:02 8.7 C 5.02 g/m*3 8.7 C 0 km/h
703 21-10-2009 20:33:02 8.5 C 4.95 g/m*3 8.5 C 0 km/h
704 21-10-2009 20:45:02 8.2 C 5.02 g/m*3 8.2 C 0 km/h
705 21-10-2009 20:57:03 8.1 C 4.99 g/m*3 8.1 C 0 km/h
706 21-10-2009 21:09:02 8.1 C 5.08 g/m*3 8.1 C 0 km/h
707 21-10-2009 21:21:01 8.1 C 4.99 g/m*3 8.1 C 0 km/h
708 21-10-2009 21:33:02 8.1 C 4.99 g/m*3 8.1 C 0 km/h
709 21-10-2009 21:45:02 8.3 C 4.97 g/m*3 8.3 C 0 km/h
710 21-10-2009 21:57:02 8.4 C 5.01 g/m*3 8.4 C 0 km/h
711 21-10-2009 22:09:01 8.4 C 5.09 g/m*3 8.4 C 0 km/h
712 21-10-2009 22:22:02 8.5 C 5.04 g/m*3 8.5 C 0 km/h
713 21-10-2009 22:34:02 8.6 C 4.98 g/m*3 8.6 C 0 km/h
714 21-10-2009 22:46:02 8.8 C 4.7 g/m*3 8.8 C 0 km/h
715 21-10-2009 22:58:02 9 C 4.5 g/m*3 9 C 0 km/h
716 21-10-2009 23:10:02 9.1 C 4.44 g/m*3 9.1 C 0 km/h
717 21-10-2009 23:22:02 9.1 C 4.44 g/m*3 9.1 C 0 km/h
718 21-10-2009 23:34:02 9.1 C 4.44 g/m*3 9.1 C 0 km/h
719 21-10-2009 23:46:02 9 C 4.41 g/m*3 9 C 0 km/h
720 21-10-2009 23:58:02 9.1 C 4.35 g/m*3 9.1 C 0 km/h
721 22-10-2009 00:10:02 9 C 4.5 g/m*3 9 C 0 km/h
722 22-10-2009 00:22:02 9 C 4.5 g/m*3 9 C 0 km/h
723 22-10-2009 00:34:03 8.9 C 4.56 g/m*3 8.9 C 0 km/h
724 22-10-2009 00:46:03 8.9 C 4.56 g/m*3 8.9 C 0 km/h
725 22-10-2009 00:58:03 8.9 C 4.47 g/m*3 8.9 C 0 km/h
Sensor: Nr:Datum:Temp:Abs-Feuchte:Windchill:Wind:
Aussen-T/F 726 22-10-2009 01:10:03 8.8 C 4.61 g/m*3 8.8 C 0 km/h
727 22-10-2009 01:22:03 8.7 C 4.67 g/m*3 8.7 C 0 km/h
728 22-10-2009 01:34:03 8.6 C 4.73 g/m*3 8.6 C 0 km/h
729 22-10-2009 01:46:03 8.4 C 4.75 g/m*3 8.4 C 0 km/h
730 22-10-2009 01:58:03 8.3 C 4.8 g/m*3 8.3 C 0 km/h
731 22-10-2009 02:10:03 8.2 C 4.86 g/m*3 8.2 C 0 km/h
732 22-10-2009 02:22:03 8.1 C 4.83 g/m*3 8.1 C 0 km/h
733 22-10-2009 02:34:03 8 C 4.88 g/m*3 8 C 0 km/h
734 22-10-2009 02:46:03 8 C 4.96 g/m*3 8 C 0 km/h
735 22-10-2009 02:58:03 8 C 5.04 g/m*3 8 C 0 km/h
736 22-10-2009 03:10:03 7.9 C 5.17 g/m*3 7.9 C 0 km/h
737 22-10-2009 03:22:03 7.9 C 5.09 g/m*3 7.9 C 0 km/h
738 22-10-2009 03:34:03 7.9 C 5.09 g/m*3 7.9 C 0 km/h
739 22-10-2009 03:46:03 7.9 C 4.93 g/m*3 7.9 C 0 km/h
740 22-10-2009 03:58:03 7.8 C 5.06 g/m*3 7.8 C 0 km/h
741 22-10-2009 04:10:03 7.6 C 4.99 g/m*3 7.6 C 0 km/h
742 22-10-2009 04:22:03 7.6 C 5.16 g/m*3 7.6 C 0 km/h
743 22-10-2009 04:34:04 7.6 C 5.16 g/m*3 7.6 C 0 km/h
744 22-10-2009 04:46:04 7.3 C 5.14 g/m*3 7.3 C 0 km/h
745 22-10-2009 04:58:04 7.3 C 5.29 g/m*3 7.3 C 0 km/h
746 22-10-2009 05:10:04 7 C 5.35 g/m*3 7 C 0 km/h
747 22-10-2009 05:22:04 7 C 5.5 g/m*3 7 C 0 km/h
748 22-10-2009 05:34:04 7 C 5.66 g/m*3 7 C 0 km/h
749 22-10-2009 05:46:04 7 C 5.66 g/m*3 7 C 0 km/h
750 22-10-2009 05:58:04 6.9 C 5.77 g/m*3 6.9 C 0 km/h
Sensor: Nr:Datum:Temp:Abs-Feuchte:Windchill:Wind:
Aussen-T/F 751 22-10-2009 06:10:04 6.8 C 5.81 g/m*3 6.8 C 0 km/h
752 22-10-2009 06:22:04 6.8 C 5.89 g/m*3 6.8 C 0 km/h
753 22-10-2009 06:34:04 6.9 C 5.93 g/m*3 6.9 C 0 km/h
754 22-10-2009 06:46:04 6.9 C 5.85 g/m*3 6.9 C 0 km/h
755 22-10-2009 06:58:04 6.9 C 5.85 g/m*3 6.9 C 0 km/h
756 22-10-2009 07:10:02 6.9 C 5.77 g/m*3 6.9 C 0 km/h
757 22-10-2009 07:22:02 7 C 5.73 g/m*3 7 C 0 km/h
758 22-10-2009 07:34:02 7 C 5.66 g/m*3 7 C 0 km/h
759 22-10-2009 07:46:01 7 C 5.58 g/m*3 7 C 0 km/h
760 22-10-2009 07:58:01 6.9 C 5.54 g/m*3 6.9 C 0 km/h
761 22-10-2009 08:10:02 6.9 C 5.54 g/m*3 6.9 C 0 km/h
762 22-10-2009 08:22:01 6.9 C 5.54 g/m*3 6.9 C 0 km/h
763 22-10-2009 08:34:01 7.1 C 5.54 g/m*3 7.1 C 0 km/h
764 22-10-2009 08:46:01 7.3 C 5.61 g/m*3 7.3 C 0 km/h
765 22-10-2009 08:58:01 7.5 C 5.68 g/m*3 7.5 C 0 km/h
766 22-10-2009 09:10:01 7.9 C 5.83 g/m*3 7.9 C 0 km/h
767 22-10-2009 09:22:02 8.1 C 5.74 g/m*3 8.1 C 0 km/h
768 22-10-2009 09:34:01 8.4 C 5.77 g/m*3 8.4 C 0 km/h
769 22-10-2009 09:46:02 8.6 C 5.76 g/m*3 8.6 C 0 km/h
770 22-10-2009 09:58:02 8.9 C 5.52 g/m*3 8.9 C 0 km/h
771 22-10-2009 10:10:02 9.1 C 5.41 g/m*3 9.1 C 0 km/h
772 22-10-2009 10:22:02 9.3 C 5.39 g/m*3 9.3 C 0 km/h
773 22-10-2009 10:34:03 9.6 C 5.4 g/m*3 9.6 C 0 km/h
774 22-10-2009 10:46:02 9.8 C 5.38 g/m*3 9.8 C 0 km/h
775 22-10-2009 10:58:03 10 C 5.54 g/m*3 10 C 0 km/h
Sensor: Nr:Datum:Temp:Abs-Feuchte:Windchill:Wind:
Aussen-T/F 776 22-10-2009 11:10:01 10.2 C 5.61 g/m*3 10.2 C 0 km/h
777 22-10-2009 11:22:02 10.2 C 5.52 g/m*3 10.2 C 0 km/h
778 22-10-2009 11:34:02 10.2 C 5.42 g/m*3 10.2 C 0 km/h
779 22-10-2009 11:46:02 10.3 C 5.55 g/m*3 10.3 C 0 km/h
780 22-10-2009 11:58:02 10.3 C 5.46 g/m*3 10.3 C 0 km/h
781 22-10-2009 12:10:02 10.3 C 5.65 g/m*3 10.3 C 0 km/h
782 22-10-2009 12:22:02 10.5 C 5.72 g/m*3 10.5 C 0 km/h
783 22-10-2009 12:34:03 10.9 C 5.77 g/m*3 10.9 C 0 km/h
784 22-10-2009 12:46:02 11.2 C 5.57 g/m*3 11.2 C 0 km/h
785 22-10-2009 12:58:02 11.5 C 5.58 g/m*3 11.5 C 0 km/h
786 22-10-2009 13:10:02 11.5 C 5.68 g/m*3 11.5 C 0 km/h
787 22-10-2009 13:22:01 11.6 C 5.72 g/m*3 11.6 C 0 km/h
788 22-10-2009 13:34:01 11.7 C 5.75 g/m*3 11.7 C 0 km/h
789 22-10-2009 13:46:02 12.1 C 5.79 g/m*3 12.1 C 0 km/h
790 22-10-2009 13:58:02 12.2 C 5.72 g/m*3 12.2 C 0 km/h
791 22-10-2009 14:10:02 12 C 5.65 g/m*3 12 C 0 km/h
792 22-10-2009 14:22:02 12.2 C 5.83 g/m*3 12.2 C 0 km/h
793 22-10-2009 14:34:03 12.4 C 5.79 g/m*3 12.4 C 0 km/h
794 22-10-2009 14:46:02 12.6 C 5.86 g/m*3 12.6 C 0 km/h
795 22-10-2009 14:58:02 12.5 C 5.83 g/m*3 12.5 C 0 km/h
796 22-10-2009 15:10:01 12.7 C 6.01 g/m*3 12.7 C 0 km/h
797 22-10-2009 15:22:02 12.8 C 6.05 g/m*3 12.8 C 0 km/h
798 22-10-2009 15:34:02 12.9 C 6.09 g/m*3 12.9 C 0 km/h
799 22-10-2009 15:46:02 12.8 C 6.16 g/m*3 12.8 C 0 km/h
800 22-10-2009 15:58:02 12.7 C 6.23 g/m*3 12.7 C 0 km/h
Sensor: Nr:Datum:Temp:Abs-Feuchte:Windchill:Wind:
Aussen-T/F 801 22-10-2009 16:10:02 12.5 C 6.49 g/m*3 12.5 C 0 km/h
802 22-10-2009 16:22:02 12.5 C 6.6 g/m*3 12.5 C 0 km/h
803 22-10-2009 16:34:02 12.5 C 6.71 g/m*3 12.5 C 0 km/h
804 22-10-2009 16:46:01 12.4 C 6.66 g/m*3 12.4 C 0 km/h
805 22-10-2009 16:58:01 12.2 C 6.69 g/m*3 12.2 C 0 km/h
806 22-10-2009 17:10:02 12 C 6.82 g/m*3 12 C 0 km/h
807 22-10-2009 17:22:01 11.9 C 6.99 g/m*3 11.9 C 0 km/h
808 22-10-2009 17:34:01 11.9 C 6.99 g/m*3 11.9 C 0 km/h
809 22-10-2009 17:46:01 11.9 C 7.1 g/m*3 11.9 C 0 km/h
810 22-10-2009 17:58:01 11.9 C 6.99 g/m*3 11.9 C 0 km/h
811 22-10-2009 18:10:02 11.8 C 6.95 g/m*3 11.8 C 0 km/h
812 22-10-2009 18:22:01 11.9 C 7.1 g/m*3 11.9 C 0 km/h
813 22-10-2009 18:34:02 11.4 C 6.88 g/m*3 11.4 C 0 km/h
814 22-10-2009 18:46:01 11.3 C 6.83 g/m*3 11.3 C 0 km/h
815 22-10-2009 18:58:01 11.3 C 6.83 g/m*3 11.3 C 0 km/h
816 22-10-2009 19:10:02 11.2 C 6.79 g/m*3 11.2 C 0 km/h
817 22-10-2009 19:22:01 11.1 C 6.75 g/m*3 11.1 C 0 km/h
818 22-10-2009 19:34:02 11 C 6.81 g/m*3 11 C 0 km/h
819 22-10-2009 19:46:01 11 C 6.91 g/m*3 11 C 0 km/h
820 22-10-2009 19:58:01 10.9 C 6.96 g/m*3 10.9 C 0 km/h
821 22-10-2009 20:10:02 10.8 C 7.02 g/m*3 10.8 C 0 km/h
822 22-10-2009 20:22:02 10.8 C 7.12 g/m*3 10.8 C 0 km/h
823 22-10-2009 20:34:01 10.7 C 7.07 g/m*3 10.7 C 0 km/h
824 22-10-2009 20:46:02 10.5 C 6.98 g/m*3 10.5 C 0 km/h
825 22-10-2009 20:58:02 10.1 C 6.81 g/m*3 10.1 C 0 km/h
Sensor: Nr:Datum:Temp:Abs-Feuchte:Windchill:Wind:
Aussen-T/F 826 22-10-2009 21:10:02 9.5 C 6.83 g/m*3 9.5 C 0 km/h
827 22-10-2009 21:22:01 9.1 C 6.83 g/m*3 9.1 C 0 km/h
828 22-10-2009 21:34:02 8.8 C 6.79 g/m*3 8.8 C 0 km/h
829 22-10-2009 21:46:01 8.5 C 6.74 g/m*3 8.5 C 0 km/h
830 22-10-2009 21:58:01 8.2 C 6.7 g/m*3 8.2 C 0 km/h
831 22-10-2009 22:10:01 7.9 C 6.74 g/m*3 7.9 C 0 km/h
832 22-10-2009 22:22:02 7.8 C 6.77 g/m*3 7.8 C 0 km/h
833 22-10-2009 22:34:02 7.6 C 6.77 g/m*3 7.6 C 0 km/h
834 22-10-2009 22:46:01 7.4 C 6.68 g/m*3 7.4 C 0 km/h
835 22-10-2009 22:58:01 7.2 C 6.59 g/m*3 7.2 C 0 km/h
836 22-10-2009 23:10:01 7.1 C 6.55 g/m*3 7.1 C 0 km/h
837 22-10-2009 23:22:01 7 C 6.59 g/m*3 7 C 0 km/h
838 22-10-2009 23:34:02 6.9 C 6.7 g/m*3 6.9 C 0 km/h
839 22-10-2009 23:46:02 6.7 C 6.61 g/m*3 6.7 C 0 km/h
840 22-10-2009 23:58:02 6.5 C 6.45 g/m*3 6.5 C 0 km/h
841 23-10-2009 00:10:02 6.2 C 6.32 g/m*3 6.2 C 0 km/h
842 23-10-2009 00:22:02 6 C 6.24 g/m*3 6 C 0 km/h
843 23-10-2009 00:34:02 5.9 C 6.35 g/m*3 5.9 C 0 km/h
844 23-10-2009 00:46:02 5.9 C 6.35 g/m*3 5.9 C 0 km/h
845 23-10-2009 00:58:02 5.9 C 6.42 g/m*3 5.9 C 0 km/h
846 23-10-2009 01:10:02 5.7 C 6.33 g/m*3 5.7 C 0 km/h
847 23-10-2009 01:22:02 5.5 C 6.25 g/m*3 5.5 C 0 km/h
848 23-10-2009 01:34:02 5.3 C 6.17 g/m*3 5.3 C 0 km/h
849 23-10-2009 01:46:01 5.1 C 6.09 g/m*3 5.1 C 0 km/h
850 23-10-2009 01:58:01 4.9 C 6.01 g/m*3 4.9 C 0 km/h
Sensor: Nr:Datum:Temp:Abs-Feuchte:Windchill:Wind:
Aussen-T/F 851 23-10-2009 02:10:02 4.9 C 6.08 g/m*3 4.9 C 0 km/h
852 23-10-2009 02:22:01 4.8 C 6.04 g/m*3 4.8 C 0 km/h
853 23-10-2009 02:34:01 4.5 C 5.92 g/m*3 4.5 C 0 km/h
854 23-10-2009 02:46:01 4.5 C 5.92 g/m*3 4.5 C 0 km/h
855 23-10-2009 02:58:01 4.3 C 5.84 g/m*3 4.3 C 0 km/h
856 23-10-2009 03:10:01 4.3 C 5.84 g/m*3 4.3 C 0 km/h
857 23-10-2009 03:22:02 4.3 C 5.9 g/m*3 4.3 C 0 km/h
858 23-10-2009 03:34:01 4.2 C 5.86 g/m*3 4.2 C 0 km/h
859 23-10-2009 03:46:01 4.3 C 5.9 g/m*3 4.3 C 0 km/h
860 23-10-2009 03:58:01 4.5 C 6.05 g/m*3 4.5 C 0 km/h
861 23-10-2009 04:10:02 4.7 C 6.13 g/m*3 4.7 C 0 km/h
862 23-10-2009 04:22:01 4.7 C 6.19 g/m*3 4.7 C 0 km/h
863 23-10-2009 04:34:02 4.7 C 6.19 g/m*3 4.7 C 0 km/h
864 23-10-2009 04:46:01 4.6 C 6.22 g/m*3 4.6 C 0 km/h
865 23-10-2009 04:58:01 4.7 C 6.26 g/m*3 4.7 C 0 km/h
866 23-10-2009 05:10:02 4.4 C 6.14 g/m*3 4.4 C 0 km/h
867 23-10-2009 05:22:01 4.6 C 6.22 g/m*3 4.6 C 0 km/h
868 23-10-2009 05:34:01 4.7 C 6.26 g/m*3 4.7 C 0 km/h
869 23-10-2009 05:46:01 4.8 C 6.3 g/m*3 4.8 C 0 km/h
870 23-10-2009 05:58:01 4.7 C 6.26 g/m*3 4.7 C 0 km/h
871 23-10-2009 06:10:01 4.8 C 6.3 g/m*3 4.8 C 0 km/h
872 23-10-2009 06:22:01 4.8 C 6.3 g/m*3 4.8 C 0 km/h
873 23-10-2009 06:34:01 4.8 C 6.24 g/m*3 4.8 C 0 km/h
874 23-10-2009 06:46:01 4.8 C 6.24 g/m*3 4.8 C 0 km/h
875 23-10-2009 06:58:01 4.7 C 6.19 g/m*3 4.7 C 0 km/h
Sensor: Nr:Datum:Temp:Abs-Feuchte:Windchill:Wind:
Aussen-T/F 876 23-10-2009 07:10:01 4.7 C 6.13 g/m*3 4.7 C 0 km/h
877 23-10-2009 07:22:02 4.8 C 6.17 g/m*3 4.8 C 0 km/h
878 23-10-2009 07:34:01 4.8 C 6.17 g/m*3 4.8 C 0 km/h
879 23-10-2009 07:46:01 4.8 C 6.17 g/m*3 4.8 C 0 km/h
880 23-10-2009 07:58:01 4.9 C 6.21 g/m*3 4.9 C 0 km/h
881 23-10-2009 08:10:01 5 C 6.18 g/m*3 5 C 0 km/h
882 23-10-2009 08:22:02 5 C 6.18 g/m*3 5 C 0 km/h
883 23-10-2009 08:34:01 5.2 C 6.27 g/m*3 5.2 C 0 km/h
884 23-10-2009 08:46:02 5.4 C 6.35 g/m*3 5.4 C 0 km/h
885 23-10-2009 08:58:02 5.4 C 6.28 g/m*3 5.4 C 0 km/h
886 23-10-2009 09:10:01 5.6 C 6.36 g/m*3 5.6 C 0 km/h
887 23-10-2009 09:22:02 5.8 C 6.45 g/m*3 5.8 C 0 km/h
888 23-10-2009 09:34:01 6.1 C 6.5 g/m*3 6.1 C 0 km/h
889 23-10-2009 09:46:02 6.1 C 6.43 g/m*3 6.1 C 0 km/h
890 23-10-2009 09:58:02 6.3 C 6.44 g/m*3 6.3 C 0 km/h
891 23-10-2009 10:10:01 6.5 C 6.52 g/m*3 6.5 C 0 km/h
892 23-10-2009 10:22:01 6.7 C 6.53 g/m*3 6.7 C 0 km/h
893 23-10-2009 10:34:01 6.9 C 6.54 g/m*3 6.9 C 0 km/h
894 23-10-2009 10:46:02 7 C 6.43 g/m*3 7 C 0 km/h
895 23-10-2009 10:58:02 7.2 C 6.52 g/m*3 7.2 C 0 km/h
896 23-10-2009 11:10:01 7.2 C 6.28 g/m*3 7.2 C 0 km/h
897 23-10-2009 11:22:01 7.6 C 6.44 g/m*3 7.6 C 0 km/h
898 23-10-2009 11:34:02 7.9 C 6.49 g/m*3 7.9 C 0 km/h
899 23-10-2009 11:46:01 7.8 C 6.37 g/m*3 7.8 C 0 km/h
900 23-10-2009 11:58:02 7.8 C 6.45 g/m*3 7.8 C 0 km/h
Sensor: Nr:Datum:Temp:Abs-Feuchte:Windchill:Wind:
Aussen-T/F 901 23-10-2009 12:10:01 7.9 C 6.57 g/m*3 7.9 C 0 km/h
902 23-10-2009 12:22:01 8.5 C 6.74 g/m*3 8.5 C 0 km/h
903 23-10-2009 12:34:02 9.1 C 6.83 g/m*3 9.1 C 0 km/h
904 23-10-2009 12:46:01 9.5 C 6.74 g/m*3 9.5 C 0 km/h
905 23-10-2009 12:58:01 9.9 C 6.72 g/m*3 9.9 C 0 km/h
906 23-10-2009 13:10:02 10.1 C 6.62 g/m*3 10.1 C 0 km/h
907 23-10-2009 13:22:01 10.2 C 6.57 g/m*3 10.2 C 0 km/h
908 23-10-2009 13:34:02 10.7 C 6.78 g/m*3 10.7 C 0 km/h
909 23-10-2009 13:46:01 10.9 C 6.76 g/m*3 10.9 C 0 km/h
910 23-10-2009 13:58:01 11.2 C 6.79 g/m*3 11.2 C 0 km/h
911 23-10-2009 14:10:02 11.7 C 6.9 g/m*3 11.7 C 0 km/h
912 23-10-2009 14:22:01 12.4 C 6.99 g/m*3 12.4 C 0 km/h
913 23-10-2009 14:34:01 12.7 C 6.9 g/m*3 12.7 C 0 km/h
914 23-10-2009 14:46:01 12.8 C 6.94 g/m*3 12.8 C 0 km/h
915 23-10-2009 14:58:01 12.9 C 7.1 g/m*3 12.9 C 0 km/h
916 23-10-2009 15:10:03 13.3 C 7.05 g/m*3 13.3 C 0 km/h
917 23-10-2009 15:22:01 13.7 C 7.1 g/m*3 13.7 C 0 km/h
918 23-10-2009 15:34:01 13.5 C 7.02 g/m*3 13.5 C 0 km/h
919 23-10-2009 15:46:01 13.9 C 7.31 g/m*3 13.9 C 0 km/h
920 23-10-2009 15:58:01 14.2 C 7.33 g/m*3 14.2 C 0 km/h
921 23-10-2009 16:10:01 14.2 C 7.33 g/m*3 14.2 C 0 km/h
922 23-10-2009 16:22:02 14.1 C 7.52 g/m*3 14.1 C 0 km/h
923 23-10-2009 16:34:01 15 C 7.44 g/m*3 15 C 0 km/h
924 23-10-2009 16:46:01 14.7 C 7.3 g/m*3 14.7 C 0 km/h
925 23-10-2009 16:58:01 14.1 C 7.4 g/m*3 14.1 C 0 km/h
Sensor: Nr:Datum:Temp:Abs-Feuchte:Windchill:Wind:
Aussen-T/F 926 23-10-2009 17:10:01 13.7 C 7.58 g/m*3 13.7 C 0 km/h
927 23-10-2009 17:22:02 13.1 C 7.53 g/m*3 13.1 C 0 km/h
928 23-10-2009 17:34:01 12.3 C 7.82 g/m*3 12.3 C 0 km/h
929 23-10-2009 17:46:02 11.7 C 8.16 g/m*3 11.7 C 0 km/h
930 23-10-2009 17:58:02 11.7 C 8.37 g/m*3 11.7 C 0 km/h
931 23-10-2009 18:10:01 11.3 C 8.47 g/m*3 11.3 C 0 km/h
932 23-10-2009 18:22:02 11.2 C 8.51 g/m*3 11.2 C 0 km/h
933 23-10-2009 18:34:01 11.1 C 8.46 g/m*3 11.1 C 0 km/h
934 23-10-2009 18:46:02 10.8 C 8.4 g/m*3 10.8 C 0 km/h
935 23-10-2009 18:58:02 10.6 C 8.39 g/m*3 10.6 C 0 km/h
936 23-10-2009 19:10:01 10.5 C 8.44 g/m*3 10.5 C 0 km/h
937 23-10-2009 19:22:01 10.6 C 8.59 g/m*3 10.6 C 0 km/h
938 23-10-2009 19:34:01 10.6 C 8.59 g/m*3 10.6 C 0 km/h
939 23-10-2009 19:46:02 10.6 C 8.59 g/m*3 10.6 C 0 km/h
940 23-10-2009 19:58:02 10.5 C 8.53 g/m*3 10.5 C 0 km/h
941 23-10-2009 20:10:01 10.5 C 8.53 g/m*3 10.5 C 0 km/h
942 23-10-2009 20:22:01 10.4 C 8.48 g/m*3 10.4 C 0 km/h
943 23-10-2009 20:34:02 10.4 C 8.48 g/m*3 10.4 C 0 km/h
944 23-10-2009 20:46:01 10.3 C 8.43 g/m*3 10.3 C 0 km/h
945 23-10-2009 20:58:01 10.3 C 8.43 g/m*3 10.3 C 0 km/h
946 23-10-2009 21:10:02 10.3 C 8.43 g/m*3 10.3 C 0 km/h
947 23-10-2009 21:22:18 10.4 C 8.48 g/m*3 10.4 C 0 km/h
948 23-10-2009 21:34:02 10.4 C 8.38 g/m*3 10.4 C 0 km/h
949 23-10-2009 21:46:01 10.4 C 8.38 g/m*3 10.4 C 0 km/h
950 23-10-2009 21:58:01 10.3 C 8.33 g/m*3 10.3 C 0 km/h
Sensor: Nr:Datum:Temp:Abs-Feuchte:Windchill:Wind:
Aussen-T/F 951 23-10-2009 22:10:01 10.3 C 8.33 g/m*3 10.3 C 0 km/h
952 23-10-2009 22:22:01 10.3 C 8.33 g/m*3 10.3 C 0 km/h
953 23-10-2009 22:34:01 10.3 C 8.33 g/m*3 10.3 C 0 km/h
954 23-10-2009 22:46:02 10.4 C 8.38 g/m*3 10.4 C 0 km/h
955 23-10-2009 22:58:02 10.5 C 8.34 g/m*3 10.5 C 0 km/h
956 23-10-2009 23:10:01 10.5 C 8.34 g/m*3 10.5 C 0 km/h
957 23-10-2009 23:22:01 10.2 C 8.09 g/m*3 10.2 C 0 km/h
958 23-10-2009 23:34:02 10 C 7.99 g/m*3 10 C 0 km/h
959 23-10-2009 23:46:01 9.7 C 8.02 g/m*3 9.7 C 0 km/h
960 23-10-2009 23:58:01 9.4 C 7.87 g/m*3 9.4 C 0 km/h
961 24-10-2009 00:10:01 9.2 C 7.86 g/m*3 9.2 C 0 km/h
962 24-10-2009 00:22:01 8.7 C 7.7 g/m*3 8.7 C 0 km/h
963 24-10-2009 00:34:01 8.5 C 7.6 g/m*3 8.5 C 0 km/h
964 24-10-2009 00:46:01 8.8 C 7.92 g/m*3 8.8 C 0 km/h
965 24-10-2009 00:58:01 9.4 C 8.23 g/m*3 9.4 C 0 km/h
966 24-10-2009 01:10:01 9.7 C 8.48 g/m*3 9.7 C 0 km/h
967 24-10-2009 01:22:02 10 C 8.46 g/m*3 10 C 0 km/h
968 24-10-2009 01:34:01 10.2 C 8.56 g/m*3 10.2 C 0 km/h
969 24-10-2009 01:46:02 10.2 C 8.47 g/m*3 10.2 C 0 km/h
970 24-10-2009 01:58:02 10.2 C 8.28 g/m*3 10.2 C 0 km/h
971 24-10-2009 02:10:01 9.7 C 8.02 g/m*3 9.7 C 0 km/h
972 24-10-2009 02:22:02 9.2 C 7.77 g/m*3 9.2 C 0 km/h
973 24-10-2009 02:34:01 8.7 C 7.61 g/m*3 8.7 C 0 km/h
974 24-10-2009 02:47:05 8.5 C 7.6 g/m*3 8.5 C 0 km/h
975 24-10-2009 02:59:05 8.1 C 7.41 g/m*3 8.1 C 0 km/h
Sensor: Nr:Datum:Temp:Abs-Feuchte:Windchill:Wind:
Aussen-T/F 976 24-10-2009 03:11:04 7.9 C 7.39 g/m*3 7.9 C 0 km/h
977 24-10-2009 03:23:04 7.7 C 7.38 g/m*3 7.7 C 0 km/h
978 24-10-2009 03:35:01 7.6 C 7.33 g/m*3 7.6 C 0 km/h
979 24-10-2009 03:47:01 7.4 C 7.24 g/m*3 7.4 C 0 km/h
980 24-10-2009 03:59:01 7.3 C 7.27 g/m*3 7.3 C 0 km/h
981 24-10-2009 04:11:02 7 C 7.13 g/m*3 7 C 0 km/h
982 24-10-2009 04:23:01 7.2 C 7.22 g/m*3 7.2 C 0 km/h
983 24-10-2009 04:35:02 7.4 C 7.4 g/m*3 7.4 C 0 km/h
984 24-10-2009 04:47:01 7.1 C 7.25 g/m*3 7.1 C 0 km/h
985 24-10-2009 04:59:01 6.9 C 7.16 g/m*3 6.9 C 0 km/h
986 24-10-2009 05:11:02 6.5 C 6.97 g/m*3 6.5 C 0 km/h
987 24-10-2009 05:23:02 6.5 C 6.97 g/m*3 6.5 C 0 km/h
988 24-10-2009 05:35:02 6.3 C 6.88 g/m*3 6.3 C 0 km/h
989 24-10-2009 05:47:01 6.2 C 6.84 g/m*3 6.2 C 0 km/h
990 24-10-2009 05:59:01 6.2 C 6.91 g/m*3 6.2 C 0 km/h
991 24-10-2009 06:11:02 6.1 C 6.87 g/m*3 6.1 C 0 km/h
992 24-10-2009 06:23:02 6.4 C 7 g/m*3 6.4 C 0 km/h
993 24-10-2009 06:35:01 6.3 C 6.96 g/m*3 6.3 C 0 km/h
994 24-10-2009 06:47:02 6.1 C 6.87 g/m*3 6.1 C 0 km/h
995 24-10-2009 06:59:02 5.9 C 6.85 g/m*3 5.9 C 0 km/h
996 24-10-2009 07:11:01 5.8 C 6.81 g/m*3 5.8 C 0 km/h
997 24-10-2009 07:23:02 5.8 C 6.81 g/m*3 5.8 C 0 km/h
998 24-10-2009 07:35:01 5.9 C 6.85 g/m*3 5.9 C 0 km/h
999 24-10-2009 07:47:02 5.8 C 6.81 g/m*3 5.8 C 0 km/h
1000 24-10-2009 07:59:02 5.7 C 6.76 g/m*3 5.7 C 0 km/h
Sensor: Nr:Datum:Temp:Abs-Feuchte:Windchill:Wind:
Aussen-T/F 1001 24-10-2009 08:11:02 6.4 C 7.08 g/m*3 6.4 C 0 km/h
1002 24-10-2009 08:23:02 6.6 C 7.17 g/m*3 6.6 C 0 km/h
1003 24-10-2009 08:35:02 6.5 C 7.12 g/m*3 6.5 C 0 km/h
1004 24-10-2009 08:47:02 6.9 C 7.31 g/m*3 6.9 C 0 km/h
1005 24-10-2009 08:59:02 6.8 C 7.27 g/m*3 6.8 C 0 km/h
1006 24-10-2009 09:11:01 6.6 C 7.17 g/m*3 6.6 C 0 km/h
1007 24-10-2009 09:23:02 6.9 C 7.31 g/m*3 6.9 C 0 km/h
1008 24-10-2009 09:35:02 7 C 7.36 g/m*3 7 C 0 km/h
1009 24-10-2009 09:47:07 7.5 C 7.6 g/m*3 7.5 C 0 km/h
1010 24-10-2009 09:59:02 8.1 C 7.9 g/m*3 8.1 C 0 km/h
1011 24-10-2009 10:11:02 8.4 C 8.06 g/m*3 8.4 C 0 km/h
1012 24-10-2009 10:23:02 8.6 C 8.16 g/m*3 8.6 C 0 km/h
1013 24-10-2009 10:35:03 8.7 C 8.22 g/m*3 8.7 C 0 km/h
1014 24-10-2009 10:47:02 9.5 C 8.65 g/m*3 9.5 C 0 km/h
1015 24-10-2009 10:59:02 10.3 C 9.1 g/m*3 10.3 C 0 km/h
1016 24-10-2009 11:11:02 10.7 C 9.33 g/m*3 10.7 C 0 km/h
1017 24-10-2009 11:23:01 10.8 C 9.39 g/m*3 10.8 C 0 km/h
1018 24-10-2009 11:35:02 11.7 C 9.83 g/m*3 11.7 C 0 km/h
1019 24-10-2009 11:47:02 11.6 C 9.35 g/m*3 11.6 C 0 km/h
1020 24-10-2009 11:59:02 11.6 C 8.94 g/m*3 11.6 C 0 km/h
1021 24-10-2009 12:11:02 12.5 C 8.47 g/m*3 12.5 C 0 km/h
1022 24-10-2009 12:23:02 13.4 C 8.37 g/m*3 13.4 C 0 km/h
1023 24-10-2009 12:35:02 13.7 C 7.82 g/m*3 13.7 C 0 km/h
1024 24-10-2009 12:47:02 14.1 C 7.77 g/m*3 14.1 C 0 km/h
1025 24-10-2009 12:59:02 14.2 C 7.45 g/m*3 14.2 C 0 km/h
Sensor: Nr:Datum:Temp:Abs-Feuchte:Windchill:Wind:
Aussen-T/F 1026 24-10-2009 13:11:02 14.2 C 7.33 g/m*3 14.2 C 0 km/h
1027 24-10-2009 13:23:02 14.4 C 7.29 g/m*3 14.4 C 0 km/h
1028 24-10-2009 13:35:02 14.8 C 7.09 g/m*3 14.8 C 0 km/h
1029 24-10-2009 13:47:02 14.9 C 7.01 g/m*3 14.9 C 0 km/h
1030 24-10-2009 13:59:02 14.8 C 7.09 g/m*3 14.8 C 0 km/h
1031 24-10-2009 14:11:02 14.7 C 7.05 g/m*3 14.7 C 0 km/h
1032 24-10-2009 14:23:02 14.7 C 7.18 g/m*3 14.7 C 0 km/h
1033 24-10-2009 14:35:02 14.7 C 7.18 g/m*3 14.7 C 0 km/h
1034 24-10-2009 14:47:02 14.4 C 7.29 g/m*3 14.4 C 0 km/h
1035 24-10-2009 14:59:02 13.6 C 7.41 g/m*3 13.6 C 0 km/h
1036 24-10-2009 15:11:02 13.7 C 7.46 g/m*3 13.7 C 0 km/h
1037 24-10-2009 15:23:02 14 C 7.84 g/m*3 14 C 0 km/h
1038 24-10-2009 15:35:02 14.4 C 7.42 g/m*3 14.4 C 0 km/h
1039 24-10-2009 15:47:02 14.4 C 7.42 g/m*3 14.4 C 0 km/h
1040 24-10-2009 15:59:02 14.3 C 7.37 g/m*3 14.3 C 0 km/h
1041 24-10-2009 16:11:02 14.3 C 7.37 g/m*3 14.3 C 0 km/h
1042 24-10-2009 16:23:03 14.3 C 7.37 g/m*3 14.3 C 0 km/h
1043 24-10-2009 16:35:02 14.3 C 7.49 g/m*3 14.3 C 0 km/h
1044 24-10-2009 16:47:02 14.4 C 7.66 g/m*3 14.4 C 0 km/h
1045 24-10-2009 16:59:02 14 C 7.48 g/m*3 14 C 0 km/h
1046 24-10-2009 17:11:02 13.6 C 7.53 g/m*3 13.6 C 0 km/h
1047 24-10-2009 17:23:03 13.5 C 7.6 g/m*3 13.5 C 0 km/h
1048 24-10-2009 17:35:02 13.3 C 7.63 g/m*3 13.3 C 0 km/h
1049 24-10-2009 17:47:01 13.2 C 7.58 g/m*3 13.2 C 0 km/h
1050 24-10-2009 17:59:01 13.1 C 7.53 g/m*3 13.1 C 0 km/h
Sensor: Nr:Datum:Temp:Abs-Feuchte:Windchill:Wind:
Aussen-T/F 1051 24-10-2009 18:11:01 12.9 C 7.55 g/m*3 12.9 C 0 km/h
1052 24-10-2009 18:23:02 12.8 C 7.62 g/m*3 12.8 C 0 km/h
1053 24-10-2009 18:35:01 12.7 C 7.57 g/m*3 12.7 C 0 km/h
1054 24-10-2009 18:47:01 12.7 C 7.68 g/m*3 12.7 C 0 km/h
1055 24-10-2009 18:59:01 12.6 C 7.74 g/m*3 12.6 C 0 km/h
1056 24-10-2009 19:11:01 12.5 C 7.7 g/m*3 12.5 C 0 km/h
1057 24-10-2009 19:23:02 12.5 C 7.7 g/m*3 12.5 C 0 km/h
1058 24-10-2009 19:35:01 12.5 C 7.7 g/m*3 12.5 C 0 km/h
1059 24-10-2009 19:47:02 12.4 C 7.87 g/m*3 12.4 C 0 km/h
1060 24-10-2009 19:59:02 12.4 C 7.87 g/m*3 12.4 C 0 km/h
1061 24-10-2009 20:11:01 12.4 C 7.87 g/m*3 12.4 C 0 km/h
1062 24-10-2009 20:23:02 12.3 C 7.82 g/m*3 12.3 C 0 km/h
1063 24-10-2009 20:35:01 12.4 C 7.76 g/m*3 12.4 C 0 km/h
1064 24-10-2009 20:47:02 12.4 C 7.76 g/m*3 12.4 C 0 km/h
1065 24-10-2009 20:59:02 12.4 C 7.76 g/m*3 12.4 C 0 km/h
1066 24-10-2009 21:11:03 12.3 C 7.71 g/m*3 12.3 C 0 km/h
1067 24-10-2009 21:23:02 12.1 C 7.83 g/m*3 12.1 C 0 km/h
1068 24-10-2009 21:35:02 12.1 C 7.94 g/m*3 12.1 C 0 km/h
1069 24-10-2009 21:47:01 12.2 C 7.99 g/m*3 12.2 C 0 km/h
1070 24-10-2009 21:59:01 12.1 C 7.94 g/m*3 12.1 C 0 km/h
1071 24-10-2009 22:11:02 11.9 C 8.26 g/m*3 11.9 C 0 km/h
1072 24-10-2009 22:23:02 11.6 C 8.21 g/m*3 11.6 C 0 km/h
1073 24-10-2009 22:35:01 11.7 C 8.58 g/m*3 11.7 C 0 km/h
1074 24-10-2009 22:47:02 11.4 C 8.52 g/m*3 11.4 C 0 km/h
1075 24-10-2009 22:59:02 11.4 C 8.62 g/m*3 11.4 C 0 km/h
Sensor: Nr:Datum:Temp:Abs-Feuchte:Windchill:Wind:
Aussen-T/F 1076 24-10-2009 23:12:02 11.5 C 8.78 g/m*3 11.5 C 0 km/h
1077 24-10-2009 23:24:02 11.5 C 8.88 g/m*3 11.5 C 0 km/h
1078 24-10-2009 23:36:02 11.8 C 9.16 g/m*3 11.8 C 0 km/h
1079 24-10-2009 23:48:02 11.8 C 9.16 g/m*3 11.8 C 0 km/h
1080 25-10-2009 00:00:02 11.7 C 9.1 g/m*3 11.7 C 0 km/h
1081 25-10-2009 00:12:02 11.8 C 9.16 g/m*3 11.8 C 0 km/h
1082 25-10-2009 00:24:02 11.8 C 9.16 g/m*3 11.8 C 0 km/h
1083 25-10-2009 00:36:02 11.8 C 9.16 g/m*3 11.8 C 0 km/h
1084 25-10-2009 00:48:02 11.9 C 9.21 g/m*3 11.9 C 0 km/h
1085 25-10-2009 01:00:02 11.9 C 9.21 g/m*3 11.9 C 0 km/h
1086 25-10-2009 01:12:02 12 C 9.27 g/m*3 12 C 0 km/h
1087 25-10-2009 01:24:02 12 C 9.17 g/m*3 12 C 0 km/h
1088 25-10-2009 01:36:02 12.1 C 9.33 g/m*3 12.1 C 0 km/h
1089 25-10-2009 01:48:02 12 C 9.17 g/m*3 12 C 0 km/h
1090 25-10-2009 02:00:02 11.9 C 9.32 g/m*3 11.9 C 0 km/h
1091 25-10-2009 02:12:02 11.8 C 9.37 g/m*3 11.8 C 0 km/h
1092 25-10-2009 02:24:02 11.7 C 9.31 g/m*3 11.7 C 0 km/h
1093 25-10-2009 02:36:02 11.7 C 9.31 g/m*3 11.7 C 0 km/h
1094 25-10-2009 02:48:02 11.8 C 9.47 g/m*3 11.8 C 0 km/h
1095 25-10-2009 03:00:03 11.8 C 9.47 g/m*3 11.8 C 0 km/h
1096 25-10-2009 03:12:03 11.8 C 9.47 g/m*3 11.8 C 0 km/h
1097 25-10-2009 03:24:03 11.8 C 9.47 g/m*3 11.8 C 0 km/h
1098 25-10-2009 03:36:03 11.8 C 9.58 g/m*3 11.8 C 0 km/h
1099 25-10-2009 03:48:03 11.8 C 9.58 g/m*3 11.8 C 0 km/h
1100 25-10-2009 04:00:03 11.8 C 9.58 g/m*3 11.8 C 0 km/h
Sensor: Nr:Datum:Temp:Abs-Feuchte:Windchill:Wind:
Aussen-T/F 1101 25-10-2009 04:00:03 11.7 C 9.73 g/m*3 11.7 C 0 km/h
1102 25-10-2009 04:12:03 11.7 C 9.52 g/m*3 11.7 C 0 km/h
1103 25-10-2009 04:12:03 11.7 C 9.73 g/m*3 11.7 C 0 km/h
1104 25-10-2009 04:24:03 11.7 C 9.73 g/m*3 11.7 C 0 km/h
1105 25-10-2009 04:24:03 11.9 C 9.85 g/m*3 11.9 C 0 km/h
1106 25-10-2009 04:36:03 12.1 C 9.97 g/m*3 12.1 C 0 km/h
1107 25-10-2009 04:36:03 11.7 C 9.73 g/m*3 11.7 C 0 km/h
1108 25-10-2009 04:48:03 12.4 C 10.16 g/m*3 12.4 C 0 km/h
1109 25-10-2009 04:48:03 11.7 C 9.73 g/m*3 11.7 C 0 km/h
1110 25-10-2009 05:00:03 12.5 C 10.33 g/m*3 12.5 C 0 km/h
1111 25-10-2009 05:12:03 12.6 C 10.4 g/m*3 12.6 C 0 km/h
1112 25-10-2009 05:24:03 12.7 C 10.46 g/m*3 12.7 C 0 km/h
1113 25-10-2009 05:36:03 12.7 C 10.46 g/m*3 12.7 C 0 km/h
1114 25-10-2009 05:48:04 12.6 C 10.4 g/m*3 12.6 C 0 km/h
1115 25-10-2009 06:00:04 12.5 C 10.22 g/m*3 12.5 C 0 km/h
1116 25-10-2009 06:12:04 12.3 C 10.1 g/m*3 12.3 C 0 km/h
1117 25-10-2009 06:24:04 12.3 C 10.1 g/m*3 12.3 C 0 km/h
1118 25-10-2009 06:36:04 12.4 C 10.16 g/m*3 12.4 C 0 km/h
1119 25-10-2009 06:48:04 12.2 C 10.04 g/m*3 12.2 C 0 km/h
1120 25-10-2009 07:00:04 11.9 C 9.85 g/m*3 11.9 C 0 km/h
1121 25-10-2009 07:12:04 11.8 C 9.79 g/m*3 11.8 C 0 km/h
1122 25-10-2009 07:24:04 11.5 C 9.5 g/m*3 11.5 C 0 km/h
1123 25-10-2009 07:36:04 11.2 C 9.22 g/m*3 11.2 C 0 km/h
1124 25-10-2009 07:48:04 11 C 9.11 g/m*3 11 C 0 km/h
1125 25-10-2009 08:00:04 10.8 C 8.99 g/m*3 10.8 C 0 km/h
Sensor: Nr:Datum:Temp:Abs-Feuchte:Windchill:Wind:
Aussen-T/F 1126 25-10-2009 08:12:02 10.7 C 8.94 g/m*3 10.7 C 0 km/h
1127 25-10-2009 08:24:01 10.5 C 8.83 g/m*3 10.5 C 0 km/h
1128 25-10-2009 08:36:01 10.5 C 8.83 g/m*3 10.5 C 0 km/h
1129 25-10-2009 08:48:01 10.6 C 8.88 g/m*3 10.6 C 0 km/h
1130 25-10-2009 09:00:01 10.7 C 8.84 g/m*3 10.7 C 0 km/h
1131 25-10-2009 09:12:02 10.9 C 8.85 g/m*3 10.9 C 0 km/h
1132 25-10-2009 09:24:01 11 C 8.81 g/m*3 11 C 0 km/h
1133 25-10-2009 09:36:02 11.3 C 8.77 g/m*3 11.3 C 0 km/h
1134 25-10-2009 09:48:01 11.7 C 8.58 g/m*3 11.7 C 0 km/h
1135 25-10-2009 10:00:01 12.1 C 8.26 g/m*3 12.1 C 0 km/h
1136 25-10-2009 10:12:02 12.5 C 8.25 g/m*3 12.5 C 0 km/h
1137 25-10-2009 10:24:01 12.7 C 8.35 g/m*3 12.7 C 0 km/h
1138 25-10-2009 10:36:02 12.9 C 8.45 g/m*3 12.9 C 0 km/h
1139 25-10-2009 10:48:02 13.1 C 8.22 g/m*3 13.1 C 0 km/h
1140 25-10-2009 11:00:02 13.3 C 8.2 g/m*3 13.3 C 0 km/h
1141 25-10-2009 11:12:02 13.5 C 8.07 g/m*3 13.5 C 0 km/h
1142 25-10-2009 11:24:01 13.8 C 7.86 g/m*3 13.8 C 0 km/h
1143 25-10-2009 11:36:02 14.2 C 7.69 g/m*3 14.2 C 0 km/h
1144 25-10-2009 11:48:02 14.8 C 7.85 g/m*3 14.8 C 0 km/h
1145 25-10-2009 12:00:02 15.2 C 7.79 g/m*3 15.2 C 0 km/h
1146 25-10-2009 12:12:02 15.8 C 7.54 g/m*3 15.8 C 0 km/h
1147 25-10-2009 12:24:02 15.7 C 7.49 g/m*3 15.7 C 0 km/h
1148 25-10-2009 12:36:02 15.7 C 7.09 g/m*3 15.7 C 0 km/h
1149 25-10-2009 12:48:02 15.6 C 7.05 g/m*3 15.6 C 0 km/h
1150 25-10-2009 13:00:02 16.2 C 6.9 g/m*3 16.2 C 0 km/h
Sensor: Nr:Datum:Temp:Abs-Feuchte:Windchill:Wind:
Aussen-T/F 1151 25-10-2009 13:12:02 16.3 C 6.8 g/m*3 16.3 C 0 km/h
1152 25-10-2009 13:24:01 16.1 C 6.72 g/m*3 16.1 C 0 km/h
1153 25-10-2009 13:36:02 16.2 C 6.9 g/m*3 16.2 C 0 km/h
1154 25-10-2009 13:48:02 16.4 C 6.56 g/m*3 16.4 C 0 km/h
1155 25-10-2009 14:00:02 16.5 C 6.6 g/m*3 16.5 C 0 km/h
1156 25-10-2009 14:12:02 17.3 C 6.63 g/m*3 17.3 C 0 km/h
1157 25-10-2009 14:24:02 17.3 C 6.48 g/m*3 17.3 C 0 km/h
1158 25-10-2009 14:36:02 17.4 C 6.67 g/m*3 17.4 C 0 km/h
1159 25-10-2009 14:48:02 17.7 C 6.64 g/m*3 17.7 C 0 km/h
1160 25-10-2009 15:00:02 17.6 C 6.45 g/m*3 17.6 C 0 km/h
1161 25-10-2009 15:12:02 17.8 C 6.68 g/m*3 17.8 C 0 km/h
1162 25-10-2009 15:24:02 17.9 C 6.57 g/m*3 17.9 C 0 km/h
1163 25-10-2009 15:36:02 17.1 C 6.26 g/m*3 17.1 C 0 km/h
1164 25-10-2009 15:48:02 16.2 C 6.62 g/m*3 16.2 C 0 km/h
1165 25-10-2009 16:00:02 16 C 6.68 g/m*3 16 C 0 km/h
1166 25-10-2009 16:12:01 16.5 C 6.74 g/m*3 16.5 C 0 km/h
1167 25-10-2009 16:24:02 15.8 C 6.6 g/m*3 15.8 C 0 km/h
1168 25-10-2009 16:36:01 15.2 C 6.75 g/m*3 15.2 C 0 km/h
1169 25-10-2009 16:48:02 14.9 C 6.88 g/m*3 14.9 C 0 km/h
1170 25-10-2009 17:00:02 14.5 C 6.96 g/m*3 14.5 C 0 km/h
1171 25-10-2009 17:12:01 14.1 C 7.04 g/m*3 14.1 C 0 km/h
1172 25-10-2009 17:24:02 13.7 C 7.1 g/m*3 13.7 C 0 km/h
1173 25-10-2009 17:36:01 13.4 C 7.21 g/m*3 13.4 C 0 km/h
1174 25-10-2009 17:48:02 13.4 C 7.21 g/m*3 13.4 C 0 km/h
1175 25-10-2009 18:00:02 13.2 C 7.23 g/m*3 13.2 C 0 km/h
Sensor: Nr:Datum:Temp:Abs-Feuchte:Windchill:Wind:
Aussen-T/F 1176 25-10-2009 18:12:02 12.8 C 7.28 g/m*3 12.8 C 0 km/h
1177 25-10-2009 18:24:02 12.7 C 7.24 g/m*3 12.7 C 0 km/h
1178 25-10-2009 18:36:01 12.4 C 7.21 g/m*3 12.4 C 0 km/h
1179 25-10-2009 18:48:02 12.1 C 7.29 g/m*3 12.1 C 0 km/h
1180 25-10-2009 19:00:02 11.9 C 7.41 g/m*3 11.9 C 0 km/h
1181 25-10-2009 19:12:01 11.7 C 7.32 g/m*3 11.7 C 0 km/h
1182 25-10-2009 19:24:02 11.5 C 7.33 g/m*3 11.5 C 0 km/h
1183 25-10-2009 19:36:02 11.3 C 7.34 g/m*3 11.3 C 0 km/h
1184 25-10-2009 19:48:02 11.1 C 7.35 g/m*3 11.1 C 0 km/h
1185 25-10-2009 20:00:03 10.9 C 7.36 g/m*3 10.9 C 0 km/h
1186 25-10-2009 20:12:02 10.8 C 7.41 g/m*3 10.8 C 0 km/h
1187 25-10-2009 20:24:02 10.7 C 7.37 g/m*3 10.7 C 0 km/h
1188 25-10-2009 20:36:02 10.6 C 7.42 g/m*3 10.6 C 0 km/h
1189 25-10-2009 20:48:02 10.4 C 7.32 g/m*3 10.4 C 0 km/h
1190 25-10-2009 21:00:02 10.3 C 7.37 g/m*3 10.3 C 0 km/h
1191 25-10-2009 21:12:02 10.1 C 7.38 g/m*3 10.1 C 0 km/h
1192 25-10-2009 21:24:01 10 C 7.33 g/m*3 10 C 0 km/h
1193 25-10-2009 21:36:02 9.7 C 7.38 g/m*3 9.7 C 0 km/h
1194 25-10-2009 21:48:02 9.6 C 7.42 g/m*3 9.6 C 0 km/h
1195 25-10-2009 22:00:02 9.2 C 7.23 g/m*3 9.2 C 0 km/h
1196 25-10-2009 22:12:02 9.1 C 7.28 g/m*3 9.1 C 0 km/h
1197 25-10-2009 22:24:02 9.1 C 7.28 g/m*3 9.1 C 0 km/h
1198 25-10-2009 22:37:02 9.1 C 7.36 g/m*3 9.1 C 0 km/h
1199 25-10-2009 22:49:02 9.1 C 7.45 g/m*3 9.1 C 0 km/h
1200 25-10-2009 23:01:02 9.4 C 7.6 g/m*3 9.4 C 0 km/h
Sensor: Nr:Datum:Temp:Abs-Feuchte:Windchill:Wind:
Aussen-T/F 1201 25-10-2009 23:13:03 9.6 C 7.6 g/m*3 9.6 C 0 km/h
1202 25-10-2009 23:25:03 9.7 C 7.65 g/m*3 9.7 C 0 km/h
1203 25-10-2009 23:37:03 9.8 C 7.61 g/m*3 9.8 C 0 km/h
1204 25-10-2009 23:49:03 9.7 C 7.65 g/m*3 9.7 C 0 km/h
1205 26-10-2009 00:01:03 9.8 C 7.79 g/m*3 9.8 C 0 km/h
1206 26-10-2009 00:13:03 9.8 C 7.79 g/m*3 9.8 C 0 km/h
1207 26-10-2009 00:25:03 9.8 C 7.79 g/m*3 9.8 C 0 km/h
1208 26-10-2009 00:37:03 9.7 C 7.74 g/m*3 9.7 C 0 km/h
1209 26-10-2009 00:49:03 9.5 C 7.65 g/m*3 9.5 C 0 km/h
1210 26-10-2009 01:01:03 9.4 C 7.69 g/m*3 9.4 C 0 km/h
1211 26-10-2009 01:13:03 9.3 C 7.64 g/m*3 9.3 C 0 km/h
1212 26-10-2009 01:25:03 9.3 C 7.73 g/m*3 9.3 C 0 km/h
1213 26-10-2009 01:37:03 9.4 C 7.78 g/m*3 9.4 C 0 km/h
1214 26-10-2009 01:49:03 9.4 C 7.69 g/m*3 9.4 C 0 km/h
1215 26-10-2009 02:01:03 9.3 C 7.64 g/m*3 9.3 C 0 km/h
1216 26-10-2009 02:13:03 9.3 C 7.64 g/m*3 9.3 C 0 km/h
1217 26-10-2009 02:25:03 9.3 C 7.64 g/m*3 9.3 C 0 km/h
1218 26-10-2009 02:37:03 9.3 C 7.73 g/m*3 9.3 C 0 km/h
1219 26-10-2009 02:49:03 9.3 C 7.73 g/m*3 9.3 C 0 km/h
1220 26-10-2009 03:01:04 9.6 C 7.88 g/m*3 9.6 C 0 km/h
1221 26-10-2009 03:13:04 10.1 C 7.75 g/m*3 10.1 C 0 km/h
1222 26-10-2009 03:25:04 10.2 C 7.61 g/m*3 10.2 C 0 km/h
1223 26-10-2009 03:37:04 10.1 C 7.56 g/m*3 10.1 C 0 km/h
1224 26-10-2009 03:49:04 10.1 C 7.56 g/m*3 10.1 C 0 km/h
1225 26-10-2009 04:01:04 10 C 7.52 g/m*3 10 C 0 km/h
Sensor: Nr:Datum:Temp:Abs-Feuchte:Windchill:Wind:
Aussen-T/F 1226 26-10-2009 04:13:04 10.1 C 7.66 g/m*3 10.1 C 0 km/h
1227 26-10-2009 04:25:04 10.4 C 7.71 g/m*3 10.4 C 0 km/h
1228 26-10-2009 04:37:04 10.4 C 7.52 g/m*3 10.4 C 0 km/h
1229 26-10-2009 04:49:04 10.6 C 7.52 g/m*3 10.6 C 0 km/h
1230 26-10-2009 05:01:04 10.7 C 7.46 g/m*3 10.7 C 0 km/h
1231 26-10-2009 05:13:04 10.8 C 7.41 g/m*3 10.8 C 0 km/h
1232 26-10-2009 05:25:04 10.7 C 7.37 g/m*3 10.7 C 0 km/h
1233 26-10-2009 05:37:04 10.6 C 7.32 g/m*3 10.6 C 0 km/h
1234 26-10-2009 05:49:04 10.6 C 7.42 g/m*3 10.6 C 0 km/h
1235 26-10-2009 06:01:04 10.5 C 7.47 g/m*3 10.5 C 0 km/h
1236 26-10-2009 06:13:04 10.4 C 7.42 g/m*3 10.4 C 0 km/h
1237 26-10-2009 06:25:04 10.3 C 7.37 g/m*3 10.3 C 0 km/h
1238 26-10-2009 06:37:04 9.9 C 7.47 g/m*3 9.9 C 0 km/h
1239 26-10-2009 06:49:05 9.9 C 7.56 g/m*3 9.9 C 0 km/h
1240 26-10-2009 07:01:02 10 C 7.42 g/m*3 10 C 0 km/h
1241 26-10-2009 07:13:02 10.2 C 7.42 g/m*3 10.2 C 0 km/h
1242 26-10-2009 07:25:02 10.4 C 7.42 g/m*3 10.4 C 0 km/h
1243 26-10-2009 07:37:02 10.5 C 7.37 g/m*3 10.5 C 0 km/h
1244 26-10-2009 07:49:02 10.6 C 7.42 g/m*3 10.6 C 0 km/h
1245 26-10-2009 08:01:02 10.7 C 7.37 g/m*3 10.7 C 0 km/h
1246 26-10-2009 08:13:02 10.8 C 7.41 g/m*3 10.8 C 0 km/h
1247 26-10-2009 08:25:02 10.8 C 7.41 g/m*3 10.8 C 0 km/h
1248 26-10-2009 08:37:02 10.9 C 7.46 g/m*3 10.9 C 0 km/h
1249 26-10-2009 08:49:01 11 C 7.41 g/m*3 11 C 0 km/h
1250 26-10-2009 09:01:02 11 C 7.41 g/m*3 11 C 0 km/h
Sensor: Nr:Datum:Temp:Abs-Feuchte:Windchill:Wind:
Aussen-T/F 1251 26-10-2009 09:13:02 11.1 C 7.45 g/m*3 11.1 C 0 km/h
1252 26-10-2009 09:25:01 11.3 C 7.55 g/m*3 11.3 C 0 km/h
1253 26-10-2009 09:37:02 11.5 C 7.44 g/m*3 11.5 C 0 km/h
1254 26-10-2009 09:49:02 11.3 C 7.45 g/m*3 11.3 C 0 km/h
1255 26-10-2009 10:01:02 11.4 C 7.49 g/m*3 11.4 C 0 km/h
1256 26-10-2009 10:13:02 11.6 C 7.59 g/m*3 11.6 C 0 km/h
1257 26-10-2009 10:25:01 11.8 C 7.47 g/m*3 11.8 C 0 km/h
1258 26-10-2009 10:37:02 11.9 C 7.52 g/m*3 11.9 C 0 km/h
1259 26-10-2009 10:49:02 12.3 C 7.38 g/m*3 12.3 C 0 km/h
1260 26-10-2009 11:01:02 13.1 C 7.19 g/m*3 13.1 C 0 km/h
1261 26-10-2009 11:13:03 13.2 C 7.23 g/m*3 13.2 C 0 km/h
1262 26-10-2009 11:25:02 13.3 C 7.16 g/m*3 13.3 C 0 km/h
1263 26-10-2009 11:37:02 13.7 C 7.22 g/m*3 13.7 C 0 km/h
1264 26-10-2009 11:49:02 14 C 7.24 g/m*3 14 C 0 km/h
1265 26-10-2009 12:01:02 13.9 C 7.07 g/m*3 13.9 C 0 km/h
1266 26-10-2009 12:13:02 14.1 C 7.04 g/m*3 14.1 C 0 km/h
1267 26-10-2009 12:25:02 14.7 C 7.05 g/m*3 14.7 C 0 km/h
1268 26-10-2009 12:37:02 14.4 C 6.92 g/m*3 14.4 C 0 km/h
1269 26-10-2009 12:49:02 14.6 C 6.88 g/m*3 14.6 C 0 km/h
1270 26-10-2009 13:01:02 14.5 C 6.96 g/m*3 14.5 C 0 km/h
1271 26-10-2009 13:13:02 14.2 C 6.96 g/m*3 14.2 C 0 km/h
1272 26-10-2009 13:25:02 13.8 C 7.03 g/m*3 13.8 C 0 km/h
1273 26-10-2009 13:37:02 13.9 C 7.07 g/m*3 13.9 C 0 km/h
1274 26-10-2009 13:49:01 14 C 7 g/m*3 14 C 0 km/h
1275 26-10-2009 14:01:01 14.1 C 6.92 g/m*3 14.1 C 0 km/h
Sensor: Nr:Datum:Temp:Abs-Feuchte:Windchill:Wind:
Aussen-T/F 1276 26-10-2009 14:13:01 14 C 6.88 g/m*3 14 C 0 km/h
1277 26-10-2009 14:25:02 14 C 6.88 g/m*3 14 C 0 km/h
1278 26-10-2009 14:37:01 14 C 7 g/m*3 14 C 0 km/h
1279 26-10-2009 14:49:01 14 C 7 g/m*3 14 C 0 km/h
1280 26-10-2009 15:01:01 14 C 7 g/m*3 14 C 0 km/h
1281 26-10-2009 15:13:01 14 C 7 g/m*3 14 C 0 km/h
1282 26-10-2009 15:25:02 13.7 C 7.22 g/m*3 13.7 C 0 km/h
1283 26-10-2009 15:37:01 13.5 C 7.13 g/m*3 13.5 C 0 km/h
1284 26-10-2009 15:49:03 13.5 C 7.13 g/m*3 13.5 C 0 km/h
1285 26-10-2009 16:01:02 13.6 C 7.18 g/m*3 13.6 C 0 km/h
1286 26-10-2009 16:13:02 13.5 C 7.13 g/m*3 13.5 C 0 km/h
1287 26-10-2009 16:25:03 13.5 C 7.13 g/m*3 13.5 C 0 km/h
1288 26-10-2009 16:37:02 13.5 C 7.13 g/m*3 13.5 C 0 km/h
1289 26-10-2009 16:49:03 13.4 C 7.21 g/m*3 13.4 C 0 km/h
1290 26-10-2009 17:01:02 13.3 C 7.16 g/m*3 13.3 C 0 km/h
1291 26-10-2009 17:13:02 13.2 C 7.23 g/m*3 13.2 C 0 km/h
1292 26-10-2009 17:25:02 13.2 C 7.23 g/m*3 13.2 C 0 km/h
1293 26-10-2009 17:37:02 13.1 C 7.3 g/m*3 13.1 C 0 km/h
1294 26-10-2009 17:49:02 13.1 C 7.3 g/m*3 13.1 C 0 km/h
1295 26-10-2009 18:01:02 13.1 C 7.42 g/m*3 13.1 C 0 km/h
1296 26-10-2009 18:13:02 13.1 C 7.42 g/m*3 13.1 C 0 km/h
1297 26-10-2009 18:25:02 13 C 7.48 g/m*3 13 C 0 km/h
1298 26-10-2009 18:37:01 13 C 7.6 g/m*3 13 C 0 km/h
1299 26-10-2009 18:49:02 12.9 C 7.66 g/m*3 12.9 C 0 km/h
1300 26-10-2009 19:01:01 12.8 C 7.73 g/m*3 12.8 C 0 km/h
Sensor: Nr:Datum:Temp:Abs-Feuchte:Windchill:Wind:
Aussen-T/F 1301 26-10-2009 19:13:01 12.8 C 7.73 g/m*3 12.8 C 0 km/h
1302 26-10-2009 19:25:02 12.7 C 7.68 g/m*3 12.7 C 0 km/h
1303 26-10-2009 19:37:02 12.7 C 7.79 g/m*3 12.7 C 0 km/h
1304 26-10-2009 19:49:02 12.7 C 7.9 g/m*3 12.7 C 0 km/h
1305 26-10-2009 20:01:02 12.6 C 7.85 g/m*3 12.6 C 0 km/h
1306 26-10-2009 20:13:02 12.6 C 7.97 g/m*3 12.6 C 0 km/h
1307 26-10-2009 20:25:02 12.5 C 8.03 g/m*3 12.5 C 0 km/h
1308 26-10-2009 20:37:02 12.4 C 7.98 g/m*3 12.4 C 0 km/h
1309 26-10-2009 20:49:02 12.4 C 7.98 g/m*3 12.4 C 0 km/h
1310 26-10-2009 21:01:02 12.4 C 7.98 g/m*3 12.4 C 0 km/h
1311 26-10-2009 21:13:02 12.4 C 7.98 g/m*3 12.4 C 0 km/h
1312 26-10-2009 21:25:02 12.5 C 8.03 g/m*3 12.5 C 0 km/h
1313 26-10-2009 21:37:01 12.4 C 7.98 g/m*3 12.4 C 0 km/h
1314 26-10-2009 21:49:01 12.3 C 8.04 g/m*3 12.3 C 0 km/h
1315 26-10-2009 22:02:04 12.3 C 8.04 g/m*3 12.3 C 0 km/h
1316 26-10-2009 22:14:04 12.4 C 8.09 g/m*3 12.4 C 0 km/h
1317 26-10-2009 22:26:04 12.2 C 7.99 g/m*3 12.2 C 0 km/h
1318 26-10-2009 22:38:04 12.3 C 8.04 g/m*3 12.3 C 0 km/h
1319 26-10-2009 22:50:04 12.3 C 8.04 g/m*3 12.3 C 0 km/h
1320 26-10-2009 23:02:04 12.3 C 8.04 g/m*3 12.3 C 0 km/h
1321 26-10-2009 23:14:04 12.2 C 7.99 g/m*3 12.2 C 0 km/h
1322 26-10-2009 23:26:04 12.2 C 8.09 g/m*3 12.2 C 0 km/h
1323 26-10-2009 23:38:04 12.2 C 7.99 g/m*3 12.2 C 0 km/h
1324 26-10-2009 23:50:04 12.2 C 7.99 g/m*3 12.2 C 0 km/h
1325 27-10-2009 00:02:04 12.2 C 7.99 g/m*3 12.2 C 0 km/h
Sensor: Nr:Datum:Temp:Abs-Feuchte:Windchill:Wind:
Aussen-T/F 1326 27-10-2009 00:14:04 12.2 C 7.99 g/m*3 12.2 C 0 km/h
1327 27-10-2009 00:26:04 12.2 C 7.99 g/m*3 12.2 C 0 km/h
1328 27-10-2009 00:38:05 12.2 C 7.99 g/m*3 12.2 C 0 km/h
1329 27-10-2009 00:50:05 12.2 C 7.99 g/m*3 12.2 C 0 km/h
1330 27-10-2009 01:02:05 12 C 8.1 g/m*3 12 C 0 km/h
1331 27-10-2009 01:14:05 11.7 C 8.37 g/m*3 11.7 C 0 km/h
1332 27-10-2009 01:26:05 11.6 C 8.42 g/m*3 11.6 C 0 km/h
1333 27-10-2009 01:38:05 11.6 C 8.42 g/m*3 11.6 C 0 km/h
1334 27-10-2009 01:50:05 11.7 C 8.47 g/m*3 11.7 C 0 km/h
1335 27-10-2009 02:02:05 11.7 C 8.26 g/m*3 11.7 C 0 km/h
1336 27-10-2009 02:14:05 11.7 C 8.26 g/m*3 11.7 C 0 km/h
1337 27-10-2009 02:26:05 11.7 C 8.16 g/m*3 11.7 C 0 km/h
1338 27-10-2009 02:38:05 11.7 C 8.16 g/m*3 11.7 C 0 km/h
1339 27-10-2009 02:50:05 11.7 C 8.26 g/m*3 11.7 C 0 km/h
1340 27-10-2009 03:02:05 11.5 C 8.16 g/m*3 11.5 C 0 km/h
1341 27-10-2009 03:14:05 11.5 C 8.26 g/m*3 11.5 C 0 km/h
1342 27-10-2009 03:26:05 11.4 C 8.31 g/m*3 11.4 C 0 km/h
1343 27-10-2009 03:38:05 11.3 C 8.26 g/m*3 11.3 C 0 km/h
1344 27-10-2009 03:50:05 11.3 C 8.36 g/m*3 11.3 C 0 km/h
1345 27-10-2009 04:02:05 11.3 C 8.36 g/m*3 11.3 C 0 km/h
1346 27-10-2009 04:14:05 11.3 C 8.36 g/m*3 11.3 C 0 km/h
1347 27-10-2009 04:26:06 11.4 C 8.42 g/m*3 11.4 C 0 km/h
1348 27-10-2009 04:38:06 11.4 C 8.42 g/m*3 11.4 C 0 km/h
1349 27-10-2009 04:50:06 11.3 C 8.36 g/m*3 11.3 C 0 km/h
1350 27-10-2009 05:02:06 11.2 C 8.31 g/m*3 11.2 C 0 km/h
Sensor: Nr:Datum:Temp:Abs-Feuchte:Windchill:Wind:
Aussen-T/F 1351 27-10-2009 05:14:06 11.2 C 8.31 g/m*3 11.2 C 0 km/h
1352 27-10-2009 05:26:06 11.2 C 8.31 g/m*3 11.2 C 0 km/h
1353 27-10-2009 05:38:06 11.2 C 8.21 g/m*3 11.2 C 0 km/h
1354 27-10-2009 05:50:06 11.2 C 8.21 g/m*3 11.2 C 0 km/h
1355 27-10-2009 06:02:06 11.2 C 8.21 g/m*3 11.2 C 0 km/h
1356 27-10-2009 06:14:06 11.2 C 8.11 g/m*3 11.2 C 0 km/h
1357 27-10-2009 06:26:06 11.2 C 8.11 g/m*3 11.2 C 0 km/h
1358 27-10-2009 06:38:06 11.2 C 8.11 g/m*3 11.2 C 0 km/h
1359 27-10-2009 06:50:06 11.2 C 8.11 g/m*3 11.2 C 0 km/h
1360 27-10-2009 07:02:03 11.1 C 8.06 g/m*3 11.1 C 0 km/h
1361 27-10-2009 07:14:03 11 C 8.11 g/m*3 11 C 0 km/h
1362 27-10-2009 07:26:03 11 C 8.11 g/m*3 11 C 0 km/h
1363 27-10-2009 07:38:03 11.1 C 8.16 g/m*3 11.1 C 0 km/h
1364 27-10-2009 07:50:01 11.1 C 8.16 g/m*3 11.1 C 0 km/h
1365 27-10-2009 08:02:02 11.1 C 8.16 g/m*3 11.1 C 0 km/h
1366 27-10-2009 08:14:02 11.2 C 8.21 g/m*3 11.2 C 0 km/h
1367 27-10-2009 08:26:01 11.2 C 8.21 g/m*3 11.2 C 0 km/h
1368 27-10-2009 08:38:02 11.2 C 8.21 g/m*3 11.2 C 0 km/h
1369 27-10-2009 08:50:02 11.4 C 8.31 g/m*3 11.4 C 0 km/h
1370 27-10-2009 09:02:02 11.5 C 8.26 g/m*3 11.5 C 0 km/h
1371 27-10-2009 09:14:02 11.8 C 8.42 g/m*3 11.8 C 0 km/h
1372 27-10-2009 09:26:01 12 C 8.31 g/m*3 12 C 0 km/h
1373 27-10-2009 09:38:02 12.1 C 8.26 g/m*3 12.1 C 0 km/h
1374 27-10-2009 09:50:02 12.3 C 8.14 g/m*3 12.3 C 0 km/h
1375 27-10-2009 10:02:02 12.4 C 8.09 g/m*3 12.4 C 0 km/h
Sensor: Nr:Datum:Temp:Abs-Feuchte:Windchill:Wind:
Aussen-T/F 1376 27-10-2009 10:14:02 12.5 C 8.03 g/m*3 12.5 C 0 km/h
1377 27-10-2009 10:26:02 12.8 C 8.18 g/m*3 12.8 C 0 km/h
1378 27-10-2009 10:38:02 13.2 C 8.15 g/m*3 13.2 C 0 km/h
1379 27-10-2009 10:50:02 13.5 C 8.07 g/m*3 13.5 C 0 km/h
1380 27-10-2009 11:02:02 13.6 C 7.89 g/m*3 13.6 C 0 km/h
1381 27-10-2009 11:14:03 13.7 C 7.82 g/m*3 13.7 C 0 km/h
1382 27-10-2009 11:26:02 13.8 C 7.74 g/m*3 13.8 C 0 km/h
1383 27-10-2009 11:38:02 14.1 C 7.52 g/m*3 14.1 C 0 km/h
1384 27-10-2009 11:50:02 14.4 C 7.42 g/m*3 14.4 C 0 km/h
1385 27-10-2009 12:02:02 14.7 C 7.18 g/m*3 14.7 C 0 km/h
1386 27-10-2009 12:14:02 14.7 C 7.18 g/m*3 14.7 C 0 km/h
1387 27-10-2009 12:26:02 15.1 C 7.35 g/m*3 15.1 C 0 km/h
1388 27-10-2009 12:38:02 15.1 C 7.35 g/m*3 15.1 C 0 km/h
1389 27-10-2009 12:50:02 15.1 C 7.35 g/m*3 15.1 C 0 km/h
1390 27-10-2009 13:02:02 15.4 C 7.36 g/m*3 15.4 C 0 km/h
1391 27-10-2009 13:14:02 15.7 C 7.36 g/m*3 15.7 C 0 km/h
1392 27-10-2009 13:26:02 15.6 C 7.18 g/m*3 15.6 C 0 km/h
1393 27-10-2009 13:38:02 15.6 C 7.31 g/m*3 15.6 C 0 km/h
1394 27-10-2009 13:50:02 15.6 C 7.45 g/m*3 15.6 C 0 km/h
1395 27-10-2009 14:02:02 15.6 C 7.18 g/m*3 15.6 C 0 km/h
1396 27-10-2009 14:14:02 15.8 C 7.27 g/m*3 15.8 C 0 km/h
1397 27-10-2009 14:26:02 15.9 C 7.18 g/m*3 15.9 C 0 km/h
1398 27-10-2009 14:38:02 15.6 C 6.92 g/m*3 15.6 C 0 km/h
1399 27-10-2009 14:50:02 15.8 C 7 g/m*3 15.8 C 0 km/h
1400 27-10-2009 15:02:02 15.7 C 6.96 g/m*3 15.7 C 0 km/h
Sensor: Nr:Datum:Temp:Abs-Feuchte:Windchill:Wind:
Aussen-T/F 1401 27-10-2009 15:14:02 15.8 C 7.13 g/m*3 15.8 C 0 km/h
1402 27-10-2009 15:26:02 15.5 C 6.87 g/m*3 15.5 C 0 km/h
1403 27-10-2009 15:38:01 15.3 C 6.92 g/m*3 15.3 C 0 km/h
1404 27-10-2009 15:50:02 15.1 C 6.84 g/m*3 15.1 C 0 km/h
1405 27-10-2009 16:02:01 15 C 6.92 g/m*3 15 C 0 km/h
1406 27-10-2009 16:14:01 14.8 C 7.35 g/m*3 14.8 C 0 km/h
1407 27-10-2009 16:26:02 14.7 C 7.43 g/m*3 14.7 C 0 km/h
1408 27-10-2009 16:38:01 14.4 C 7.29 g/m*3 14.4 C 0 km/h
1409 27-10-2009 16:50:02 14 C 7.12 g/m*3 14 C 0 km/h
1410 27-10-2009 17:02:02 13.6 C 6.94 g/m*3 13.6 C 0 km/h
1411 27-10-2009 17:14:02 13 C 6.69 g/m*3 13 C 0 km/h
1412 27-10-2009 17:26:02 12.5 C 6.71 g/m*3 12.5 C 0 km/h
1413 27-10-2009 17:38:02 12 C 6.61 g/m*3 12 C 0 km/h
1414 27-10-2009 17:50:02 11.6 C 6.65 g/m*3 11.6 C 0 km/h
1415 27-10-2009 18:02:01 11.3 C 6.63 g/m*3 11.3 C 0 km/h
1416 27-10-2009 18:14:01 11.1 C 6.65 g/m*3 11.1 C 0 km/h
1417 27-10-2009 18:26:01 10.7 C 6.68 g/m*3 10.7 C 0 km/h
1418 27-10-2009 18:38:02 10.5 C 6.69 g/m*3 10.5 C 0 km/h
1419 27-10-2009 18:50:02 10.2 C 6.66 g/m*3 10.2 C 0 km/h
1420 27-10-2009 19:02:02 10.1 C 6.71 g/m*3 10.1 C 0 km/h
1421 27-10-2009 19:14:02 10 C 6.77 g/m*3 10 C 0 km/h
1422 27-10-2009 19:26:02 9.9 C 6.91 g/m*3 9.9 C 0 km/h
1423 27-10-2009 19:38:02 9.7 C 6.82 g/m*3 9.7 C 0 km/h
1424 27-10-2009 19:50:02 9.6 C 6.87 g/m*3 9.6 C 0 km/h
1425 27-10-2009 20:02:03 9.4 C 6.78 g/m*3 9.4 C 0 km/h
Sensor: Nr:Datum:Temp:Abs-Feuchte:Windchill:Wind:
Aussen-T/F 1426 27-10-2009 20:14:03 9.2 C 6.79 g/m*3 9.2 C 0 km/h
1427 27-10-2009 20:26:02 9 C 6.79 g/m*3 9 C 0 km/h
1428 27-10-2009 20:38:02 8.9 C 6.83 g/m*3 8.9 C 0 km/h
1429 27-10-2009 20:50:01 8.9 C 7.01 g/m*3 8.9 C 0 km/h
1430 27-10-2009 21:02:01 8.7 C 6.92 g/m*3 8.7 C 0 km/h
1431 27-10-2009 21:14:01 8.6 C 6.87 g/m*3 8.6 C 0 km/h
1432 27-10-2009 21:26:02 8.4 C 6.87 g/m*3 8.4 C 0 km/h
1433 27-10-2009 21:38:01 8.4 C 6.87 g/m*3 8.4 C 0 km/h
1434 27-10-2009 21:50:03 8.2 C 6.87 g/m*3 8.2 C 0 km/h
1435 27-10-2009 22:02:02 8 C 6.78 g/m*3 8 C 0 km/h
1436 27-10-2009 22:14:02 7.9 C 6.82 g/m*3 7.9 C 0 km/h
1437 27-10-2009 22:26:02 7.8 C 6.77 g/m*3 7.8 C 0 km/h
1438 27-10-2009 22:38:03 7.7 C 6.81 g/m*3 7.7 C 0 km/h
1439 27-10-2009 22:51:02 7.6 C 6.77 g/m*3 7.6 C 0 km/h
1440 27-10-2009 23:03:02 7.5 C 6.8 g/m*3 7.5 C 0 km/h
1441 27-10-2009 23:15:02 7.4 C 6.76 g/m*3 7.4 C 0 km/h
1442 27-10-2009 23:27:02 7.1 C 6.71 g/m*3 7.1 C 0 km/h
1443 27-10-2009 23:39:02 7 C 6.66 g/m*3 7 C 0 km/h
1444 27-10-2009 23:51:02 6.9 C 6.7 g/m*3 6.9 C 0 km/h
1445 28-10-2009 00:03:02 6.7 C 6.61 g/m*3 6.7 C 0 km/h
1446 28-10-2009 00:15:02 6.6 C 6.57 g/m*3 6.6 C 0 km/h
1447 28-10-2009 00:27:02 6.5 C 6.6 g/m*3 6.5 C 0 km/h
1448 28-10-2009 00:39:02 6.3 C 6.51 g/m*3 6.3 C 0 km/h
1449 28-10-2009 00:51:02 6.3 C 6.51 g/m*3 6.3 C 0 km/h
1450 28-10-2009 01:03:02 6.2 C 6.47 g/m*3 6.2 C 0 km/h
Sensor: Nr:Datum:Temp:Abs-Feuchte:Windchill:Wind:
Aussen-T/F 1451 28-10-2009 01:15:02 6.1 C 6.43 g/m*3 6.1 C 0 km/h
1452 28-10-2009 01:27:02 5.9 C 6.42 g/m*3 5.9 C 0 km/h
1453 28-10-2009 01:39:02 5.8 C 6.38 g/m*3 5.8 C 0 km/h
1454 28-10-2009 01:51:02 5.6 C 6.36 g/m*3 5.6 C 0 km/h
1455 28-10-2009 02:03:02 5.7 C 6.4 g/m*3 5.7 C 0 km/h
1456 28-10-2009 02:15:02 5.6 C 6.36 g/m*3 5.6 C 0 km/h
1457 28-10-2009 02:27:03 5.5 C 6.32 g/m*3 5.5 C 0 km/h
1458 28-10-2009 02:39:03 5.4 C 6.28 g/m*3 5.4 C 0 km/h
1459 28-10-2009 02:51:03 5.4 C 6.28 g/m*3 5.4 C 0 km/h
1460 28-10-2009 03:03:03 5.5 C 6.32 g/m*3 5.5 C 0 km/h
1461 28-10-2009 03:15:03 5.7 C 6.48 g/m*3 5.7 C 0 km/h
1462 28-10-2009 03:27:03 5.6 C 6.43 g/m*3 5.6 C 0 km/h
1463 28-10-2009 03:39:03 5.7 C 6.55 g/m*3 5.7 C 0 km/h
1464 28-10-2009 03:51:03 5.8 C 6.59 g/m*3 5.8 C 0 km/h
1465 28-10-2009 04:03:03 5.8 C 6.59 g/m*3 5.8 C 0 km/h
1466 28-10-2009 04:15:03 6 C 6.68 g/m*3 6 C 0 km/h
1467 28-10-2009 04:27:03 6 C 6.68 g/m*3 6 C 0 km/h
1468 28-10-2009 04:39:03 5.7 C 6.55 g/m*3 5.7 C 0 km/h
1469 28-10-2009 04:51:03 5.6 C 6.5 g/m*3 5.6 C 0 km/h
1470 28-10-2009 05:03:03 5.5 C 6.46 g/m*3 5.5 C 0 km/h
1471 28-10-2009 05:15:03 5.3 C 6.38 g/m*3 5.3 C 0 km/h
1472 28-10-2009 05:27:03 5.4 C 6.42 g/m*3 5.4 C 0 km/h
1473 28-10-2009 05:39:03 5.5 C 6.46 g/m*3 5.5 C 0 km/h
1474 28-10-2009 05:51:03 5.5 C 6.46 g/m*3 5.5 C 0 km/h
1475 28-10-2009 06:03:03 5.5 C 6.46 g/m*3 5.5 C 0 km/h
Sensor: Nr:Datum:Temp:Abs-Feuchte:Windchill:Wind:
Aussen-T/F 1476 28-10-2009 06:15:03 5.4 C 6.42 g/m*3 5.4 C 0 km/h
1477 28-10-2009 06:27:03 5.2 C 6.33 g/m*3 5.2 C 0 km/h
1478 28-10-2009 06:39:04 5.2 C 6.33 g/m*3 5.2 C 0 km/h
1479 28-10-2009 06:51:02 5.2 C 6.4 g/m*3 5.2 C 0 km/h
1480 28-10-2009 07:03:02 5.1 C 6.36 g/m*3 5.1 C 0 km/h
1481 28-10-2009 07:15:02 5 C 6.32 g/m*3 5 C 0 km/h
1482 28-10-2009 07:27:02 5 C 6.32 g/m*3 5 C 0 km/h
1483 28-10-2009 07:39:02 5.1 C 6.36 g/m*3 5.1 C 0 km/h
1484 28-10-2009 07:51:02 5.1 C 6.36 g/m*3 5.1 C 0 km/h
1485 28-10-2009 08:03:02 5.2 C 6.4 g/m*3 5.2 C 0 km/h
1486 28-10-2009 08:15:02 5.2 C 6.4 g/m*3 5.2 C 0 km/h
1487 28-10-2009 08:27:02 5.1 C 6.36 g/m*3 5.1 C 0 km/h
1488 28-10-2009 08:39:02 5.4 C 6.56 g/m*3 5.4 C 0 km/h
1489 28-10-2009 08:51:01 5.8 C 6.73 g/m*3 5.8 C 0 km/h
1490 28-10-2009 09:03:02 6 C 6.75 g/m*3 6 C 0 km/h
1491 28-10-2009 09:15:01 6.3 C 6.88 g/m*3 6.3 C 0 km/h
1492 28-10-2009 09:27:01 6.8 C 7.04 g/m*3 6.8 C 0 km/h
1493 28-10-2009 09:39:02 6.3 C 6.74 g/m*3 6.3 C 0 km/h
1494 28-10-2009 09:51:01 6.3 C 6.74 g/m*3 6.3 C 0 km/h
1495 28-10-2009 10:03:02 6.8 C 6.88 g/m*3 6.8 C 0 km/h
1496 28-10-2009 10:15:01 7.2 C 6.99 g/m*3 7.2 C 0 km/h
1497 28-10-2009 10:27:01 7.4 C 7 g/m*3 7.4 C 0 km/h
1498 28-10-2009 10:39:02 7.4 C 6.92 g/m*3 7.4 C 0 km/h
1499 28-10-2009 10:51:02 7.2 C 6.83 g/m*3 7.2 C 0 km/h
1500 28-10-2009 11:03:02 7.9 C 7.23 g/m*3 7.9 C 0 km/h
Sensor: Nr:Datum:Temp:Abs-Feuchte:Windchill:Wind:
Aussen-T/F 1501 28-10-2009 11:15:01 8.6 C 7.3 g/m*3 8.6 C 0 km/h
1502 28-10-2009 11:27:01 9 C 7.14 g/m*3 9 C 0 km/h
1503 28-10-2009 11:39:02 9.6 C 7.24 g/m*3 9.6 C 0 km/h
1504 28-10-2009 11:51:02 10 C 7.24 g/m*3 10 C 0 km/h
1505 28-10-2009 12:03:02 10.3 C 7.09 g/m*3 10.3 C 0 km/h
1506 28-10-2009 12:15:02 10.7 C 7.17 g/m*3 10.7 C 0 km/h
1507 28-10-2009 12:27:02 11.2 C 7.3 g/m*3 11.2 C 0 km/h
1508 28-10-2009 12:39:02 11.6 C 7.38 g/m*3 11.6 C 0 km/h
1509 28-10-2009 12:51:02 11.4 C 7.29 g/m*3 11.4 C 0 km/h
1510 28-10-2009 13:03:02 12 C 7.46 g/m*3 12 C 0 km/h
1511 28-10-2009 13:15:03 12.8 C 7.84 g/m*3 12.8 C 0 km/h
1512 28-10-2009 13:27:03 13.5 C 7.72 g/m*3 13.5 C 0 km/h
1513 28-10-2009 13:39:02 14.1 C 7.77 g/m*3 14.1 C 0 km/h
1514 28-10-2009 13:51:02 14.9 C 7.77 g/m*3 14.9 C 0 km/h
1515 28-10-2009 14:03:02 15.4 C 7.62 g/m*3 15.4 C 0 km/h
1516 28-10-2009 14:15:03 16 C 7.36 g/m*3 16 C 0 km/h
1517 28-10-2009 14:27:03 16 C 7.49 g/m*3 16 C 0 km/h
1518 28-10-2009 14:39:02 16.2 C 7.58 g/m*3 16.2 C 0 km/h
1519 28-10-2009 14:51:03 16.4 C 7.4 g/m*3 16.4 C 0 km/h
1520 28-10-2009 15:03:02 15.8 C 7.27 g/m*3 15.8 C 0 km/h
1521 28-10-2009 15:15:02 15.1 C 7.48 g/m*3 15.1 C 0 km/h
1522 28-10-2009 15:27:02 14.7 C 7.68 g/m*3 14.7 C 0 km/h
1523 28-10-2009 15:39:02 14.1 C 7.65 g/m*3 14.1 C 0 km/h
1524 28-10-2009 15:51:02 13.8 C 7.74 g/m*3 13.8 C 0 km/h
1525 28-10-2009 16:03:02 13.5 C 7.84 g/m*3 13.5 C 0 km/h
Sensor: Nr:Datum:Temp:Abs-Feuchte:Windchill:Wind:
Aussen-T/F 1526 28-10-2009 16:15:02 13.3 C 7.97 g/m*3 13.3 C 0 km/h
1527 28-10-2009 16:27:02 13.1 C 7.99 g/m*3 13.1 C 0 km/h
1528 28-10-2009 16:39:02 12.7 C 8.01 g/m*3 12.7 C 0 km/h
1529 28-10-2009 16:51:02 12.5 C 7.92 g/m*3 12.5 C 0 km/h
1530 28-10-2009 17:03:02 12 C 7.78 g/m*3 12 C 0 km/h
1531 28-10-2009 17:15:02 11.7 C 7.84 g/m*3 11.7 C 0 km/h
1532 28-10-2009 17:27:02 11.4 C 7.7 g/m*3 11.4 C 0 km/h
1533 28-10-2009 17:39:01 11.2 C 7.7 g/m*3 11.2 C 0 km/h
1534 28-10-2009 17:51:02 11 C 7.71 g/m*3 11 C 0 km/h
1535 28-10-2009 18:03:01 10.7 C 7.56 g/m*3 10.7 C 0 km/h
1536 28-10-2009 18:15:02 10.5 C 7.57 g/m*3 10.5 C 0 km/h
1537 28-10-2009 18:27:02 10.2 C 7.42 g/m*3 10.2 C 0 km/h
1538 28-10-2009 18:39:01 10 C 7.42 g/m*3 10 C 0 km/h
1539 28-10-2009 18:51:02 9.7 C 7.56 g/m*3 9.7 C 0 km/h
1540 28-10-2009 19:03:01 9.6 C 7.51 g/m*3 9.6 C 0 km/h
1541 28-10-2009 19:15:01 9.3 C 7.46 g/m*3 9.3 C 0 km/h
1542 28-10-2009 19:27:02 9.2 C 7.5 g/m*3 9.2 C 0 km/h
1543 28-10-2009 19:39:01 9 C 7.41 g/m*3 9 C 0 km/h
1544 28-10-2009 19:51:02 8.9 C 7.53 g/m*3 8.9 C 0 km/h
1545 28-10-2009 20:03:02 8.6 C 7.3 g/m*3 8.6 C 0 km/h
1546 28-10-2009 20:15:02 8.4 C 7.3 g/m*3 8.4 C 0 km/h
1547 28-10-2009 20:27:02 8.2 C 7.2 g/m*3 8.2 C 0 km/h
1548 28-10-2009 20:39:03 8.1 C 7.24 g/m*3 8.1 C 0 km/h
1549 28-10-2009 20:51:02 8 C 7.19 g/m*3 8 C 0 km/h
1550 28-10-2009 21:03:02 7.8 C 7.18 g/m*3 7.8 C 0 km/h
Sensor: Nr:Datum:Temp:Abs-Feuchte:Windchill:Wind:
Aussen-T/F 1551 28-10-2009 21:15:02 7.6 C 7.09 g/m*3 7.6 C 0 km/h
1552 28-10-2009 21:27:02 7.5 C 7.04 g/m*3 7.5 C 0 km/h
1553 28-10-2009 21:39:01 7.3 C 7.03 g/m*3 7.3 C 0 km/h
1554 28-10-2009 21:51:01 7.1 C 6.86 g/m*3 7.1 C 0 km/h
1555 28-10-2009 22:04:02 7 C 6.9 g/m*3 7 C 0 km/h
1556 28-10-2009 22:16:02 6.9 C 6.93 g/m*3 6.9 C 0 km/h
1557 28-10-2009 22:28:02 7 C 6.9 g/m*3 7 C 0 km/h
1558 28-10-2009 22:40:02 7 C 6.97 g/m*3 7 C 0 km/h
1559 28-10-2009 22:52:02 6.6 C 6.87 g/m*3 6.6 C 0 km/h
1560 28-10-2009 23:04:03 6.7 C 6.91 g/m*3 6.7 C 0 km/h
1561 28-10-2009 23:16:03 6.3 C 6.74 g/m*3 6.3 C 0 km/h
1562 28-10-2009 23:28:03 6.3 C 6.74 g/m*3 6.3 C 0 km/h
1563 28-10-2009 23:40:03 6.2 C 6.69 g/m*3 6.2 C 0 km/h
1564 28-10-2009 23:52:03 5.9 C 6.63 g/m*3 5.9 C 0 km/h
1565 29-10-2009 00:04:03 5.8 C 6.59 g/m*3 5.8 C 0 km/h
1566 29-10-2009 00:16:03 5.8 C 6.59 g/m*3 5.8 C 0 km/h
1567 29-10-2009 00:28:03 5.7 C 6.55 g/m*3 5.7 C 0 km/h
1568 29-10-2009 00:40:03 5.8 C 6.59 g/m*3 5.8 C 0 km/h
1569 29-10-2009 00:52:03 5.8 C 6.66 g/m*3 5.8 C 0 km/h
1570 29-10-2009 01:04:03 5.7 C 6.62 g/m*3 5.7 C 0 km/h
1571 29-10-2009 01:16:03 5.7 C 6.62 g/m*3 5.7 C 0 km/h
1572 29-10-2009 01:28:03 5.5 C 6.53 g/m*3 5.5 C 0 km/h
1573 29-10-2009 01:40:03 5.6 C 6.65 g/m*3 5.6 C 0 km/h
1574 29-10-2009 01:52:03 5.7 C 6.69 g/m*3 5.7 C 0 km/h
1575 29-10-2009 02:04:03 5.7 C 6.69 g/m*3 5.7 C 0 km/h
Sensor: Nr:Datum:Temp:Abs-Feuchte:Windchill:Wind:
Aussen-T/F 1576 29-10-2009 02:16:03 5.7 C 6.76 g/m*3 5.7 C 0 km/h
1577 29-10-2009 02:28:03 5.8 C 6.81 g/m*3 5.8 C 0 km/h
1578 29-10-2009 02:40:03 5.9 C 6.85 g/m*3 5.9 C 0 km/h
1579 29-10-2009 02:52:03 5.9 C 6.85 g/m*3 5.9 C 0 km/h
1580 29-10-2009 03:04:04 5.9 C 6.85 g/m*3 5.9 C 0 km/h
1581 29-10-2009 03:16:04 5.9 C 6.85 g/m*3 5.9 C 0 km/h
1582 29-10-2009 03:28:04 5.7 C 6.76 g/m*3 5.7 C 0 km/h
1583 29-10-2009 03:40:04 5.6 C 6.72 g/m*3 5.6 C 0 km/h
1584 29-10-2009 03:52:04 5.6 C 6.72 g/m*3 5.6 C 0 km/h
1585 29-10-2009 04:04:04 5.5 C 6.67 g/m*3 5.5 C 0 km/h
1586 29-10-2009 04:16:04 5.6 C 6.72 g/m*3 5.6 C 0 km/h
1587 29-10-2009 04:28:04 5.5 C 6.67 g/m*3 5.5 C 0 km/h
1588 29-10-2009 04:40:04 5.4 C 6.63 g/m*3 5.4 C 0 km/h
1589 29-10-2009 04:52:04 5.4 C 6.63 g/m*3 5.4 C 0 km/h
1590 29-10-2009 05:04:04 5.5 C 6.67 g/m*3 5.5 C 0 km/h
1591 29-10-2009 05:16:04 5.5 C 6.67 g/m*3 5.5 C 0 km/h
1592 29-10-2009 05:28:04 5.5 C 6.67 g/m*3 5.5 C 0 km/h
1593 29-10-2009 05:40:04 5.7 C 6.76 g/m*3 5.7 C 0 km/h
1594 29-10-2009 05:52:04 5.6 C 6.72 g/m*3 5.6 C 0 km/h
1595 29-10-2009 06:04:04 5.5 C 6.67 g/m*3 5.5 C 0 km/h
1596 29-10-2009 06:16:04 5.5 C 6.67 g/m*3 5.5 C 0 km/h
1597 29-10-2009 06:28:04 5.5 C 6.67 g/m*3 5.5 C 0 km/h
1598 29-10-2009 06:40:04 5.7 C 6.76 g/m*3 5.7 C 0 km/h
1599 29-10-2009 06:52:04 5.7 C 6.76 g/m*3 5.7 C 0 km/h
1600 29-10-2009 07:04:02 5.6 C 6.72 g/m*3 5.6 C 0 km/h
Sensor: Nr:Datum:Temp:Abs-Feuchte:Windchill:Wind:
Aussen-T/F 1601 29-10-2009 07:16:02 5.6 C 6.65 g/m*3 5.6 C 0 km/h
1602 29-10-2009 07:28:02 5.7 C 6.69 g/m*3 5.7 C 0 km/h
1603 29-10-2009 07:40:02 5.9 C 6.78 g/m*3 5.9 C 0 km/h
1604 29-10-2009 07:52:02 6.1 C 6.87 g/m*3 6.1 C 0 km/h
1605 29-10-2009 08:04:02 6.1 C 6.79 g/m*3 6.1 C 0 km/h
1606 29-10-2009 08:16:02 6.2 C 6.84 g/m*3 6.2 C 0 km/h
1607 29-10-2009 08:28:02 6.3 C 6.81 g/m*3 6.3 C 0 km/h
1608 29-10-2009 08:40:01 6.4 C 6.85 g/m*3 6.4 C 0 km/h
1609 29-10-2009 08:52:02 6.5 C 6.9 g/m*3 6.5 C 0 km/h
1610 29-10-2009 09:04:01 6.8 C 6.96 g/m*3 6.8 C 0 km/h
1611 29-10-2009 09:16:02 7.1 C 7.02 g/m*3 7.1 C 0 km/h
1612 29-10-2009 09:28:03 7.5 C 7.2 g/m*3 7.5 C 0 km/h
1613 29-10-2009 09:40:01 7.7 C 7.22 g/m*3 7.7 C 0 km/h
1614 29-10-2009 09:52:02 8 C 7.11 g/m*3 8 C 0 km/h
1615 29-10-2009 10:04:02 8.1 C 7.07 g/m*3 8.1 C 0 km/h
1616 29-10-2009 10:16:02 8.3 C 7.08 g/m*3 8.3 C 0 km/h
1617 29-10-2009 10:28:02 8.5 C 7.09 g/m*3 8.5 C 0 km/h
1618 29-10-2009 10:40:02 8.9 C 7.27 g/m*3 8.9 C 0 km/h
1619 29-10-2009 10:52:02 9.4 C 7.33 g/m*3 9.4 C 0 km/h
1620 29-10-2009 11:04:01 9.7 C 7.28 g/m*3 9.7 C 0 km/h
1621 29-10-2009 11:16:02 10.1 C 7.28 g/m*3 10.1 C 0 km/h
1622 29-10-2009 11:28:02 10.4 C 7.32 g/m*3 10.4 C 0 km/h
1623 29-10-2009 11:40:02 10.5 C 7.18 g/m*3 10.5 C 0 km/h
1624 29-10-2009 11:52:02 10.5 C 7.18 g/m*3 10.5 C 0 km/h
1625 29-10-2009 12:04:01 10.7 C 7.27 g/m*3 10.7 C 0 km/h
Sensor: Nr:Datum:Temp:Abs-Feuchte:Windchill:Wind:
Aussen-T/F 1626 29-10-2009 12:16:01 10.9 C 7.36 g/m*3 10.9 C 0 km/h
1627 29-10-2009 12:28:01 11.1 C 7.45 g/m*3 11.1 C 0 km/h
1628 29-10-2009 12:40:02 11.1 C 7.45 g/m*3 11.1 C 0 km/h
1629 29-10-2009 12:52:02 11.1 C 7.55 g/m*3 11.1 C 0 km/h
1630 29-10-2009 13:04:01 11.4 C 7.8 g/m*3 11.4 C 0 km/h
1631 29-10-2009 13:16:02 11.6 C 7.9 g/m*3 11.6 C 0 km/h
1632 29-10-2009 13:28:02 11.6 C 7.8 g/m*3 11.6 C 0 km/h
1633 29-10-2009 13:40:02 11.9 C 7.94 g/m*3 11.9 C 0 km/h
1634 29-10-2009 13:52:01 12.1 C 7.94 g/m*3 12.1 C 0 km/h
1635 29-10-2009 14:04:02 12.1 C 7.94 g/m*3 12.1 C 0 km/h
1636 29-10-2009 14:16:01 12 C 7.89 g/m*3 12 C 0 km/h
1637 29-10-2009 14:28:01 11.9 C 7.94 g/m*3 11.9 C 0 km/h
1638 29-10-2009 14:40:02 11.8 C 8 g/m*3 11.8 C 0 km/h
1639 29-10-2009 14:52:02 11.9 C 8.05 g/m*3 11.9 C 0 km/h
1640 29-10-2009 15:04:02 12 C 8.1 g/m*3 12 C 0 km/h
1641 29-10-2009 15:16:01 12 C 8.1 g/m*3 12 C 0 km/h
1642 29-10-2009 15:28:01 12 C 8.1 g/m*3 12 C 0 km/h
1643 29-10-2009 15:40:02 11.8 C 8.1 g/m*3 11.8 C 0 km/h
1644 29-10-2009 15:52:02 11.7 C 8.16 g/m*3 11.7 C 0 km/h
1645 29-10-2009 16:04:02 11.7 C 8.16 g/m*3 11.7 C 0 km/h
1646 29-10-2009 16:16:02 11.7 C 8.16 g/m*3 11.7 C 0 km/h
1647 29-10-2009 16:28:02 11.5 C 8.16 g/m*3 11.5 C 0 km/h
1648 29-10-2009 16:40:02 11.5 C 8.16 g/m*3 11.5 C 0 km/h
1649 29-10-2009 16:52:02 11.2 C 8.01 g/m*3 11.2 C 0 km/h
1650 29-10-2009 17:04:03 11.1 C 8.06 g/m*3 11.1 C 0 km/h
Sensor: Nr:Datum:Temp:Abs-Feuchte:Windchill:Wind:
Aussen-T/F 1651 29-10-2009 17:16:02 11 C 8.11 g/m*3 11 C 0 km/h
1652 29-10-2009 17:28:02 11 C 8.11 g/m*3 11 C 0 km/h
1653 29-10-2009 17:40:02 10.9 C 8.16 g/m*3 10.9 C 0 km/h
1654 29-10-2009 17:52:01 10.9 C 8.26 g/m*3 10.9 C 0 km/h
1655 29-10-2009 18:04:02 10.8 C 8.3 g/m*3 10.8 C 0 km/h
1656 29-10-2009 18:16:01 10.8 C 8.3 g/m*3 10.8 C 0 km/h
1657 29-10-2009 18:28:01 10.7 C 8.25 g/m*3 10.7 C 0 km/h
1658 29-10-2009 18:40:02 10.7 C 8.25 g/m*3 10.7 C 0 km/h
1659 29-10-2009 18:52:01 10.5 C 8.24 g/m*3 10.5 C 0 km/h
1660 29-10-2009 19:04:02 10.5 C 8.24 g/m*3 10.5 C 0 km/h
1661 29-10-2009 19:16:01 10.5 C 8.24 g/m*3 10.5 C 0 km/h
1662 29-10-2009 19:28:01 10.4 C 8.19 g/m*3 10.4 C 0 km/h
1663 29-10-2009 19:40:02 10.3 C 8.24 g/m*3 10.3 C 0 km/h
1664 29-10-2009 19:52:01 10.3 C 8.24 g/m*3 10.3 C 0 km/h
1665 29-10-2009 20:04:02 10.4 C 8.38 g/m*3 10.4 C 0 km/h
1666 29-10-2009 20:16:01 10.4 C 8.38 g/m*3 10.4 C 0 km/h
1667 29-10-2009 20:28:01 10.5 C 8.44 g/m*3 10.5 C 0 km/h
1668 29-10-2009 20:40:02 10.4 C 8.38 g/m*3 10.4 C 0 km/h
1669 29-10-2009 20:52:01 10.3 C 8.33 g/m*3 10.3 C 0 km/h
1670 29-10-2009 21:04:02 10.2 C 8.28 g/m*3 10.2 C 0 km/h
1671 29-10-2009 21:16:02 10.1 C 8.23 g/m*3 10.1 C 0 km/h
1672 29-10-2009 21:28:03 10.1 C 8.23 g/m*3 10.1 C 0 km/h
1673 29-10-2009 21:40:01 10.1 C 8.32 g/m*3 10.1 C 0 km/h
1674 29-10-2009 21:52:02 10.1 C 8.32 g/m*3 10.1 C 0 km/h
1675 29-10-2009 22:04:02 10.1 C 8.32 g/m*3 10.1 C 0 km/h
Sensor: Nr:Datum:Temp:Abs-Feuchte:Windchill:Wind:
Aussen-T/F 1676 29-10-2009 22:17:02 10.1 C 8.32 g/m*3 10.1 C 0 km/h
1677 29-10-2009 22:29:03 10.1 C 8.32 g/m*3 10.1 C 0 km/h
1678 29-10-2009 22:41:03 10.1 C 8.32 g/m*3 10.1 C 0 km/h
1679 29-10-2009 22:53:03 10 C 8.27 g/m*3 10 C 0 km/h
1680 29-10-2009 23:05:03 10 C 8.27 g/m*3 10 C 0 km/h
1681 29-10-2009 23:17:03 10 C 8.27 g/m*3 10 C 0 km/h
1682 29-10-2009 23:29:03 10 C 8.27 g/m*3 10 C 0 km/h
1683 29-10-2009 23:41:03 9.9 C 8.31 g/m*3 9.9 C 0 km/h
1684 29-10-2009 23:53:03 9.8 C 8.26 g/m*3 9.8 C 0 km/h
1685 30-10-2009 00:05:03 9.8 C 8.26 g/m*3 9.8 C 0 km/h
1686 30-10-2009 00:17:03 9.7 C 8.2 g/m*3 9.7 C 0 km/h
1687 30-10-2009 00:29:03 9.5 C 8.1 g/m*3 9.5 C 0 km/h
1688 30-10-2009 00:41:03 9.5 C 8.19 g/m*3 9.5 C 0 km/h
1689 30-10-2009 00:53:03 9.6 C 8.24 g/m*3 9.6 C 0 km/h
1690 30-10-2009 01:05:03 9.7 C 8.3 g/m*3 9.7 C 0 km/h
1691 30-10-2009 01:17:03 9.7 C 8.39 g/m*3 9.7 C 0 km/h
1692 30-10-2009 01:29:03 9.6 C 8.34 g/m*3 9.6 C 0 km/h
1693 30-10-2009 01:41:03 9.7 C 8.39 g/m*3 9.7 C 0 km/h
1694 30-10-2009 01:53:03 9.7 C 8.39 g/m*3 9.7 C 0 km/h
1695 30-10-2009 02:05:03 9.6 C 8.34 g/m*3 9.6 C 0 km/h
1696 30-10-2009 02:17:03 9.7 C 8.39 g/m*3 9.7 C 0 km/h
1697 30-10-2009 02:29:03 9.7 C 8.39 g/m*3 9.7 C 0 km/h
1698 30-10-2009 02:41:04 9.7 C 8.39 g/m*3 9.7 C 0 km/h
1699 30-10-2009 02:53:04 9.8 C 8.44 g/m*3 9.8 C 0 km/h
1700 30-10-2009 03:05:04 9.8 C 8.44 g/m*3 9.8 C 0 km/h
Sensor: Nr:Datum:Temp:Abs-Feuchte:Windchill:Wind:
Aussen-T/F 1701 30-10-2009 03:17:04 9.8 C 8.44 g/m*3 9.8 C 0 km/h
1702 30-10-2009 03:29:04 9.9 C 8.5 g/m*3 9.9 C 0 km/h
1703 30-10-2009 03:41:04 9.9 C 8.5 g/m*3 9.9 C 0 km/h
1704 30-10-2009 03:53:04 9.9 C 8.5 g/m*3 9.9 C 0 km/h
1705 30-10-2009 04:05:04 9.9 C 8.5 g/m*3 9.9 C 0 km/h
1706 30-10-2009 04:17:04 9.8 C 8.44 g/m*3 9.8 C 0 km/h
1707 30-10-2009 04:29:04 9.8 C 8.44 g/m*3 9.8 C 0 km/h
1708 30-10-2009 04:41:04 9.7 C 8.39 g/m*3 9.7 C 0 km/h
1709 30-10-2009 04:53:04 9.7 C 8.39 g/m*3 9.7 C 0 km/h
1710 30-10-2009 05:05:04 9.8 C 8.44 g/m*3 9.8 C 0 km/h
1711 30-10-2009 05:17:04 9.7 C 8.39 g/m*3 9.7 C 0 km/h
1712 30-10-2009 05:29:04 9.7 C 8.39 g/m*3 9.7 C 0 km/h
1713 30-10-2009 05:41:04 9.5 C 8.28 g/m*3 9.5 C 0 km/h
1714 30-10-2009 05:53:04 9.3 C 8.27 g/m*3 9.3 C 0 km/h
1715 30-10-2009 06:05:04 9.1 C 8.16 g/m*3 9.1 C 0 km/h
1716 30-10-2009 06:17:04 9 C 8.11 g/m*3 9 C 0 km/h
1717 30-10-2009 06:29:04 8.6 C 7.99 g/m*3 8.6 C 0 km/h
1718 30-10-2009 06:41:04 8.4 C 7.89 g/m*3 8.4 C 0 km/h
1719 30-10-2009 06:53:05 8.2 C 7.79 g/m*3 8.2 C 0 km/h
1720 30-10-2009 07:05:02 8 C 7.69 g/m*3 8 C 0 km/h
1721 30-10-2009 07:17:02 7.9 C 7.72 g/m*3 7.9 C 0 km/h
1722 30-10-2009 07:29:03 8 C 7.69 g/m*3 8 C 0 km/h
1723 30-10-2009 07:41:02 8.2 C 7.87 g/m*3 8.2 C 0 km/h
1724 30-10-2009 07:53:02 8.4 C 7.97 g/m*3 8.4 C 0 km/h
1725 30-10-2009 08:05:02 8.6 C 8.16 g/m*3 8.6 C 0 km/h
Sensor: Nr:Datum:Temp:Abs-Feuchte:Windchill:Wind:
Aussen-T/F 1726 30-10-2009 08:17:02 8.6 C 8.16 g/m*3 8.6 C 0 km/h
1727 30-10-2009 08:29:02 8.3 C 7.92 g/m*3 8.3 C 0 km/h
1728 30-10-2009 08:41:02 8.2 C 7.87 g/m*3 8.2 C 0 km/h
1729 30-10-2009 08:53:01 8.3 C 8.01 g/m*3 8.3 C 0 km/h
1730 30-10-2009 09:05:02 8.5 C 8.11 g/m*3 8.5 C 0 km/h
1731 30-10-2009 09:17:01 8.7 C 8.13 g/m*3 8.7 C 0 km/h
1732 30-10-2009 09:29:01 8.8 C 8.18 g/m*3 8.8 C 0 km/h
1733 30-10-2009 09:41:02 9.1 C 8.25 g/m*3 9.1 C 0 km/h
1734 30-10-2009 09:53:02 9.3 C 8.36 g/m*3 9.3 C 0 km/h
1735 30-10-2009 10:05:02 9.6 C 8.52 g/m*3 9.6 C 0 km/h
1736 30-10-2009 10:17:01 10 C 8.55 g/m*3 10 C 0 km/h
1737 30-10-2009 10:29:01 10.2 C 8.28 g/m*3 10.2 C 0 km/h
1738 30-10-2009 10:41:02 10.4 C 8 g/m*3 10.4 C 0 km/h
1739 30-10-2009 10:53:02 10.5 C 7.66 g/m*3 10.5 C 0 km/h
1740 30-10-2009 11:05:02 10.8 C 7.51 g/m*3 10.8 C 0 km/h
1741 30-10-2009 11:17:02 11.1 C 7.55 g/m*3 11.1 C 0 km/h
1742 30-10-2009 11:29:02 11.9 C 7.63 g/m*3 11.9 C 0 km/h
1743 30-10-2009 11:41:02 12.2 C 7.45 g/m*3 12.2 C 0 km/h
1744 30-10-2009 11:53:02 12.8 C 7.39 g/m*3 12.8 C 0 km/h
1745 30-10-2009 12:05:02 13.1 C 7.19 g/m*3 13.1 C 0 km/h
1746 30-10-2009 12:17:02 13 C 7.14 g/m*3 13 C 0 km/h
1747 30-10-2009 12:29:02 13.4 C 7.44 g/m*3 13.4 C 0 km/h
1748 30-10-2009 12:41:02 13.7 C 7.22 g/m*3 13.7 C 0 km/h
1749 30-10-2009 12:53:01 13.9 C 7.19 g/m*3 13.9 C 0 km/h
1750 30-10-2009 13:05:01 14.2 C 6.96 g/m*3 14.2 C 0 km/h
Sensor: Nr:Datum:Temp:Abs-Feuchte:Windchill:Wind:
Aussen-T/F 1751 30-10-2009 13:17:01 14.5 C 7.09 g/m*3 14.5 C 0 km/h
1752 30-10-2009 13:29:01 14.7 C 7.3 g/m*3 14.7 C 0 km/h
1753 30-10-2009 13:41:01 15.1 C 7.48 g/m*3 15.1 C 0 km/h
1754 30-10-2009 13:53:01 15.9 C 7.58 g/m*3 15.9 C 0 km/h
1755 30-10-2009 14:05:01 16.3 C 7.35 g/m*3 16.3 C 0 km/h
1756 30-10-2009 14:17:02 16.8 C 7.01 g/m*3 16.8 C 0 km/h
1757 30-10-2009 14:29:02 17.2 C 6.59 g/m*3 17.2 C 0 km/h
1758 30-10-2009 14:41:01 17.5 C 6.26 g/m*3 17.5 C 0 km/h
1759 30-10-2009 14:53:01 17.4 C 5.93 g/m*3 17.4 C 0 km/h
1760 30-10-2009 15:05:01 17.3 C 5.89 g/m*3 17.3 C 0 km/h
1761 30-10-2009 15:17:02 17.4 C 5.78 g/m*3 17.4 C 0 km/h
1762 30-10-2009 15:29:02 17.2 C 5.56 g/m*3 17.2 C 0 km/h
1763 30-10-2009 15:41:01 16.9 C 5.61 g/m*3 16.9 C 0 km/h
1764 30-10-2009 15:53:01 17.1 C 5.82 g/m*3 17.1 C 0 km/h
1765 30-10-2009 16:05:01 16.9 C 5.9 g/m*3 16.9 C 0 km/h
1766 30-10-2009 16:17:02 16.7 C 6.11 g/m*3 16.7 C 0 km/h
1767 30-10-2009 16:29:02 15.9 C 6.09 g/m*3 15.9 C 0 km/h
1768 30-10-2009 16:41:01 14.7 C 6.3 g/m*3 14.7 C 0 km/h
1769 30-10-2009 16:53:02 13.7 C 6.39 g/m*3 13.7 C 0 km/h
1770 30-10-2009 17:05:01 13 C 6.46 g/m*3 13 C 0 km/h
1771 30-10-2009 17:17:02 12.3 C 6.62 g/m*3 12.3 C 0 km/h
1772 30-10-2009 17:29:02 11.8 C 6.63 g/m*3 11.8 C 0 km/h
1773 30-10-2009 17:41:01 11.3 C 6.63 g/m*3 11.3 C 0 km/h
1774 30-10-2009 17:53:02 10.8 C 6.72 g/m*3 10.8 C 0 km/h
1775 30-10-2009 18:05:02 10.5 C 6.69 g/m*3 10.5 C 0 km/h
Sensor: Nr:Datum:Temp:Abs-Feuchte:Windchill:Wind:
Aussen-T/F 1776 30-10-2009 18:17:02 10.4 C 6.84 g/m*3 10.4 C 0 km/h
1777 30-10-2009 18:29:03 10.2 C 6.85 g/m*3 10.2 C 0 km/h
1778 30-10-2009 18:41:02 10.1 C 6.9 g/m*3 10.1 C 0 km/h
1779 30-10-2009 18:53:02 10 C 6.95 g/m*3 10 C 0 km/h
1780 30-10-2009 19:05:01 9.8 C 7.05 g/m*3 9.8 C 0 km/h
1781 30-10-2009 19:17:02 9.6 C 6.96 g/m*3 9.6 C 0 km/h
1782 30-10-2009 19:29:02 9.5 C 7.01 g/m*3 9.5 C 0 km/h
1783 30-10-2009 19:41:02 9.3 C 6.92 g/m*3 9.3 C 0 km/h
1784 30-10-2009 19:53:01 9 C 6.88 g/m*3 9 C 0 km/h
1785 30-10-2009 20:05:01 8.9 C 6.92 g/m*3 8.9 C 0 km/h
1786 30-10-2009 20:17:01 8.6 C 6.87 g/m*3 8.6 C 0 km/h
1787 30-10-2009 20:29:01 8.4 C 6.79 g/m*3 8.4 C 0 km/h
1788 30-10-2009 20:41:02 8.2 C 6.78 g/m*3 8.2 C 0 km/h
1789 30-10-2009 20:53:02 8.1 C 6.74 g/m*3 8.1 C 0 km/h
1790 30-10-2009 21:05:02 7.9 C 6.82 g/m*3 7.9 C 0 km/h
1791 30-10-2009 21:17:01 7.6 C 6.69 g/m*3 7.6 C 0 km/h
1792 30-10-2009 21:29:01 7.5 C 6.72 g/m*3 7.5 C 0 km/h
1793 30-10-2009 21:41:02 7.3 C 6.64 g/m*3 7.3 C 0 km/h
1794 30-10-2009 21:53:02 7.3 C 6.64 g/m*3 7.3 C 0 km/h
1795 30-10-2009 22:06:04 7.3 C 6.72 g/m*3 7.3 C 0 km/h
1796 30-10-2009 22:18:04 7.2 C 6.59 g/m*3 7.2 C 0 km/h
1797 30-10-2009 22:30:04 7 C 6.51 g/m*3 7 C 0 km/h
1798 30-10-2009 22:42:04 6.9 C 6.54 g/m*3 6.9 C 0 km/h
1799 30-10-2009 22:54:04 6.6 C 6.42 g/m*3 6.6 C 0 km/h
1800 30-10-2009 23:06:04 6.5 C 6.37 g/m*3 6.5 C 0 km/h
Sensor: Nr:Datum:Temp:Abs-Feuchte:Windchill:Wind:
Aussen-T/F 1801 30-10-2009 23:18:04 6.4 C 6.41 g/m*3 6.4 C 0 km/h
1802 30-10-2009 23:30:04 6.2 C 6.32 g/m*3 6.2 C 0 km/h
1803 30-10-2009 23:42:04 6 C 6.24 g/m*3 6 C 0 km/h
1804 30-10-2009 23:54:04 6 C 6.24 g/m*3 6 C 0 km/h
1805 31-10-2009 00:06:04 5.9 C 6.27 g/m*3 5.9 C 0 km/h
1806 31-10-2009 00:18:04 5.8 C 6.3 g/m*3 5.8 C 0 km/h
1807 31-10-2009 00:30:04 5.6 C 6.22 g/m*3 5.6 C 0 km/h
1808 31-10-2009 00:42:04 5.5 C 6.18 g/m*3 5.5 C 0 km/h
1809 31-10-2009 00:54:04 5.6 C 6.29 g/m*3 5.6 C 0 km/h
1810 31-10-2009 01:06:04 5.5 C 6.25 g/m*3 5.5 C 0 km/h
1811 31-10-2009 01:18:04 5.3 C 6.17 g/m*3 5.3 C 0 km/h
1812 31-10-2009 01:30:04 5.1 C 6.09 g/m*3 5.1 C 0 km/h
1813 31-10-2009 01:42:05 4.9 C 6.08 g/m*3 4.9 C 0 km/h
1814 31-10-2009 01:54:05 4.8 C 6.04 g/m*3 4.8 C 0 km/h
1815 31-10-2009 02:06:05 4.6 C 5.96 g/m*3 4.6 C 0 km/h
1816 31-10-2009 02:18:05 4.6 C 5.96 g/m*3 4.6 C 0 km/h
1817 31-10-2009 02:30:05 4.6 C 5.96 g/m*3 4.6 C 0 km/h
1818 31-10-2009 02:42:05 4.3 C 5.84 g/m*3 4.3 C 0 km/h
1819 31-10-2009 02:54:05 4.2 C 5.8 g/m*3 4.2 C 0 km/h
1820 31-10-2009 03:06:05 4.2 C 5.86 g/m*3 4.2 C 0 km/h
1821 31-10-2009 03:18:05 4.1 C 5.82 g/m*3 4.1 C 0 km/h
1822 31-10-2009 03:30:05 3.9 C 5.75 g/m*3 3.9 C 0 km/h
1823 31-10-2009 03:42:05 3.8 C 5.77 g/m*3 3.8 C 0 km/h
1824 31-10-2009 03:54:05 3.7 C 5.73 g/m*3 3.7 C 0 km/h
1825 31-10-2009 04:06:05 3.7 C 5.73 g/m*3 3.7 C 0 km/h
Sensor: Nr:Datum:Temp:Abs-Feuchte:Windchill:Wind:
Aussen-T/F 1826 31-10-2009 04:18:05 3.7 C 5.73 g/m*3 3.7 C 0 km/h
1827 31-10-2009 04:30:05 3.7 C 5.73 g/m*3 3.7 C 0 km/h
1828 31-10-2009 04:42:05 3.7 C 5.73 g/m*3 3.7 C 0 km/h
1829 31-10-2009 04:54:05 3.8 C 5.77 g/m*3 3.8 C 0 km/h
1830 31-10-2009 05:06:05 3.9 C 5.81 g/m*3 3.9 C 0 km/h
1831 31-10-2009 05:18:05 3.8 C 5.83 g/m*3 3.8 C 0 km/h
1832 31-10-2009 05:30:05 3.8 C 5.83 g/m*3 3.8 C 0 km/h
1833 31-10-2009 05:42:06 3.8 C 5.83 g/m*3 3.8 C 0 km/h
1834 31-10-2009 05:54:06 3.8 C 5.83 g/m*3 3.8 C 0 km/h
1835 31-10-2009 06:06:06 3.6 C 5.76 g/m*3 3.6 C 0 km/h
1836 31-10-2009 06:18:06 3.6 C 5.76 g/m*3 3.6 C 0 km/h
1837 31-10-2009 06:30:06 3.6 C 5.82 g/m*3 3.6 C 0 km/h
1838 31-10-2009 06:42:06 3.5 C 5.78 g/m*3 3.5 C 0 km/h
1839 31-10-2009 06:54:06 3.6 C 5.82 g/m*3 3.6 C 0 km/h
1840 31-10-2009 07:06:06 3.6 C 5.88 g/m*3 3.6 C 0 km/h
1841 31-10-2009 07:18:06 3.7 C 5.92 g/m*3 3.7 C 0 km/h
1842 31-10-2009 07:30:06 3.7 C 5.92 g/m*3 3.7 C 0 km/h
1843 31-10-2009 07:42:06 3.8 C 5.96 g/m*3 3.8 C 0 km/h
1844 31-10-2009 07:54:06 3.9 C 6 g/m*3 3.9 C 0 km/h
1845 31-10-2009 08:06:04 4 C 6.04 g/m*3 4 C 0 km/h
1846 31-10-2009 08:18:03 4.1 C 6.08 g/m*3 4.1 C 0 km/h
1847 31-10-2009 08:30:03 4.3 C 6.16 g/m*3 4.3 C 0 km/h
1848 31-10-2009 08:42:03 4.3 C 6.16 g/m*3 4.3 C 0 km/h
1849 31-10-2009 08:54:02 4.5 C 6.24 g/m*3 4.5 C 0 km/h
1850 31-10-2009 09:06:01 4.7 C 6.33 g/m*3 4.7 C 0 km/h
Sensor: Nr:Datum:Temp:Abs-Feuchte:Windchill:Wind:
Aussen-T/F 1851 31-10-2009 09:18:02 4.9 C 6.41 g/m*3 4.9 C 0 km/h
1852 31-10-2009 09:30:03 5.1 C 6.43 g/m*3 5.1 C 0 km/h
1853 31-10-2009 09:42:01 5.4 C 6.49 g/m*3 5.4 C 0 km/h
1854 31-10-2009 09:54:02 6 C 6.75 g/m*3 6 C 0 km/h
1855 31-10-2009 10:06:01 6.5 C 6.9 g/m*3 6.5 C 0 km/h
1856 31-10-2009 10:18:01 6.7 C 6.91 g/m*3 6.7 C 0 km/h
1857 31-10-2009 10:30:01 7 C 6.74 g/m*3 7 C 0 km/h
1858 31-10-2009 10:42:02 7.3 C 6.64 g/m*3 7.3 C 0 km/h
1859 31-10-2009 10:54:02 7.6 C 6.53 g/m*3 7.6 C 0 km/h
1860 31-10-2009 11:06:02 8 C 6.28 g/m*3 8 C 0 km/h
1861 31-10-2009 11:18:02 8.5 C 6.49 g/m*3 8.5 C 0 km/h
1862 31-10-2009 11:30:02 8.7 C 6.4 g/m*3 8.7 C 0 km/h
1863 31-10-2009 11:42:03 9 C 6.26 g/m*3 9 C 0 km/h
1864 31-10-2009 11:54:02 9.5 C 6.37 g/m*3 9.5 C 0 km/h
1865 31-10-2009 12:06:03 9.5 C 5.64 g/m*3 9.5 C 0 km/h
1866 31-10-2009 12:18:02 9.7 C 5.62 g/m*3 9.7 C 0 km/h
1867 31-10-2009 12:30:02 9.7 C 5.44 g/m*3 9.7 C 0 km/h
1868 31-10-2009 12:42:03 10.2 C 5.61 g/m*3 10.2 C 0 km/h
1869 31-10-2009 12:54:02 10.6 C 5.37 g/m*3 10.6 C 0 km/h
1870 31-10-2009 13:06:03 10.9 C 5.27 g/m*3 10.9 C 0 km/h
1871 31-10-2009 13:18:02 11.1 C 5.14 g/m*3 11.1 C 0 km/h
1872 31-10-2009 13:30:02 11.2 C 4.87 g/m*3 11.2 C 0 km/h
1873 31-10-2009 13:42:02 11.9 C 5.08 g/m*3 11.9 C 0 km/h
1874 31-10-2009 13:54:02 12.4 C 4.92 g/m*3 12.4 C 0 km/h
1875 31-10-2009 14:06:01 12.5 C 4.73 g/m*3 12.5 C 0 km/h
Sensor: Nr:Datum:Temp:Abs-Feuchte:Windchill:Wind:
Aussen-T/F 1876 31-10-2009 14:18:02 13.2 C 4.59 g/m*3 13.2 C 0 km/h
1877 31-10-2009 14:30:02 12.7 C 4.56 g/m*3 12.7 C 0 km/h
1878 31-10-2009 14:42:02 12.9 C 4.62 g/m*3 12.9 C 0 km/h
1879 31-10-2009 14:54:02 13.1 C 4.45 g/m*3 13.1 C 0 km/h
1880 31-10-2009 15:06:01 12.7 C 4.56 g/m*3 12.7 C 0 km/h
1881 31-10-2009 15:18:02 13 C 4.54 g/m*3 13 C 0 km/h
1882 31-10-2009 15:30:02 13.5 C 4.44 g/m*3 13.5 C 0 km/h
1883 31-10-2009 15:42:01 13.8 C 4.65 g/m*3 13.8 C 0 km/h
1884 31-10-2009 15:54:02 12.8 C 4.37 g/m*3 12.8 C 0 km/h
1885 31-10-2009 16:06:02 12.5 C 4.4 g/m*3 12.5 C 0 km/h
1886 31-10-2009 16:18:02 12.3 C 4.45 g/m*3 12.3 C 0 km/h
1887 31-10-2009 16:30:02 11.7 C 4.81 g/m*3 11.7 C 0 km/h
1888 31-10-2009 16:42:03 10.8 C 4.74 g/m*3 10.8 C 0 km/h
1889 31-10-2009 16:54:02 10.1 C 4.63 g/m*3 10.1 C 0 km/h
1890 31-10-2009 17:06:02 9.6 C 4.76 g/m*3 9.6 C 0 km/h
1891 31-10-2009 17:18:02 9.2 C 4.73 g/m*3 9.2 C 0 km/h
1892 31-10-2009 17:30:02 9.1 C 4.79 g/m*3 9.1 C 0 km/h
1893 31-10-2009 17:42:02 8.9 C 4.82 g/m*3 8.9 C 0 km/h
1894 31-10-2009 17:54:02 8.6 C 4.9 g/m*3 8.6 C 0 km/h
1895 31-10-2009 18:06:02 8.6 C 4.98 g/m*3 8.6 C 0 km/h
1896 31-10-2009 18:18:02 8.5 C 5.04 g/m*3 8.5 C 0 km/h
1897 31-10-2009 18:30:02 8.3 C 5.06 g/m*3 8.3 C 0 km/h
1898 31-10-2009 18:42:02 7.9 C 5.17 g/m*3 7.9 C 0 km/h
1899 31-10-2009 18:54:01 7.6 C 5.24 g/m*3 7.6 C 0 km/h
1900 31-10-2009 19:06:02 7.3 C 5.21 g/m*3 7.3 C 0 km/h
Sensor: Nr:Datum:Temp:Abs-Feuchte:Windchill:Wind:
Aussen-T/F 1901 31-10-2009 19:18:01 7 C 5.27 g/m*3 7 C 0 km/h
1902 31-10-2009 19:30:01 6.8 C 5.43 g/m*3 6.8 C 0 km/h
1903 31-10-2009 19:42:01 6.6 C 5.36 g/m*3 6.6 C 0 km/h
1904 31-10-2009 19:54:01 6.4 C 5.36 g/m*3 6.4 C 0 km/h
1905 31-10-2009 20:06:02 6.3 C 5.48 g/m*3 6.3 C 0 km/h
1906 31-10-2009 20:18:01 6.3 C 5.48 g/m*3 6.3 C 0 km/h
1907 31-10-2009 20:30:01 6.4 C 5.59 g/m*3 6.4 C 0 km/h
1908 31-10-2009 20:42:02 6.7 C 5.7 g/m*3 6.7 C 0 km/h
1909 31-10-2009 20:54:01 6.8 C 5.66 g/m*3 6.8 C 0 km/h
1910 31-10-2009 21:06:01 6.9 C 5.7 g/m*3 6.9 C 0 km/h
1911 31-10-2009 21:18:02 6.9 C 5.7 g/m*3 6.9 C 0 km/h
1912 31-10-2009 21:30:02 6.7 C 5.62 g/m*3 6.7 C 0 km/h
1913 31-10-2009 21:42:30 6.6 C 5.66 g/m*3 6.6 C 0 km/h
1914 31-10-2009 21:54:30 6.7 C 5.7 g/m*3 6.7 C 0 km/h
1915 31-10-2009 22:06:30 6.7 C 5.7 g/m*3 6.7 C 0 km/h
1916 31-10-2009 22:18:30 6.6 C 5.66 g/m*3 6.6 C 0 km/h
1917 31-10-2009 22:30:30 6.5 C 5.62 g/m*3 6.5 C 0 km/h
1918 31-10-2009 22:42:30 6.7 C 5.77 g/m*3 6.7 C 0 km/h
1919 31-10-2009 22:54:30 6.7 C 5.77 g/m*3 6.7 C 0 km/h
1920 31-10-2009 23:06:30 6.7 C 5.77 g/m*3 6.7 C 0 km/h
1921 31-10-2009 23:18:00 6.7 C 5.77 g/m*3 6.7 C 0 km/h
1922 31-10-2009 23:30:00 6.6 C 5.74 g/m*3 6.6 C 0 km/h
1923 31-10-2009 23:42:01 6.4 C 5.66 g/m*3 6.4 C 0 km/h
1924 31-10-2009 23:54:02 6.2 C 5.59 g/m*3 6.2 C 0 km/h
1925 01-11-2009 00:06:02 6.1 C 5.63 g/m*3 6.1 C 0 km/h
Sensor: Nr:Datum:Temp:Abs-Feuchte:Windchill:Wind:
Aussen-T/F 1926 01-11-2009 00:18:02 6.1 C 5.7 g/m*3 6.1 C 0 km/h
1927 01-11-2009 00:30:02 6 C 5.66 g/m*3 6 C 0 km/h
1928 01-11-2009 00:42:02 5.9 C 5.77 g/m*3 5.9 C 0 km/h
1929 01-11-2009 00:54:02 5.7 C 5.76 g/m*3 5.7 C 0 km/h
1930 01-11-2009 01:06:02 5.7 C 5.76 g/m*3 5.7 C 0 km/h
1931 01-11-2009 01:18:02 5.7 C 5.84 g/m*3 5.7 C 0 km/h
1932 01-11-2009 01:30:02 5.7 C 5.84 g/m*3 5.7 C 0 km/h
1933 01-11-2009 01:42:02 5.6 C 5.8 g/m*3 5.6 C 0 km/h
1934 01-11-2009 01:54:02 5.4 C 5.72 g/m*3 5.4 C 0 km/h
1935 01-11-2009 02:06:02 5.3 C 5.75 g/m*3 5.3 C 0 km/h
1936 01-11-2009 02:18:02 5.1 C 5.68 g/m*3 5.1 C 0 km/h
1937 01-11-2009 02:30:03 5.1 C 5.75 g/m*3 5.1 C 0 km/h
1938 01-11-2009 02:42:02 5 C 5.78 g/m*3 5 C 0 km/h
1939 01-11-2009 02:55:04 5 C 5.78 g/m*3 5 C 0 km/h
1940 01-11-2009 03:07:04 5.2 C 5.92 g/m*3 5.2 C 0 km/h
1941 01-11-2009 03:19:03 5.4 C 6.07 g/m*3 5.4 C 0 km/h
1942 01-11-2009 03:31:02 5.7 C 6.19 g/m*3 5.7 C 0 km/h
1943 01-11-2009 03:43:02 5.7 C 6.19 g/m*3 5.7 C 0 km/h
1944 01-11-2009 03:55:02 5.6 C 6.08 g/m*3 5.6 C 0 km/h
1945 01-11-2009 04:07:02 5.5 C 6.04 g/m*3 5.5 C 0 km/h
1946 01-11-2009 04:19:03 5.5 C 6.04 g/m*3 5.5 C 0 km/h
1947 01-11-2009 04:31:02 5.7 C 6.19 g/m*3 5.7 C 0 km/h
1948 01-11-2009 04:43:02 5.8 C 6.23 g/m*3 5.8 C 0 km/h
1949 01-11-2009 04:55:02 5.9 C 6.27 g/m*3 5.9 C 0 km/h
1950 01-11-2009 05:07:02 5.9 C 6.2 g/m*3 5.9 C 0 km/h
Sensor: Nr:Datum:Temp:Abs-Feuchte:Windchill:Wind:
Aussen-T/F 1951 01-11-2009 05:19:03 6 C 6.17 g/m*3 6 C 0 km/h
1952 01-11-2009 05:31:02 6.1 C 6.21 g/m*3 6.1 C 0 km/h
1953 01-11-2009 05:43:02 6.3 C 6.29 g/m*3 6.3 C 0 km/h
1954 01-11-2009 05:55:03 6.2 C 6.25 g/m*3 6.2 C 0 km/h
1955 01-11-2009 06:07:02 6.4 C 6.33 g/m*3 6.4 C 0 km/h
1956 01-11-2009 06:19:02 6.6 C 6.42 g/m*3 6.6 C 0 km/h
1957 01-11-2009 06:31:02 6.7 C 6.38 g/m*3 6.7 C 0 km/h
1958 01-11-2009 06:43:02 6.8 C 6.42 g/m*3 6.8 C 0 km/h
1959 01-11-2009 06:55:02 6.8 C 6.42 g/m*3 6.8 C 0 km/h
1960 01-11-2009 07:07:02 6.8 C 6.35 g/m*3 6.8 C 0 km/h
1961 01-11-2009 07:19:02 6.6 C 6.27 g/m*3 6.6 C 0 km/h
1962 01-11-2009 07:31:02 6.7 C 6.31 g/m*3 6.7 C 0 km/h
1963 01-11-2009 07:43:02 6.9 C 6.47 g/m*3 6.9 C 0 km/h
1964 01-11-2009 07:55:02 6.9 C 6.39 g/m*3 6.9 C 0 km/h
1965 01-11-2009 08:07:01 7.2 C 6.44 g/m*3 7.2 C 0 km/h
1966 01-11-2009 08:19:01 7.5 C 6.48 g/m*3 7.5 C 0 km/h
1967 01-11-2009 08:31:02 7.9 C 6.49 g/m*3 7.9 C 0 km/h
1968 01-11-2009 08:43:02 8.2 C 6.28 g/m*3 8.2 C 0 km/h
1969 01-11-2009 08:55:02 8.3 C 6.15 g/m*3 8.3 C 0 km/h
1970 01-11-2009 09:07:03 8.3 C 6.07 g/m*3 8.3 C 0 km/h
1971 01-11-2009 09:19:02 8.5 C 6.06 g/m*3 8.5 C 0 km/h
1972 01-11-2009 09:31:02 8.8 C 6.18 g/m*3 8.8 C 0 km/h
1973 01-11-2009 09:43:02 9.1 C 6.21 g/m*3 9.1 C 0 km/h
1974 01-11-2009 09:55:02 9.3 C 6.2 g/m*3 9.3 C 0 km/h
1975 01-11-2009 10:07:02 9.4 C 6.06 g/m*3 9.4 C 0 km/h
Sensor: Nr:Datum:Temp:Abs-Feuchte:Windchill:Wind:
Aussen-T/F 1976 01-11-2009 10:19:01 9.5 C 6.1 g/m*3 9.5 C 0 km/h
1977 01-11-2009 10:31:02 9.7 C 6.08 g/m*3 9.7 C 0 km/h
1978 01-11-2009 10:43:02 10 C 6.2 g/m*3 10 C 0 km/h
1979 01-11-2009 10:55:02 10.2 C 6.28 g/m*3 10.2 C 0 km/h
1980 01-11-2009 11:07:01 11.1 C 6.45 g/m*3 11.1 C 0 km/h
1981 01-11-2009 11:19:02 11.9 C 6.57 g/m*3 11.9 C 0 km/h
1982 01-11-2009 11:31:02 12.4 C 6.45 g/m*3 12.4 C 0 km/h
1983 01-11-2009 11:43:02 12.7 C 6.35 g/m*3 12.7 C 0 km/h
1984 01-11-2009 11:55:01 13.2 C 6.43 g/m*3 13.2 C 0 km/h
1985 01-11-2009 12:07:01 13.2 C 6.32 g/m*3 13.2 C 0 km/h
1986 01-11-2009 12:19:01 13.2 C 6.2 g/m*3 13.2 C 0 km/h
1987 01-11-2009 12:31:01 13.4 C 6.39 g/m*3 13.4 C 0 km/h
1988 01-11-2009 12:43:01 14 C 6.39 g/m*3 14 C 0 km/h
1989 01-11-2009 12:55:01 14.2 C 6.35 g/m*3 14.2 C 0 km/h
1990 01-11-2009 13:07:02 14.3 C 6.39 g/m*3 14.3 C 0 km/h
1991 01-11-2009 13:19:01 14.3 C 6.51 g/m*3 14.3 C 0 km/h
1992 01-11-2009 13:31:01 14.1 C 6.31 g/m*3 14.1 C 0 km/h
1993 01-11-2009 13:43:02 14 C 6.27 g/m*3 14 C 0 km/h
1994 01-11-2009 13:55:01 14.1 C 6.19 g/m*3 14.1 C 0 km/h
1995 01-11-2009 14:07:01 13.9 C 6.23 g/m*3 13.9 C 0 km/h
1996 01-11-2009 14:19:01 13.8 C 6.31 g/m*3 13.8 C 0 km/h
1997 01-11-2009 14:31:01 13.6 C 6.36 g/m*3 13.6 C 0 km/h
1998 01-11-2009 14:43:01 13.5 C 6.43 g/m*3 13.5 C 0 km/h
1999 01-11-2009 14:55:02 13.2 C 6.32 g/m*3 13.2 C 0 km/h
2000 01-11-2009 15:07:02 12.8 C 6.38 g/m*3 12.8 C 0 km/h
Sensor: Nr:Datum:Temp:Abs-Feuchte:Windchill:Wind:
Aussen-T/F 2001 01-11-2009 15:19:02 12.5 C 6.38 g/m*3 12.5 C 0 km/h
2002 01-11-2009 15:31:02 12.1 C 6.33 g/m*3 12.1 C 0 km/h
2003 01-11-2009 15:43:02 12 C 6.29 g/m*3 12 C 0 km/h
2004 01-11-2009 15:55:01 12 C 6.39 g/m*3 12 C 0 km/h
2005 01-11-2009 16:07:01 11.8 C 6.42 g/m*3 11.8 C 0 km/h
2006 01-11-2009 16:19:02 11.6 C 6.44 g/m*3 11.6 C 0 km/h
2007 01-11-2009 16:31:01 11.5 C 6.51 g/m*3 11.5 C 0 km/h
2008 01-11-2009 16:43:01 11.4 C 6.57 g/m*3 11.4 C 0 km/h
2009 01-11-2009 16:55:03 11.3 C 6.63 g/m*3 11.3 C 0 km/h
2010 01-11-2009 17:07:02 11.3 C 6.73 g/m*3 11.3 C 0 km/h
2011 01-11-2009 17:19:03 11.3 C 6.83 g/m*3 11.3 C 0 km/h
2012 01-11-2009 17:31:02 11.1 C 6.75 g/m*3 11.1 C 0 km/h
2013 01-11-2009 17:43:02 10.8 C 6.72 g/m*3 10.8 C 0 km/h
2014 01-11-2009 17:55:02 10.7 C 6.68 g/m*3 10.7 C 0 km/h
2015 01-11-2009 18:07:02 10.4 C 6.75 g/m*3 10.4 C 0 km/h
2016 01-11-2009 18:19:02 10.2 C 6.85 g/m*3 10.2 C 0 km/h
2017 01-11-2009 18:31:03 9.9 C 7 g/m*3 9.9 C 0 km/h
2018 01-11-2009 18:43:03 9.6 C 7.15 g/m*3 9.6 C 0 km/h
2019 01-11-2009 18:55:02 9.6 C 7.33 g/m*3 9.6 C 0 km/h
2020 01-11-2009 19:07:01 9.5 C 7.46 g/m*3 9.5 C 0 km/h
2021 01-11-2009 19:19:02 9.4 C 7.6 g/m*3 9.4 C 0 km/h
2022 01-11-2009 19:31:02 9.3 C 7.64 g/m*3 9.3 C 0 km/h
2023 01-11-2009 19:43:02 9.5 C 7.83 g/m*3 9.5 C 0 km/h
2024 01-11-2009 19:55:01 9.5 C 7.92 g/m*3 9.5 C 0 km/h
2025 01-11-2009 20:07:02 9.4 C 7.96 g/m*3 9.4 C 0 km/h
Sensor: Nr:Datum:Temp:Abs-Feuchte:Windchill:Wind:
Aussen-T/F 2026 01-11-2009 20:19:01 9.5 C 8.1 g/m*3 9.5 C 0 km/h
2027 01-11-2009 20:31:02 9.5 C 8.1 g/m*3 9.5 C 0 km/h
2028 01-11-2009 20:43:03 9.4 C 8.05 g/m*3 9.4 C 0 km/h
2029 01-11-2009 20:55:02 9.4 C 8.14 g/m*3 9.4 C 0 km/h
2030 01-11-2009 21:07:02 9.4 C 8.14 g/m*3 9.4 C 0 km/h
2031 01-11-2009 21:19:02 9.4 C 8.14 g/m*3 9.4 C 0 km/h
2032 01-11-2009 21:31:02 9.5 C 8.19 g/m*3 9.5 C 0 km/h
2033 01-11-2009 21:43:02 9.4 C 8.14 g/m*3 9.4 C 0 km/h
2034 01-11-2009 21:55:02 9.5 C 8.28 g/m*3 9.5 C 0 km/h
2035 01-11-2009 22:07:02 9.5 C 8.28 g/m*3 9.5 C 0 km/h
2036 01-11-2009 22:19:02 9.6 C 8.34 g/m*3 9.6 C 0 km/h
2037 01-11-2009 22:32:04 9.7 C 8.39 g/m*3 9.7 C 0 km/h
2038 01-11-2009 22:44:04 9.7 C 8.48 g/m*3 9.7 C 0 km/h
2039 01-11-2009 22:56:04 9.8 C 8.54 g/m*3 9.8 C 0 km/h
2040 01-11-2009 23:08:04 9.8 C 8.54 g/m*3 9.8 C 0 km/h
2041 01-11-2009 23:20:04 9.8 C 8.54 g/m*3 9.8 C 0 km/h
2042 01-11-2009 23:32:04 10 C 8.55 g/m*3 10 C 0 km/h
2043 01-11-2009 23:44:04 10.1 C 8.61 g/m*3 10.1 C 0 km/h
2044 01-11-2009 23:56:04 10.2 C 8.76 g/m*3 10.2 C 0 km/h
2045 02-11-2009 00:08:04 10.2 C 8.76 g/m*3 10.2 C 0 km/h
2046 02-11-2009 00:20:04 10.2 C 8.76 g/m*3 10.2 C 0 km/h
2047 02-11-2009 00:32:04 10.2 C 8.76 g/m*3 10.2 C 0 km/h
2048 02-11-2009 00:44:04 10.2 C 8.76 g/m*3 10.2 C 0 km/h
2049 02-11-2009 00:56:04 10.2 C 8.76 g/m*3 10.2 C 0 km/h
2050 02-11-2009 01:08:04 10.2 C 8.76 g/m*3 10.2 C 0 km/h
Sensor: Nr:Datum:Temp:Abs-Feuchte:Windchill:Wind:
Aussen-T/F 2051 02-11-2009 01:20:04 10.2 C 8.76 g/m*3 10.2 C 0 km/h
2052 02-11-2009 01:32:04 10.3 C 8.81 g/m*3 10.3 C 0 km/h
2053 02-11-2009 01:44:05 10.3 C 8.91 g/m*3 10.3 C 0 km/h
2054 02-11-2009 01:56:05 10.3 C 8.91 g/m*3 10.3 C 0 km/h
2055 02-11-2009 02:08:05 10.5 C 9.02 g/m*3 10.5 C 0 km/h
2056 02-11-2009 02:20:05 10.5 C 9.12 g/m*3 10.5 C 0 km/h
2057 02-11-2009 02:32:05 10.5 C 9.12 g/m*3 10.5 C 0 km/h
2058 02-11-2009 02:44:05 10.7 C 9.23 g/m*3 10.7 C 0 km/h
2059 02-11-2009 02:56:05 11.2 C 9.63 g/m*3 11.2 C 0 km/h
2060 02-11-2009 03:08:05 11.2 C 9.63 g/m*3 11.2 C 0 km/h
2061 02-11-2009 03:20:05 11.1 C 9.57 g/m*3 11.1 C 0 km/h
2062 02-11-2009 03:32:05 11.1 C 9.57 g/m*3 11.1 C 0 km/h
2063 02-11-2009 03:44:05 10.8 C 9.39 g/m*3 10.8 C 0 km/h
2064 02-11-2009 03:56:05 10.7 C 9.33 g/m*3 10.7 C 0 km/h
2065 02-11-2009 04:08:05 10.5 C 9.21 g/m*3 10.5 C 0 km/h
2066 02-11-2009 04:20:05 10.4 C 9.16 g/m*3 10.4 C 0 km/h
2067 02-11-2009 04:32:05 10.3 C 9.1 g/m*3 10.3 C 0 km/h
2068 02-11-2009 04:44:05 10.3 C 9.1 g/m*3 10.3 C 0 km/h
2069 02-11-2009 04:56:05 10.3 C 9.1 g/m*3 10.3 C 0 km/h
2070 02-11-2009 05:08:05 10.3 C 9.1 g/m*3 10.3 C 0 km/h
2071 02-11-2009 05:20:05 10.4 C 9.16 g/m*3 10.4 C 0 km/h
2072 02-11-2009 05:32:06 10.5 C 9.21 g/m*3 10.5 C 0 km/h
2073 02-11-2009 05:44:06 10.5 C 9.21 g/m*3 10.5 C 0 km/h
2074 02-11-2009 05:56:06 10.4 C 9.16 g/m*3 10.4 C 0 km/h
2075 02-11-2009 06:08:06 10.2 C 9.04 g/m*3 10.2 C 0 km/h
Sensor: Nr:Datum:Temp:Abs-Feuchte:Windchill:Wind:
Aussen-T/F 2076 02-11-2009 06:20:06 10.1 C 8.98 g/m*3 10.1 C 0 km/h
2077 02-11-2009 06:32:06 10.1 C 8.98 g/m*3 10.1 C 0 km/h
2078 02-11-2009 06:44:06 9.8 C 8.81 g/m*3 9.8 C 0 km/h
2079 02-11-2009 06:56:06 9.8 C 8.81 g/m*3 9.8 C 0 km/h
2080 02-11-2009 07:08:04 9.9 C 8.87 g/m*3 9.9 C 0 km/h
2081 02-11-2009 07:20:04 10 C 8.93 g/m*3 10 C 0 km/h
2082 02-11-2009 07:32:04 10 C 8.93 g/m*3 10 C 0 km/h
2083 02-11-2009 07:44:04 10 C 8.93 g/m*3 10 C 0 km/h
2084 02-11-2009 07:56:02 10.1 C 8.98 g/m*3 10.1 C 0 km/h
2085 02-11-2009 08:08:02 10.1 C 8.98 g/m*3 10.1 C 0 km/h
2086 02-11-2009 08:20:02 10.1 C 8.98 g/m*3 10.1 C 0 km/h
2087 02-11-2009 08:32:02 10.2 C 9.04 g/m*3 10.2 C 0 km/h
2088 02-11-2009 08:44:02 10.4 C 9.16 g/m*3 10.4 C 0 km/h
2089 02-11-2009 08:56:01 10.5 C 9.21 g/m*3 10.5 C 0 km/h
2090 02-11-2009 09:08:02 10.7 C 9.33 g/m*3 10.7 C 0 km/h
2091 02-11-2009 09:20:01 10.8 C 9.39 g/m*3 10.8 C 0 km/h
2092 02-11-2009 09:32:01 10.8 C 9.39 g/m*3 10.8 C 0 km/h
2093 02-11-2009 09:44:01 10.8 C 9.39 g/m*3 10.8 C 0 km/h
2094 02-11-2009 09:56:01 10.9 C 9.45 g/m*3 10.9 C 0 km/h
2095 02-11-2009 10:08:02 10.9 C 9.45 g/m*3 10.9 C 0 km/h
2096 02-11-2009 10:20:02 11.1 C 9.27 g/m*3 11.1 C 0 km/h
2097 02-11-2009 10:32:01 11.3 C 9.18 g/m*3 11.3 C 0 km/h
2098 02-11-2009 10:44:01 11.5 C 9.3 g/m*3 11.5 C 0 km/h
2099 02-11-2009 10:56:01 12 C 9.38 g/m*3 12 C 0 km/h
2100 02-11-2009 11:08:01 12 C 9.06 g/m*3 12 C 0 km/h
Sensor: Nr:Datum:Temp:Abs-Feuchte:Windchill:Wind:
Aussen-T/F 2101 02-11-2009 11:20:02 12 C 9.06 g/m*3 12 C 0 km/h
2102 02-11-2009 11:32:01 12.4 C 8.96 g/m*3 12.4 C 0 km/h
2103 02-11-2009 11:44:01 12.4 C 8.74 g/m*3 12.4 C 0 km/h
2104 02-11-2009 11:56:02 12.5 C 8.8 g/m*3 12.5 C 0 km/h
2105 02-11-2009 12:08:01 12.8 C 8.74 g/m*3 12.8 C 0 km/h
2106 02-11-2009 12:20:02 12.9 C 8.34 g/m*3 12.9 C 0 km/h
2107 02-11-2009 12:32:01 12.9 C 8.11 g/m*3 12.9 C 0 km/h
2108 02-11-2009 12:44:01 13.2 C 8.38 g/m*3 13.2 C 0 km/h
2109 02-11-2009 12:56:02 13.2 C 8.04 g/m*3 13.2 C 0 km/h
2110 02-11-2009 13:08:02 13.2 C 7.81 g/m*3 13.2 C 0 km/h
2111 02-11-2009 13:20:02 13.2 C 7.81 g/m*3 13.2 C 0 km/h
2112 02-11-2009 13:32:03 13 C 7.6 g/m*3 13 C 0 km/h
2113 02-11-2009 13:44:03 13.1 C 7.65 g/m*3 13.1 C 0 km/h
2114 02-11-2009 13:56:02 13.4 C 7.67 g/m*3 13.4 C 0 km/h
2115 02-11-2009 14:08:01 13.4 C 6.86 g/m*3 13.4 C 0 km/h
2116 02-11-2009 14:20:02 13.4 C 6.74 g/m*3 13.4 C 0 km/h
2117 02-11-2009 14:32:02 13.4 C 6.86 g/m*3 13.4 C 0 km/h
2118 02-11-2009 14:44:02 13.3 C 7.05 g/m*3 13.3 C 0 km/h
2119 02-11-2009 14:56:02 13.3 C 7.05 g/m*3 13.3 C 0 km/h
2120 02-11-2009 15:08:03 13 C 6.92 g/m*3 13 C 0 km/h
2121 02-11-2009 15:20:02 13 C 6.92 g/m*3 13 C 0 km/h
2122 02-11-2009 15:32:02 12.9 C 6.76 g/m*3 12.9 C 0 km/h
2123 02-11-2009 15:44:02 12.4 C 6.88 g/m*3 12.4 C 0 km/h
2124 02-11-2009 15:56:02 10.4 C 7.04 g/m*3 10.4 C 0 km/h
2125 02-11-2009 16:08:02 9.7 C 7.56 g/m*3 9.7 C 0 km/h
Sensor: Nr:Datum:Temp:Abs-Feuchte:Windchill:Wind:
Aussen-T/F 2126 02-11-2009 16:20:01 9.2 C 7.59 g/m*3 9.2 C 0 km/h
2127 02-11-2009 16:32:02 9.2 C 7.68 g/m*3 9.2 C 0 km/h
2128 02-11-2009 16:44:03 9.3 C 7.91 g/m*3 9.3 C 0 km/h
2129 02-11-2009 16:56:02 9.2 C 7.95 g/m*3 9.2 C 0 km/h
2130 02-11-2009 17:08:02 9.1 C 7.99 g/m*3 9.1 C 0 km/h
2131 02-11-2009 17:20:02 9.1 C 7.99 g/m*3 9.1 C 0 km/h
2132 02-11-2009 17:32:02 9 C 8.02 g/m*3 9 C 0 km/h
2133 02-11-2009 17:44:02 9.1 C 8.07 g/m*3 9.1 C 0 km/h
2134 02-11-2009 17:56:02 9 C 8.02 g/m*3 9 C 0 km/h
2135 02-11-2009 18:08:02 8.9 C 8.06 g/m*3 8.9 C 0 km/h
2136 02-11-2009 18:20:02 8.9 C 8.06 g/m*3 8.9 C 0 km/h
2137 02-11-2009 18:32:02 8.9 C 8.15 g/m*3 8.9 C 0 km/h
2138 02-11-2009 18:44:02 8.8 C 8.09 g/m*3 8.8 C 0 km/h
2139 02-11-2009 18:56:02 8.8 C 8.09 g/m*3 8.8 C 0 km/h
2140 02-11-2009 19:08:02 8.7 C 8.04 g/m*3 8.7 C 0 km/h
2141 02-11-2009 19:20:03 8.7 C 8.04 g/m*3 8.7 C 0 km/h
2142 02-11-2009 19:32:02 8.7 C 8.04 g/m*3 8.7 C 0 km/h
2143 02-11-2009 19:44:02 8.7 C 7.96 g/m*3 8.7 C 0 km/h
2144 02-11-2009 19:56:02 8.7 C 7.78 g/m*3 8.7 C 0 km/h
2145 02-11-2009 20:08:02 8.8 C 7.66 g/m*3 8.8 C 0 km/h
2146 02-11-2009 20:20:02 8.7 C 7.52 g/m*3 8.7 C 0 km/h
2147 02-11-2009 20:32:02 8.7 C 7.44 g/m*3 8.7 C 0 km/h
2148 02-11-2009 20:44:02 8.7 C 7.44 g/m*3 8.7 C 0 km/h
2149 02-11-2009 20:56:02 8.6 C 7.3 g/m*3 8.6 C 0 km/h
2150 02-11-2009 21:08:02 8.5 C 7.26 g/m*3 8.5 C 0 km/h
Sensor: Nr:Datum:Temp:Abs-Feuchte:Windchill:Wind:
Aussen-T/F 2151 02-11-2009 21:20:02 8.4 C 7.21 g/m*3 8.4 C 0 km/h
2152 02-11-2009 21:32:02 8.3 C 7 g/m*3 8.3 C 0 km/h
2153 02-11-2009 21:44:02 8.1 C 6.82 g/m*3 8.1 C 0 km/h
2154 02-11-2009 21:57:01 8.1 C 6.74 g/m*3 8.1 C 0 km/h
2155 02-11-2009 22:09:01 8.1 C 6.66 g/m*3 8.1 C 0 km/h
2156 02-11-2009 22:21:01 8.1 C 6.57 g/m*3 8.1 C 0 km/h
2157 02-11-2009 22:33:01 8 C 6.53 g/m*3 8 C 0 km/h
2158 02-11-2009 22:45:01 7.8 C 6.53 g/m*3 7.8 C 0 km/h
2159 02-11-2009 22:57:01 7.6 C 6.53 g/m*3 7.6 C 0 km/h
2160 02-11-2009 23:09:01 7.5 C 6.56 g/m*3 7.5 C 0 km/h
2161 02-11-2009 23:21:01 7.6 C 6.69 g/m*3 7.6 C 0 km/h
2162 02-11-2009 23:33:02 7.5 C 6.64 g/m*3 7.5 C 0 km/h
2163 02-11-2009 23:45:02 7.4 C 6.6 g/m*3 7.4 C 0 km/h
2164 02-11-2009 23:57:02 7.3 C 6.56 g/m*3 7.3 C 0 km/h
2165 03-11-2009 00:09:02 7 C 6.43 g/m*3 7 C 0 km/h
2166 03-11-2009 00:21:02 7 C 6.51 g/m*3 7 C 0 km/h
2167 03-11-2009 00:33:02 7.1 C 6.55 g/m*3 7.1 C 0 km/h
2168 03-11-2009 00:45:02 7 C 6.43 g/m*3 7 C 0 km/h
2169 03-11-2009 00:57:02 7 C 6.43 g/m*3 7 C 0 km/h
2170 03-11-2009 01:09:02 6.5 C 6.37 g/m*3 6.5 C 0 km/h
2171 03-11-2009 01:21:02 6.3 C 6.37 g/m*3 6.3 C 0 km/h
2172 03-11-2009 01:33:02 6.3 C 6.44 g/m*3 6.3 C 0 km/h
2173 03-11-2009 01:45:02 6.4 C 6.48 g/m*3 6.4 C 0 km/h
2174 03-11-2009 01:57:02 6.2 C 6.4 g/m*3 6.2 C 0 km/h
2175 03-11-2009 02:09:02 5.9 C 6.35 g/m*3 5.9 C 0 km/h
Sensor: Nr:Datum:Temp:Abs-Feuchte:Windchill:Wind:
Aussen-T/F 2176 03-11-2009 02:21:02 5.9 C 6.42 g/m*3 5.9 C 0 km/h
2177 03-11-2009 02:33:02 6 C 6.39 g/m*3 6 C 0 km/h
2178 03-11-2009 02:45:02 6.3 C 6.51 g/m*3 6.3 C 0 km/h
2179 03-11-2009 02:57:02 6.4 C 6.48 g/m*3 6.4 C 0 km/h
2180 03-11-2009 03:09:02 6.7 C 6.46 g/m*3 6.7 C 0 km/h
2181 03-11-2009 03:21:03 6.8 C 6.42 g/m*3 6.8 C 0 km/h
2182 03-11-2009 03:33:03 7 C 6.35 g/m*3 7 C 0 km/h
2183 03-11-2009 03:45:03 7 C 6.2 g/m*3 7 C 0 km/h
2184 03-11-2009 03:57:03 7 C 6.12 g/m*3 7 C 0 km/h
2185 03-11-2009 04:09:03 7 C 6.12 g/m*3 7 C 0 km/h
2186 03-11-2009 04:21:03 7 C 6.12 g/m*3 7 C 0 km/h
2187 03-11-2009 04:33:03 6.8 C 6.12 g/m*3 6.8 C 0 km/h
2188 03-11-2009 04:45:03 6.7 C 6.15 g/m*3 6.7 C 0 km/h
2189 03-11-2009 04:57:03 6.7 C 6.08 g/m*3 6.7 C 0 km/h
2190 03-11-2009 05:09:03 6.5 C 6.07 g/m*3 6.5 C 0 km/h
2191 03-11-2009 05:21:03 6.3 C 6.07 g/m*3 6.3 C 0 km/h
2192 03-11-2009 05:33:03 6 C 5.95 g/m*3 6 C 0 km/h
2193 03-11-2009 05:45:03 5.8 C 5.95 g/m*3 5.8 C 0 km/h
2194 03-11-2009 05:57:03 5.6 C 5.94 g/m*3 5.6 C 0 km/h
2195 03-11-2009 06:09:03 5.3 C 5.89 g/m*3 5.3 C 0 km/h
2196 03-11-2009 06:21:03 5.4 C 6 g/m*3 5.4 C 0 km/h
2197 03-11-2009 06:33:03 5.3 C 5.96 g/m*3 5.3 C 0 km/h
2198 03-11-2009 06:45:03 5 C 5.84 g/m*3 5 C 0 km/h
2199 03-11-2009 06:57:03 4.8 C 5.9 g/m*3 4.8 C 0 km/h
2200 03-11-2009 07:09:01 4.6 C 5.82 g/m*3 4.6 C 0 km/h
Sensor: Nr:Datum:Temp:Abs-Feuchte:Windchill:Wind:
Aussen-T/F 2201 03-11-2009 07:21:02 4.7 C 5.93 g/m*3 4.7 C 0 km/h
2202 03-11-2009 07:33:01 4.6 C 5.89 g/m*3 4.6 C 0 km/h
2203 03-11-2009 07:45:02 4.5 C 5.85 g/m*3 4.5 C 0 km/h
2204 03-11-2009 07:57:02 4.2 C 5.73 g/m*3 4.2 C 0 km/h
2205 03-11-2009 08:09:02 4.1 C 5.7 g/m*3 4.1 C 0 km/h
2206 03-11-2009 08:21:02 4 C 5.72 g/m*3 4 C 0 km/h
2207 03-11-2009 08:33:02 4 C 5.72 g/m*3 4 C 0 km/h
2208 03-11-2009 08:45:02 4.1 C 5.82 g/m*3 4.1 C 0 km/h
2209 03-11-2009 08:57:02 4.2 C 5.93 g/m*3 4.2 C 0 km/h
2210 03-11-2009 09:09:01 4.3 C 5.97 g/m*3 4.3 C 0 km/h
2211 03-11-2009 09:21:02 5 C 6.25 g/m*3 5 C 0 km/h
2212 03-11-2009 09:33:02 5.8 C 6.66 g/m*3 5.8 C 0 km/h
2213 03-11-2009 09:45:02 6.4 C 6.85 g/m*3 6.4 C 0 km/h
2214 03-11-2009 09:57:02 6.8 C 6.96 g/m*3 6.8 C 0 km/h
2215 03-11-2009 10:09:02 7.1 C 6.94 g/m*3 7.1 C 0 km/h
2216 03-11-2009 10:21:02 7.3 C 6.87 g/m*3 7.3 C 0 km/h
2217 03-11-2009 10:33:02 7.5 C 6.8 g/m*3 7.5 C 0 km/h
2218 03-11-2009 10:45:01 7.8 C 6.53 g/m*3 7.8 C 0 km/h
2219 03-11-2009 10:57:01 7.8 C 6.45 g/m*3 7.8 C 0 km/h
2220 03-11-2009 11:09:02 8.4 C 6.28 g/m*3 8.4 C 0 km/h
2221 03-11-2009 11:21:01 9 C 6.08 g/m*3 9 C 0 km/h
2222 03-11-2009 11:33:01 8.5 C 5.72 g/m*3 8.5 C 0 km/h
2223 03-11-2009 11:45:01 8.5 C 5.72 g/m*3 8.5 C 0 km/h
2224 03-11-2009 11:57:01 8.6 C 5.93 g/m*3 8.6 C 0 km/h
2225 03-11-2009 12:09:02 9.4 C 6.24 g/m*3 9.4 C 0 km/h
Sensor: Nr:Datum:Temp:Abs-Feuchte:Windchill:Wind:
Aussen-T/F 2226 03-11-2009 12:21:01 9.8 C 5.94 g/m*3 9.8 C 0 km/h
2227 03-11-2009 12:33:01 9.8 C 5.75 g/m*3 9.8 C 0 km/h
2228 03-11-2009 12:45:01 10.2 C 5.71 g/m*3 10.2 C 0 km/h
2229 03-11-2009 12:57:01 10.8 C 5.73 g/m*3 10.8 C 0 km/h
2230 03-11-2009 13:09:02 11 C 5.31 g/m*3 11 C 0 km/h
2231 03-11-2009 13:21:02 11.1 C 5.04 g/m*3 11.1 C 0 km/h
2232 03-11-2009 13:33:01 11.7 C 5.23 g/m*3 11.7 C 0 km/h
2233 03-11-2009 13:45:01 11.3 C 4.79 g/m*3 11.3 C 0 km/h
2234 03-11-2009 13:57:01 11.1 C 4.94 g/m*3 11.1 C 0 km/h
2235 03-11-2009 14:09:01 10.9 C 5.07 g/m*3 10.9 C 0 km/h
2236 03-11-2009 14:21:02 10.6 C 5.08 g/m*3 10.6 C 0 km/h
2237 03-11-2009 14:33:01 10.6 C 5.17 g/m*3 10.6 C 0 km/h
2238 03-11-2009 14:45:03 11 C 5.1 g/m*3 11 C 0 km/h
2239 03-11-2009 14:57:03 11 C 5 g/m*3 11 C 0 km/h
2240 03-11-2009 15:09:02 10.9 C 5.07 g/m*3 10.9 C 0 km/h
2241 03-11-2009 15:21:02 10.8 C 5.14 g/m*3 10.8 C 0 km/h
2242 03-11-2009 15:33:02 10.5 C 5.14 g/m*3 10.5 C 0 km/h
2243 03-11-2009 15:45:02 10.3 C 5.17 g/m*3 10.3 C 0 km/h
2244 03-11-2009 15:57:02 10.2 C 5.04 g/m*3 10.2 C 0 km/h
2245 03-11-2009 16:09:02 10.2 C 5.14 g/m*3 10.2 C 0 km/h
2246 03-11-2009 16:21:02 10.1 C 5.11 g/m*3 10.1 C 0 km/h
2247 03-11-2009 16:33:01 10 C 5.17 g/m*3 10 C 0 km/h
2248 03-11-2009 16:45:02 9.9 C 5.42 g/m*3 9.9 C 0 km/h
2249 03-11-2009 16:57:02 9.8 C 5.38 g/m*3 9.8 C 0 km/h
2250 03-11-2009 17:09:01 9.7 C 5.44 g/m*3 9.7 C 0 km/h
Sensor: Nr:Datum:Temp:Abs-Feuchte:Windchill:Wind:
Aussen-T/F 2251 03-11-2009 17:21:01 9.7 C 5.53 g/m*3 9.7 C 0 km/h
2252 03-11-2009 17:33:02 9.6 C 5.59 g/m*3 9.6 C 0 km/h
2253 03-11-2009 17:45:02 9.6 C 5.68 g/m*3 9.6 C 0 km/h
2254 03-11-2009 17:57:02 9.4 C 5.7 g/m*3 9.4 C 0 km/h
2255 03-11-2009 18:09:01 9.2 C 5.89 g/m*3 9.2 C 0 km/h
2256 03-11-2009 18:21:02 8.9 C 6.04 g/m*3 8.9 C 0 km/h
2257 03-11-2009 18:33:02 8.9 C 6.31 g/m*3 8.9 C 0 km/h
2258 03-11-2009 18:45:02 8.7 C 6.31 g/m*3 8.7 C 0 km/h
2259 03-11-2009 18:57:02 8.7 C 6.49 g/m*3 8.7 C 0 km/h
2260 03-11-2009 19:09:03 8.9 C 6.48 g/m*3 8.9 C 0 km/h
2261 03-11-2009 19:21:02 9 C 6.52 g/m*3 9 C 0 km/h
2262 03-11-2009 19:33:03 9 C 6.44 g/m*3 9 C 0 km/h
2263 03-11-2009 19:45:02 9.1 C 6.48 g/m*3 9.1 C 0 km/h
2264 03-11-2009 19:57:02 9.1 C 6.48 g/m*3 9.1 C 0 km/h
2265 03-11-2009 20:09:02 9.1 C 6.48 g/m*3 9.1 C 0 km/h
2266 03-11-2009 20:21:01 9.1 C 6.57 g/m*3 9.1 C 0 km/h
2267 03-11-2009 20:33:02 9.4 C 6.6 g/m*3 9.4 C 0 km/h
2268 03-11-2009 20:45:02 9.3 C 6.56 g/m*3 9.3 C 0 km/h
2269 03-11-2009 20:57:02 9.4 C 6.6 g/m*3 9.4 C 0 km/h
2270 03-11-2009 21:09:02 9.4 C 6.6 g/m*3 9.4 C 0 km/h
2271 03-11-2009 21:21:02 9.4 C 6.69 g/m*3 9.4 C 0 km/h
2272 03-11-2009 21:33:01 9.3 C 6.65 g/m*3 9.3 C 0 km/h
2273 03-11-2009 21:45:02 9.4 C 6.78 g/m*3 9.4 C 0 km/h
2274 03-11-2009 21:57:02 9.4 C 6.78 g/m*3 9.4 C 0 km/h
2275 03-11-2009 22:09:02 9.4 C 6.87 g/m*3 9.4 C 0 km/h
Sensor: Nr:Datum:Temp:Abs-Feuchte:Windchill:Wind:
Aussen-T/F 2276 03-11-2009 22:22:01 9.4 C 7.05 g/m*3 9.4 C 0 km/h
2277 03-11-2009 22:34:01 9.6 C 7.15 g/m*3 9.6 C 0 km/h
2278 03-11-2009 22:46:01 9.9 C 7.28 g/m*3 9.9 C 0 km/h
2279 03-11-2009 22:58:01 10 C 7.14 g/m*3 10 C 0 km/h
2280 03-11-2009 23:10:01 10.1 C 7.19 g/m*3 10.1 C 0 km/h
2281 03-11-2009 23:22:01 10.2 C 7.33 g/m*3 10.2 C 0 km/h
2282 03-11-2009 23:34:01 10.3 C 7.37 g/m*3 10.3 C 0 km/h
2283 03-11-2009 23:46:01 10.5 C 7.37 g/m*3 10.5 C 0 km/h
2284 03-11-2009 23:58:01 10.5 C 7.37 g/m*3 10.5 C 0 km/h
2285 04-11-2009 00:10:01 10.2 C 7.42 g/m*3 10.2 C 0 km/h
2286 04-11-2009 00:22:02 10 C 7.52 g/m*3 10 C 0 km/h
2287 04-11-2009 00:34:02 10 C 7.61 g/m*3 10 C 0 km/h
2288 04-11-2009 00:46:02 9.9 C 7.84 g/m*3 9.9 C 0 km/h
2289 04-11-2009 00:58:02 10 C 7.8 g/m*3 10 C 0 km/h
2290 04-11-2009 01:10:02 10 C 7.89 g/m*3 10 C 0 km/h
2291 04-11-2009 01:22:02 10 C 7.99 g/m*3 10 C 0 km/h
2292 04-11-2009 01:34:02 10 C 7.99 g/m*3 10 C 0 km/h
2293 04-11-2009 01:46:02 9.9 C 8.12 g/m*3 9.9 C 0 km/h
2294 04-11-2009 01:58:02 9.8 C 8.07 g/m*3 9.8 C 0 km/h
2295 04-11-2009 02:10:02 9.7 C 8.11 g/m*3 9.7 C 0 km/h
2296 04-11-2009 02:22:02 9.7 C 8.11 g/m*3 9.7 C 0 km/h
2297 04-11-2009 02:34:02 9.8 C 8.26 g/m*3 9.8 C 0 km/h
2298 04-11-2009 02:46:02 10.2 C 8.56 g/m*3 10.2 C 0 km/h
2299 04-11-2009 02:58:02 10.1 C 8.61 g/m*3 10.1 C 0 km/h
2300 04-11-2009 03:10:02 10 C 8.55 g/m*3 10 C 0 km/h
Sensor: Nr:Datum:Temp:Abs-Feuchte:Windchill:Wind:
Aussen-T/F 2301 04-11-2009 03:22:02 9.9 C 8.68 g/m*3 9.9 C 0 km/h
2302 04-11-2009 03:34:02 9.9 C 8.68 g/m*3 9.9 C 0 km/h
2303 04-11-2009 03:46:02 9.8 C 8.63 g/m*3 9.8 C 0 km/h
2304 04-11-2009 03:58:02 9.6 C 8.52 g/m*3 9.6 C 0 km/h
2305 04-11-2009 04:10:03 9.7 C 8.57 g/m*3 9.7 C 0 km/h
2306 04-11-2009 04:22:03 9.7 C 8.67 g/m*3 9.7 C 0 km/h
2307 04-11-2009 04:34:03 9.6 C 8.61 g/m*3 9.6 C 0 km/h
2308 04-11-2009 04:46:03 9.4 C 8.5 g/m*3 9.4 C 0 km/h
2309 04-11-2009 04:58:03 9.3 C 8.36 g/m*3 9.3 C 0 km/h
2310 04-11-2009 05:10:03 9.2 C 8.3 g/m*3 9.2 C 0 km/h
2311 04-11-2009 05:22:03 9.2 C 8.3 g/m*3 9.2 C 0 km/h
2312 04-11-2009 05:34:03 9.1 C 8.25 g/m*3 9.1 C 0 km/h
2313 04-11-2009 05:46:03 9.1 C 8.25 g/m*3 9.1 C 0 km/h
2314 04-11-2009 05:58:03 8.9 C 8.23 g/m*3 8.9 C 0 km/h
2315 04-11-2009 06:10:03 8.6 C 7.99 g/m*3 8.6 C 0 km/h
2316 04-11-2009 06:22:03 8.4 C 7.89 g/m*3 8.4 C 0 km/h
2317 04-11-2009 06:34:03 8 C 7.61 g/m*3 8 C 0 km/h
2318 04-11-2009 06:46:01 7.7 C 7.46 g/m*3 7.7 C 0 km/h
2319 04-11-2009 06:58:01 7.3 C 7.19 g/m*3 7.3 C 0 km/h
2320 04-11-2009 07:10:01 7.4 C 7.24 g/m*3 7.4 C 0 km/h
2321 04-11-2009 07:22:02 7.5 C 7.28 g/m*3 7.5 C 0 km/h
2322 04-11-2009 07:34:01 7.6 C 7.09 g/m*3 7.6 C 0 km/h
2323 04-11-2009 07:46:02 7.7 C 7.05 g/m*3 7.7 C 0 km/h
2324 04-11-2009 07:58:02 7.6 C 7.01 g/m*3 7.6 C 0 km/h
2325 04-11-2009 08:10:01 7.6 C 7.09 g/m*3 7.6 C 0 km/h
Sensor: Nr:Datum:Temp:Abs-Feuchte:Windchill:Wind:
Aussen-T/F 2326 04-11-2009 08:22:01 7.8 C 7.26 g/m*3 7.8 C 0 km/h
2327 04-11-2009 08:34:01 8 C 7.28 g/m*3 8 C 0 km/h
2328 04-11-2009 08:46:02 8.1 C 7.24 g/m*3 8.1 C 0 km/h
2329 04-11-2009 08:58:02 7.9 C 7.31 g/m*3 7.9 C 0 km/h
2330 04-11-2009 09:10:02 7.8 C 7.26 g/m*3 7.8 C 0 km/h
2331 04-11-2009 09:22:02 7.9 C 7.39 g/m*3 7.9 C 0 km/h
2332 04-11-2009 09:34:02 7.9 C 7.39 g/m*3 7.9 C 0 km/h
2333 04-11-2009 09:46:02 7.9 C 7.31 g/m*3 7.9 C 0 km/h
2334 04-11-2009 09:58:02 7.6 C 7.01 g/m*3 7.6 C 0 km/h
2335 04-11-2009 10:10:01 7.7 C 6.89 g/m*3 7.7 C 0 km/h
2336 04-11-2009 10:22:02 7.9 C 6.9 g/m*3 7.9 C 0 km/h
2337 04-11-2009 10:34:02 8 C 6.7 g/m*3 8 C 0 km/h
2338 04-11-2009 10:46:02 8 C 6.61 g/m*3 8 C 0 km/h
2339 04-11-2009 10:58:02 8.1 C 6.74 g/m*3 8.1 C 0 km/h
2340 04-11-2009 11:10:03 8.1 C 6.82 g/m*3 8.1 C 0 km/h
2341 04-11-2009 11:22:02 8.4 C 6.87 g/m*3 8.4 C 0 km/h
2342 04-11-2009 11:34:02 8.5 C 7 g/m*3 8.5 C 0 km/h
2343 04-11-2009 11:46:01 8.6 C 6.87 g/m*3 8.6 C 0 km/h
2344 04-11-2009 11:58:01 9 C 6.88 g/m*3 9 C 0 km/h
2345 04-11-2009 12:10:02 8.9 C 6.75 g/m*3 8.9 C 0 km/h
2346 04-11-2009 12:22:01 8.7 C 6.92 g/m*3 8.7 C 0 km/h
2347 04-11-2009 12:34:02 8.4 C 6.96 g/m*3 8.4 C 0 km/h
2348 04-11-2009 12:46:01 8.4 C 6.79 g/m*3 8.4 C 0 km/h
2349 04-11-2009 12:58:01 8.9 C 6.66 g/m*3 8.9 C 0 km/h
2350 04-11-2009 13:10:02 9.6 C 6.5 g/m*3 9.6 C 0 km/h
Sensor: Nr:Datum:Temp:Abs-Feuchte:Windchill:Wind:
Aussen-T/F 2351 04-11-2009 13:22:01 10.2 C 6.57 g/m*3 10.2 C 0 km/h
2352 04-11-2009 13:34:02 9.9 C 6.16 g/m*3 9.9 C 0 km/h
2353 04-11-2009 13:46:01 9.8 C 6.12 g/m*3 9.8 C 0 km/h
2354 04-11-2009 13:58:01 10.1 C 6.24 g/m*3 10.1 C 0 km/h
2355 04-11-2009 14:10:02 10.8 C 6.42 g/m*3 10.8 C 0 km/h
2356 04-11-2009 14:22:02 11.2 C 6.08 g/m*3 11.2 C 0 km/h
2357 04-11-2009 14:34:02 10.1 C 5.77 g/m*3 10.1 C 0 km/h
2358 04-11-2009 14:46:02 10.2 C 5.9 g/m*3 10.2 C 0 km/h
2359 04-11-2009 14:58:02 10.4 C 5.98 g/m*3 10.4 C 0 km/h
2360 04-11-2009 15:10:02 10.1 C 5.86 g/m*3 10.1 C 0 km/h
2361 04-11-2009 15:22:02 9.9 C 5.98 g/m*3 9.9 C 0 km/h
2362 04-11-2009 15:34:01 9.6 C 5.95 g/m*3 9.6 C 0 km/h
2363 04-11-2009 15:46:02 9.6 C 5.95 g/m*3 9.6 C 0 km/h
2364 04-11-2009 15:58:02 9.6 C 6.05 g/m*3 9.6 C 0 km/h
2365 04-11-2009 16:10:01 9.6 C 6.14 g/m*3 9.6 C 0 km/h
2366 04-11-2009 16:22:02 9.6 C 6.23 g/m*3 9.6 C 0 km/h
2367 04-11-2009 16:34:01 9.3 C 6.2 g/m*3 9.3 C 0 km/h
2368 04-11-2009 16:46:02 8.8 C 6.53 g/m*3 8.8 C 0 km/h
2369 04-11-2009 16:58:03 8.3 C 6.66 g/m*3 8.3 C 0 km/h
2370 04-11-2009 17:10:02 8 C 6.7 g/m*3 8 C 0 km/h
2371 04-11-2009 17:22:02 8.1 C 6.74 g/m*3 8.1 C 0 km/h
2372 04-11-2009 17:34:03 8.2 C 6.78 g/m*3 8.2 C 0 km/h
2373 04-11-2009 17:46:02 8.3 C 6.83 g/m*3 8.3 C 0 km/h
2374 04-11-2009 17:58:02 8.1 C 6.74 g/m*3 8.1 C 0 km/h
2375 04-11-2009 18:10:02 8.1 C 6.91 g/m*3 8.1 C 0 km/h
Sensor: Nr:Datum:Temp:Abs-Feuchte:Windchill:Wind:
Aussen-T/F 2376 04-11-2009 18:22:02 8 C 6.94 g/m*3 8 C 0 km/h
2377 04-11-2009 18:34:02 8.1 C 6.99 g/m*3 8.1 C 0 km/h
2378 04-11-2009 18:46:02 8.2 C 6.87 g/m*3 8.2 C 0 km/h
2379 04-11-2009 18:58:02 8.2 C 6.7 g/m*3 8.2 C 0 km/h
2380 04-11-2009 19:10:03 8.2 C 6.53 g/m*3 8.2 C 0 km/h
2381 04-11-2009 19:22:02 8.2 C 6.53 g/m*3 8.2 C 0 km/h
2382 04-11-2009 19:34:02 8.3 C 6.41 g/m*3 8.3 C 0 km/h
2383 04-11-2009 19:46:01 8.3 C 6.32 g/m*3 8.3 C 0 km/h
2384 04-11-2009 19:58:01 8.3 C 6.24 g/m*3 8.3 C 0 km/h
2385 04-11-2009 20:10:02 8.2 C 6.11 g/m*3 8.2 C 0 km/h
2386 04-11-2009 20:22:01 8.2 C 6.11 g/m*3 8.2 C 0 km/h
2387 04-11-2009 20:34:02 8.1 C 6.07 g/m*3 8.1 C 0 km/h
2388 04-11-2009 20:46:01 8.1 C 6.16 g/m*3 8.1 C 0 km/h
2389 04-11-2009 20:58:01 8.1 C 6.07 g/m*3 8.1 C 0 km/h
2390 04-11-2009 21:10:02 8.1 C 6.16 g/m*3 8.1 C 0 km/h
2391 04-11-2009 21:22:01 7.9 C 6.08 g/m*3 7.9 C 0 km/h
2392 04-11-2009 21:34:02 7.7 C 6.08 g/m*3 7.7 C 0 km/h
2393 04-11-2009 21:46:02 7.5 C 6.08 g/m*3 7.5 C 0 km/h
2394 04-11-2009 21:58:02 7.3 C 6 g/m*3 7.3 C 0 km/h
2395 04-11-2009 22:10:02 7.3 C 6.08 g/m*3 7.3 C 0 km/h
2396 04-11-2009 22:23:03 7.7 C 6.08 g/m*3 7.7 C 0 km/h
2397 04-11-2009 22:35:03 7.6 C 6.12 g/m*3 7.6 C 0 km/h
2398 04-11-2009 22:47:03 7.7 C 6.16 g/m*3 7.7 C 0 km/h
2399 04-11-2009 22:59:03 7.8 C 6.12 g/m*3 7.8 C 0 km/h
2400 04-11-2009 23:11:03 7.9 C 6.16 g/m*3 7.9 C 0 km/h
Sensor: Nr:Datum:Temp:Abs-Feuchte:Windchill:Wind:
Aussen-T/F 2401 04-11-2009 23:23:03 7.9 C 6.24 g/m*3 7.9 C 0 km/h
2402 04-11-2009 23:35:03 7.9 C 6.16 g/m*3 7.9 C 0 km/h
2403 04-11-2009 23:47:03 8 C 6.04 g/m*3 8 C 0 km/h
2404 04-11-2009 23:59:04 8.1 C 6.07 g/m*3 8.1 C 0 km/h
2405 05-11-2009 00:11:04 8.1 C 6.07 g/m*3 8.1 C 0 km/h
2406 05-11-2009 00:23:04 7.9 C 6.16 g/m*3 7.9 C 0 km/h
2407 05-11-2009 00:35:04 8.1 C 6.16 g/m*3 8.1 C 0 km/h
2408 05-11-2009 00:47:04 8.2 C 6.11 g/m*3 8.2 C 0 km/h
2409 05-11-2009 00:59:04 8.3 C 6.15 g/m*3 8.3 C 0 km/h
2410 05-11-2009 01:11:04 8.2 C 6.11 g/m*3 8.2 C 0 km/h
2411 05-11-2009 01:23:04 8.2 C 6.11 g/m*3 8.2 C 0 km/h
2412 05-11-2009 01:35:04 8.4 C 6.02 g/m*3 8.4 C 0 km/h
2413 05-11-2009 01:47:04 8.2 C 5.95 g/m*3 8.2 C 0 km/h
2414 05-11-2009 01:59:04 8 C 5.87 g/m*3 8 C 0 km/h
2415 05-11-2009 02:11:04 8 C 5.79 g/m*3 8 C 0 km/h
2416 05-11-2009 02:23:04 8.2 C 5.86 g/m*3 8.2 C 0 km/h
2417 05-11-2009 02:35:04 8.4 C 5.85 g/m*3 8.4 C 0 km/h
2418 05-11-2009 02:47:04 8.5 C 5.81 g/m*3 8.5 C 0 km/h
2419 05-11-2009 02:59:04 8.6 C 5.76 g/m*3 8.6 C 0 km/h
2420 05-11-2009 03:11:04 8.5 C 5.72 g/m*3 8.5 C 0 km/h
2421 05-11-2009 03:23:04 8.6 C 5.76 g/m*3 8.6 C 0 km/h
2422 05-11-2009 03:35:04 8.7 C 5.79 g/m*3 8.7 C 0 km/h
2423 05-11-2009 03:47:04 8.7 C 5.79 g/m*3 8.7 C 0 km/h
2424 05-11-2009 03:59:05 8.7 C 5.71 g/m*3 8.7 C 0 km/h
2425 05-11-2009 04:11:05 8.7 C 5.71 g/m*3 8.7 C 0 km/h
Sensor: Nr:Datum:Temp:Abs-Feuchte:Windchill:Wind:
Aussen-T/F 2426 05-11-2009 04:23:05 8.2 C 6.03 g/m*3 8.2 C 0 km/h
2427 05-11-2009 04:35:05 7.8 C 6.28 g/m*3 7.8 C 0 km/h
2428 05-11-2009 04:47:05 7.7 C 6.41 g/m*3 7.7 C 0 km/h
2429 05-11-2009 04:59:05 7.8 C 6.53 g/m*3 7.8 C 0 km/h
2430 05-11-2009 05:11:05 7.7 C 6.49 g/m*3 7.7 C 0 km/h
2431 05-11-2009 05:23:05 7.8 C 6.45 g/m*3 7.8 C 0 km/h
2432 05-11-2009 05:35:05 7.8 C 6.45 g/m*3 7.8 C 0 km/h
2433 05-11-2009 05:47:05 7.6 C 6.61 g/m*3 7.6 C 0 km/h
2434 05-11-2009 05:59:05 7.5 C 6.64 g/m*3 7.5 C 0 km/h
2435 05-11-2009 06:11:05 7.4 C 6.6 g/m*3 7.4 C 0 km/h
2436 05-11-2009 06:23:05 7.3 C 6.56 g/m*3 7.3 C 0 km/h
2437 05-11-2009 06:35:05 7.3 C 6.64 g/m*3 7.3 C 0 km/h
2438 05-11-2009 06:47:05 7.3 C 6.72 g/m*3 7.3 C 0 km/h
2439 05-11-2009 06:59:05 7.4 C 6.68 g/m*3 7.4 C 0 km/h
2440 05-11-2009 07:11:03 7.5 C 6.72 g/m*3 7.5 C 0 km/h
2441 05-11-2009 07:23:02 7.3 C 6.64 g/m*3 7.3 C 0 km/h
2442 05-11-2009 07:35:03 7.3 C 6.64 g/m*3 7.3 C 0 km/h
2443 05-11-2009 07:47:02 7.6 C 6.69 g/m*3 7.6 C 0 km/h
2444 05-11-2009 07:59:02 7.8 C 6.69 g/m*3 7.8 C 0 km/h
2445 05-11-2009 08:11:02 7.9 C 6.57 g/m*3 7.9 C 0 km/h
2446 05-11-2009 08:23:01 8.1 C 6.49 g/m*3 8.1 C 0 km/h
2447 05-11-2009 08:35:02 8.1 C 6.49 g/m*3 8.1 C 0 km/h
2448 05-11-2009 08:47:02 8.2 C 6.53 g/m*3 8.2 C 0 km/h
2449 05-11-2009 08:59:02 8.4 C 6.53 g/m*3 8.4 C 0 km/h
2450 05-11-2009 09:11:02 8.6 C 6.44 g/m*3 8.6 C 0 km/h
Sensor: Nr:Datum:Temp:Abs-Feuchte:Windchill:Wind:
Aussen-T/F 2451 05-11-2009 09:23:02 8.9 C 6.39 g/m*3 8.9 C 0 km/h
2452 05-11-2009 09:35:02 9 C 6.26 g/m*3 9 C 0 km/h
2453 05-11-2009 09:47:01 8.9 C 6.39 g/m*3 8.9 C 0 km/h
2454 05-11-2009 09:59:01 9 C 6.26 g/m*3 9 C 0 km/h
2455 05-11-2009 10:11:02 9.2 C 6.16 g/m*3 9.2 C 0 km/h
2456 05-11-2009 10:23:02 9.4 C 6.15 g/m*3 9.4 C 0 km/h
2457 05-11-2009 10:35:02 9.8 C 6.22 g/m*3 9.8 C 0 km/h
2458 05-11-2009 10:47:02 10.1 C 6.05 g/m*3 10.1 C 0 km/h
2459 05-11-2009 10:59:02 10.1 C 6.05 g/m*3 10.1 C 0 km/h
2460 05-11-2009 11:11:02 10.2 C 6.09 g/m*3 10.2 C 0 km/h
2461 05-11-2009 11:23:02 10.2 C 6 g/m*3 10.2 C 0 km/h
2462 05-11-2009 11:35:01 9.8 C 6.03 g/m*3 9.8 C 0 km/h
2463 05-11-2009 11:47:02 9.8 C 6.12 g/m*3 9.8 C 0 km/h
2464 05-11-2009 11:59:02 10.1 C 6.05 g/m*3 10.1 C 0 km/h
2465 05-11-2009 12:11:01 10.4 C 6.07 g/m*3 10.4 C 0 km/h
2466 05-11-2009 12:23:02 10.9 C 6.07 g/m*3 10.9 C 0 km/h
2467 05-11-2009 12:35:02 11 C 5.81 g/m*3 11 C 0 km/h
2468 05-11-2009 12:47:02 11.7 C 5.86 g/m*3 11.7 C 0 km/h
2469 05-11-2009 12:59:03 11.5 C 5.68 g/m*3 11.5 C 0 km/h
2470 05-11-2009 13:11:02 11.5 C 5.68 g/m*3 11.5 C 0 km/h
2471 05-11-2009 13:23:02 11.5 C 5.68 g/m*3 11.5 C 0 km/h
2472 05-11-2009 13:35:02 11.7 C 5.75 g/m*3 11.7 C 0 km/h
2473 05-11-2009 13:47:02 11.8 C 5.68 g/m*3 11.8 C 0 km/h
2474 05-11-2009 13:59:02 11.5 C 5.68 g/m*3 11.5 C 0 km/h
2475 05-11-2009 14:11:02 11.4 C 5.54 g/m*3 11.4 C 0 km/h
Sensor: Nr:Datum:Temp:Abs-Feuchte:Windchill:Wind:
Aussen-T/F 2476 05-11-2009 14:23:01 11.3 C 5.51 g/m*3 11.3 C 0 km/h
2477 05-11-2009 14:35:02 11.1 C 5.74 g/m*3 11.1 C 0 km/h
2478 05-11-2009 14:47:02 11.1 C 5.64 g/m*3 11.1 C 0 km/h
2479 05-11-2009 14:59:02 11.1 C 5.64 g/m*3 11.1 C 0 km/h
2480 05-11-2009 15:11:02 11 C 5.51 g/m*3 11 C 0 km/h
2481 05-11-2009 15:23:02 10.9 C 5.67 g/m*3 10.9 C 0 km/h
2482 05-11-2009 15:35:02 10.9 C 5.67 g/m*3 10.9 C 0 km/h
2483 05-11-2009 15:47:02 10.8 C 5.73 g/m*3 10.8 C 0 km/h
2484 05-11-2009 15:59:02 10.6 C 5.66 g/m*3 10.6 C 0 km/h
2485 05-11-2009 16:11:02 10.5 C 5.72 g/m*3 10.5 C 0 km/h
2486 05-11-2009 16:23:02 10.4 C 5.69 g/m*3 10.4 C 0 km/h
2487 05-11-2009 16:35:02 10.4 C 5.69 g/m*3 10.4 C 0 km/h
2488 05-11-2009 16:47:02 10.4 C 5.69 g/m*3 10.4 C 0 km/h
2489 05-11-2009 16:59:02 10.4 C 5.69 g/m*3 10.4 C 0 km/h
2490 05-11-2009 17:11:02 10.3 C 5.75 g/m*3 10.3 C 0 km/h
2491 05-11-2009 17:23:02 10.2 C 5.71 g/m*3 10.2 C 0 km/h
2492 05-11-2009 17:35:02 10.1 C 5.77 g/m*3 10.1 C 0 km/h
2493 05-11-2009 17:47:02 10.1 C 5.77 g/m*3 10.1 C 0 km/h
2494 05-11-2009 17:59:02 9.7 C 5.99 g/m*3 9.7 C 0 km/h
2495 05-11-2009 18:11:02 9.8 C 6.12 g/m*3 9.8 C 0 km/h
2496 05-11-2009 18:23:02 10 C 5.92 g/m*3 10 C 0 km/h
2497 05-11-2009 18:35:02 10 C 5.92 g/m*3 10 C 0 km/h
2498 05-11-2009 18:47:02 10 C 5.92 g/m*3 10 C 0 km/h
2499 05-11-2009 18:59:02 10 C 5.92 g/m*3 10 C 0 km/h
2500 05-11-2009 19:11:02 10 C 5.92 g/m*3 10 C 0 km/h
Sensor: Nr:Datum:Temp:Abs-Feuchte:Windchill:Wind:
Aussen-T/F 2501 05-11-2009 19:23:02 10 C 6.01 g/m*3 10 C 0 km/h
2502 05-11-2009 19:35:01 9.9 C 6.16 g/m*3 9.9 C 0 km/h
2503 05-11-2009 19:47:02 9.9 C 6.26 g/m*3 9.9 C 0 km/h
2504 05-11-2009 19:59:02 9.8 C 6.22 g/m*3 9.8 C 0 km/h
2505 05-11-2009 20:11:01 9.8 C 6.31 g/m*3 9.8 C 0 km/h
2506 05-11-2009 20:23:01 9.8 C 6.31 g/m*3 9.8 C 0 km/h
2507 05-11-2009 20:35:02 9.7 C 6.36 g/m*3 9.7 C 0 km/h
2508 05-11-2009 20:47:02 9.7 C 6.45 g/m*3 9.7 C 0 km/h
2509 05-11-2009 20:59:02 9.7 C 6.45 g/m*3 9.7 C 0 km/h
2510 05-11-2009 21:11:02 9.6 C 6.5 g/m*3 9.6 C 0 km/h
2511 05-11-2009 21:23:02 9.5 C 6.55 g/m*3 9.5 C 0 km/h
2512 05-11-2009 21:35:02 9.5 C 6.55 g/m*3 9.5 C 0 km/h
2513 05-11-2009 21:47:01 9.3 C 6.56 g/m*3 9.3 C 0 km/h
2514 05-11-2009 21:59:01 9.3 C 6.92 g/m*3 9.3 C 0 km/h
2515 05-11-2009 22:11:01 9 C 6.96 g/m*3 9 C 0 km/h
2516 05-11-2009 22:24:02 9.4 C 7.15 g/m*3 9.4 C 0 km/h
2517 05-11-2009 22:36:02 9 C 6.88 g/m*3 9 C 0 km/h
2518 05-11-2009 22:48:02 8.9 C 6.83 g/m*3 8.9 C 0 km/h
2519 05-11-2009 23:00:02 8.9 C 6.83 g/m*3 8.9 C 0 km/h
2520 05-11-2009 23:12:02 9.1 C 6.74 g/m*3 9.1 C 0 km/h
2521 05-11-2009 23:24:02 9.1 C 6.83 g/m*3 9.1 C 0 km/h
2522 05-11-2009 23:36:02 9.1 C 6.83 g/m*3 9.1 C 0 km/h
2523 05-11-2009 23:48:02 9.3 C 6.83 g/m*3 9.3 C 0 km/h
2524 06-11-2009 00:00:02 9.3 C 6.56 g/m*3 9.3 C 0 km/h
2525 06-11-2009 00:12:02 9.1 C 6.48 g/m*3 9.1 C 0 km/h
Sensor: Nr:Datum:Temp:Abs-Feuchte:Windchill:Wind:
Aussen-T/F 2526 06-11-2009 00:24:02 8.9 C 6.57 g/m*3 8.9 C 0 km/h
2527 06-11-2009 00:36:02 8.9 C 6.57 g/m*3 8.9 C 0 km/h
2528 06-11-2009 00:48:02 8.9 C 6.57 g/m*3 8.9 C 0 km/h
2529 06-11-2009 01:00:03 9.1 C 6.48 g/m*3 9.1 C 0 km/h
2530 06-11-2009 01:12:03 9.2 C 6.43 g/m*3 9.2 C 0 km/h
2531 06-11-2009 01:24:03 9.2 C 6.52 g/m*3 9.2 C 0 km/h
2532 06-11-2009 01:36:03 9.2 C 6.52 g/m*3 9.2 C 0 km/h
2533 06-11-2009 01:48:03 9.2 C 6.52 g/m*3 9.2 C 0 km/h
2534 06-11-2009 02:00:03 9 C 6.44 g/m*3 9 C 0 km/h
2535 06-11-2009 02:12:03 8.9 C 6.57 g/m*3 8.9 C 0 km/h
2536 06-11-2009 02:24:03 9 C 6.52 g/m*3 9 C 0 km/h
2537 06-11-2009 02:36:03 9 C 6.52 g/m*3 9 C 0 km/h
2538 06-11-2009 02:48:03 9.1 C 6.57 g/m*3 9.1 C 0 km/h
2539 06-11-2009 03:00:03 9 C 6.52 g/m*3 9 C 0 km/h
2540 06-11-2009 03:12:03 8.8 C 6.53 g/m*3 8.8 C 0 km/h
2541 06-11-2009 03:24:03 8.9 C 6.57 g/m*3 8.9 C 0 km/h
2542 06-11-2009 03:36:03 8.9 C 6.57 g/m*3 8.9 C 0 km/h
2543 06-11-2009 03:48:03 9 C 6.52 g/m*3 9 C 0 km/h
2544 06-11-2009 04:00:03 9 C 6.61 g/m*3 9 C 0 km/h
2545 06-11-2009 04:12:03 9 C 6.61 g/m*3 9 C 0 km/h
2546 06-11-2009 04:24:03 9 C 6.61 g/m*3 9 C 0 km/h
2547 06-11-2009 04:36:03 9 C 6.61 g/m*3 9 C 0 km/h
2548 06-11-2009 04:48:04 9 C 6.7 g/m*3 9 C 0 km/h
2549 06-11-2009 05:00:04 8.8 C 6.7 g/m*3 8.8 C 0 km/h
2550 06-11-2009 05:12:04 8.9 C 6.83 g/m*3 8.9 C 0 km/h
Sensor: Nr:Datum:Temp:Abs-Feuchte:Windchill:Wind:
Aussen-T/F 2551 06-11-2009 05:24:04 9 C 6.79 g/m*3 9 C 0 km/h
2552 06-11-2009 05:36:04 9 C 6.79 g/m*3 9 C 0 km/h
2553 06-11-2009 05:48:04 9 C 6.79 g/m*3 9 C 0 km/h
2554 06-11-2009 06:00:04 9.1 C 6.83 g/m*3 9.1 C 0 km/h
2555 06-11-2009 06:12:04 9.1 C 6.83 g/m*3 9.1 C 0 km/h
2556 06-11-2009 06:24:04 9.1 C 6.83 g/m*3 9.1 C 0 km/h
2557 06-11-2009 06:36:04 9.1 C 6.83 g/m*3 9.1 C 0 km/h
2558 06-11-2009 06:48:04 9 C 6.79 g/m*3 9 C 0 km/h
2559 06-11-2009 07:00:04 9 C 6.7 g/m*3 9 C 0 km/h
2560 06-11-2009 07:12:02 9.1 C 6.74 g/m*3 9.1 C 0 km/h
2561 06-11-2009 07:24:02 9.3 C 6.74 g/m*3 9.3 C 0 km/h
2562 06-11-2009 07:36:02 9 C 6.61 g/m*3 9 C 0 km/h
2563 06-11-2009 07:48:02 9 C 6.61 g/m*3 9 C 0 km/h
2564 06-11-2009 08:00:02 9 C 6.7 g/m*3 9 C 0 km/h
2565 06-11-2009 08:12:02 9.1 C 6.74 g/m*3 9.1 C 0 km/h
2566 06-11-2009 08:24:02 9 C 6.79 g/m*3 9 C 0 km/h
2567 06-11-2009 08:36:02 8.9 C 6.92 g/m*3 8.9 C 0 km/h
2568 06-11-2009 08:48:02 9 C 6.96 g/m*3 9 C 0 km/h
2569 06-11-2009 09:00:02 9.2 C 7.05 g/m*3 9.2 C 0 km/h
2570 06-11-2009 09:12:02 9.6 C 7.05 g/m*3 9.6 C 0 km/h
2571 06-11-2009 09:24:02 9.8 C 6.96 g/m*3 9.8 C 0 km/h
2572 06-11-2009 09:36:01 10 C 6.77 g/m*3 10 C 0 km/h
2573 06-11-2009 09:48:02 10.1 C 6.81 g/m*3 10.1 C 0 km/h
2574 06-11-2009 10:00:02 10.1 C 6.71 g/m*3 10.1 C 0 km/h
2575 06-11-2009 10:12:01 10.2 C 6.57 g/m*3 10.2 C 0 km/h
Sensor: Nr:Datum:Temp:Abs-Feuchte:Windchill:Wind:
Aussen-T/F 2576 06-11-2009 10:24:02 10.4 C 6.46 g/m*3 10.4 C 0 km/h
2577 06-11-2009 10:36:01 10.4 C 6.36 g/m*3 10.4 C 0 km/h
2578 06-11-2009 10:48:02 10.5 C 6.11 g/m*3 10.5 C 0 km/h
2579 06-11-2009 11:00:02 10.9 C 5.97 g/m*3 10.9 C 0 km/h
2580 06-11-2009 11:12:02 11 C 6.21 g/m*3 11 C 0 km/h
2581 06-11-2009 11:24:02 10.8 C 6.23 g/m*3 10.8 C 0 km/h
2582 06-11-2009 11:36:03 10.8 C 6.23 g/m*3 10.8 C 0 km/h
2583 06-11-2009 11:48:02 10.8 C 6.23 g/m*3 10.8 C 0 km/h
2584 06-11-2009 12:00:02 11 C 6.11 g/m*3 11 C 0 km/h
2585 06-11-2009 12:12:01 11 C 5.91 g/m*3 11 C 0 km/h
2586 06-11-2009 12:24:02 10.7 C 5.8 g/m*3 10.7 C 0 km/h
2587 06-11-2009 12:36:02 10.7 C 5.89 g/m*3 10.7 C 0 km/h
2588 06-11-2009 12:48:02 10.5 C 5.82 g/m*3 10.5 C 0 km/h
2589 06-11-2009 13:00:02 10.6 C 5.86 g/m*3 10.6 C 0 km/h
2590 06-11-2009 13:12:02 10.7 C 5.8 g/m*3 10.7 C 0 km/h
2591 06-11-2009 13:24:02 10.8 C 5.54 g/m*3 10.8 C 0 km/h
2592 06-11-2009 13:36:02 10.7 C 5.5 g/m*3 10.7 C 0 km/h
2593 06-11-2009 13:48:01 10.5 C 5.72 g/m*3 10.5 C 0 km/h
2594 06-11-2009 14:00:01 10.4 C 5.78 g/m*3 10.4 C 0 km/h
2595 06-11-2009 14:12:01 10.4 C 5.88 g/m*3 10.4 C 0 km/h
2596 06-11-2009 14:24:01 10.3 C 5.84 g/m*3 10.3 C 0 km/h
2597 06-11-2009 14:36:01 10.4 C 5.88 g/m*3 10.4 C 0 km/h
2598 06-11-2009 14:48:01 10.5 C 5.82 g/m*3 10.5 C 0 km/h
2599 06-11-2009 15:00:01 10.6 C 5.66 g/m*3 10.6 C 0 km/h
2600 06-11-2009 15:12:01 10.6 C 5.56 g/m*3 10.6 C 0 km/h
Sensor: Nr:Datum:Temp:Abs-Feuchte:Windchill:Wind:
Aussen-T/F 2601 06-11-2009 15:24:01 10.5 C 5.53 g/m*3 10.5 C 0 km/h
2602 06-11-2009 15:36:01 10.5 C 5.63 g/m*3 10.5 C 0 km/h
2603 06-11-2009 15:48:01 10.3 C 5.65 g/m*3 10.3 C 0 km/h
2604 06-11-2009 16:00:01 10.3 C 5.75 g/m*3 10.3 C 0 km/h
2605 06-11-2009 16:12:01 10.2 C 5.71 g/m*3 10.2 C 0 km/h
2606 06-11-2009 16:24:02 10.1 C 5.67 g/m*3 10.1 C 0 km/h
2607 06-11-2009 16:36:01 10 C 5.64 g/m*3 10 C 0 km/h
2608 06-11-2009 16:48:02 9.9 C 5.7 g/m*3 9.9 C 0 km/h
2609 06-11-2009 17:00:02 9.9 C 5.7 g/m*3 9.9 C 0 km/h
2610 06-11-2009 17:12:02 9.8 C 5.85 g/m*3 9.8 C 0 km/h
2611 06-11-2009 17:24:03 9.6 C 5.77 g/m*3 9.6 C 0 km/h
2612 06-11-2009 17:36:02 9.5 C 5.92 g/m*3 9.5 C 0 km/h
2613 06-11-2009 17:48:02 9.4 C 5.97 g/m*3 9.4 C 0 km/h
2614 06-11-2009 18:00:02 9.3 C 6.02 g/m*3 9.3 C 0 km/h
2615 06-11-2009 18:12:02 9.3 C 6.02 g/m*3 9.3 C 0 km/h
2616 06-11-2009 18:24:02 9.3 C 6.02 g/m*3 9.3 C 0 km/h
2617 06-11-2009 18:36:02 9.3 C 6.11 g/m*3 9.3 C 0 km/h
2618 06-11-2009 18:48:02 9.2 C 6.07 g/m*3 9.2 C 0 km/h
2619 06-11-2009 19:00:02 9.2 C 6.07 g/m*3 9.2 C 0 km/h
2620 06-11-2009 19:12:01 9.2 C 6.16 g/m*3 9.2 C 0 km/h
2621 06-11-2009 19:24:02 9.2 C 6.16 g/m*3 9.2 C 0 km/h
2622 06-11-2009 19:36:02 9.2 C 6.16 g/m*3 9.2 C 0 km/h
2623 06-11-2009 19:48:02 9.2 C 6.16 g/m*3 9.2 C 0 km/h
2624 06-11-2009 20:00:02 9.2 C 6.25 g/m*3 9.2 C 0 km/h
2625 06-11-2009 20:12:02 9.2 C 6.25 g/m*3 9.2 C 0 km/h
Sensor: Nr:Datum:Temp:Abs-Feuchte:Windchill:Wind:
Aussen-T/F 2626 06-11-2009 20:24:02 9.2 C 6.16 g/m*3 9.2 C 0 km/h
2627 06-11-2009 20:36:03 9 C 6.08 g/m*3 9 C 0 km/h
2628 06-11-2009 20:48:02 8.8 C 6.18 g/m*3 8.8 C 0 km/h
2629 06-11-2009 21:00:02 8.7 C 6.14 g/m*3 8.7 C 0 km/h
2630 06-11-2009 21:12:02 8.8 C 6.18 g/m*3 8.8 C 0 km/h
2631 06-11-2009 21:24:02 8.7 C 6.14 g/m*3 8.7 C 0 km/h
2632 06-11-2009 21:36:01 8.7 C 6.05 g/m*3 8.7 C 0 km/h
2633 06-11-2009 21:48:02 8.7 C 6.05 g/m*3 8.7 C 0 km/h
2634 06-11-2009 22:00:02 8.6 C 6.02 g/m*3 8.6 C 0 km/h
2635 06-11-2009 22:12:01 8.5 C 6.06 g/m*3 8.5 C 0 km/h
2636 06-11-2009 22:24:02 8.4 C 6.02 g/m*3 8.4 C 0 km/h
2637 06-11-2009 22:36:01 8.2 C 5.95 g/m*3 8.2 C 0 km/h
2638 06-11-2009 22:48:03 8.1 C 5.91 g/m*3 8.1 C 0 km/h
2639 06-11-2009 23:00:03 7.9 C 6 g/m*3 7.9 C 0 km/h
2640 06-11-2009 23:13:03 7.6 C 5.88 g/m*3 7.6 C 0 km/h
2641 06-11-2009 23:25:03 7.4 C 5.88 g/m*3 7.4 C 0 km/h
2642 06-11-2009 23:37:03 7.5 C 5.92 g/m*3 7.5 C 0 km/h
2643 06-11-2009 23:49:03 7.3 C 5.85 g/m*3 7.3 C 0 km/h
2644 07-11-2009 00:01:03 7 C 5.81 g/m*3 7 C 0 km/h
2645 07-11-2009 00:13:03 6.9 C 5.93 g/m*3 6.9 C 0 km/h
2646 07-11-2009 00:25:03 7.1 C 5.93 g/m*3 7.1 C 0 km/h
2647 07-11-2009 00:37:03 7.3 C 5.93 g/m*3 7.3 C 0 km/h
2648 07-11-2009 00:49:03 7.3 C 5.85 g/m*3 7.3 C 0 km/h
2649 07-11-2009 01:01:03 7.3 C 5.85 g/m*3 7.3 C 0 km/h
2650 07-11-2009 01:13:04 7.3 C 5.85 g/m*3 7.3 C 0 km/h
Sensor: Nr:Datum:Temp:Abs-Feuchte:Windchill:Wind:
Aussen-T/F 2651 07-11-2009 01:25:04 7.4 C 5.81 g/m*3 7.4 C 0 km/h
2652 07-11-2009 01:37:04 7.7 C 5.84 g/m*3 7.7 C 0 km/h
2653 07-11-2009 01:49:04 7.6 C 5.72 g/m*3 7.6 C 0 km/h
2654 07-11-2009 02:01:04 7.7 C 5.68 g/m*3 7.7 C 0 km/h
2655 07-11-2009 02:13:04 7.7 C 5.68 g/m*3 7.7 C 0 km/h
2656 07-11-2009 02:25:04 7.7 C 5.68 g/m*3 7.7 C 0 km/h
2657 07-11-2009 02:37:04 7.8 C 5.63 g/m*3 7.8 C 0 km/h
2658 07-11-2009 02:49:04 7.8 C 5.63 g/m*3 7.8 C 0 km/h
2659 07-11-2009 03:01:04 7.8 C 5.63 g/m*3 7.8 C 0 km/h
2660 07-11-2009 03:13:04 7.8 C 5.63 g/m*3 7.8 C 0 km/h
2661 07-11-2009 03:25:04 7.8 C 5.55 g/m*3 7.8 C 0 km/h
2662 07-11-2009 03:37:04 7.8 C 5.47 g/m*3 7.8 C 0 km/h
2663 07-11-2009 03:49:04 7.8 C 5.55 g/m*3 7.8 C 0 km/h
2664 07-11-2009 04:01:04 7.8 C 5.55 g/m*3 7.8 C 0 km/h
2665 07-11-2009 04:13:04 7.8 C 5.47 g/m*3 7.8 C 0 km/h
2666 07-11-2009 04:25:04 7.8 C 5.47 g/m*3 7.8 C 0 km/h
2667 07-11-2009 04:37:04 7.8 C 5.47 g/m*3 7.8 C 0 km/h
2668 07-11-2009 04:49:04 7.7 C 5.43 g/m*3 7.7 C 0 km/h
2669 07-11-2009 05:01:04 7.7 C 5.43 g/m*3 7.7 C 0 km/h
2670 07-11-2009 05:13:05 7.8 C 5.47 g/m*3 7.8 C 0 km/h
2671 07-11-2009 05:25:05 7.7 C 5.43 g/m*3 7.7 C 0 km/h
2672 07-11-2009 05:37:05 7.7 C 5.35 g/m*3 7.7 C 0 km/h
2673 07-11-2009 05:49:05 7.8 C 5.39 g/m*3 7.8 C 0 km/h
2674 07-11-2009 06:01:05 7.7 C 5.35 g/m*3 7.7 C 0 km/h
2675 07-11-2009 06:13:05 7.8 C 5.39 g/m*3 7.8 C 0 km/h
Sensor: Nr:Datum:Temp:Abs-Feuchte:Windchill:Wind:
Aussen-T/F 2676 07-11-2009 06:25:05 7.9 C 5.34 g/m*3 7.9 C 0 km/h
2677 07-11-2009 06:37:05 7.9 C 5.26 g/m*3 7.9 C 0 km/h
2678 07-11-2009 06:49:05 7.9 C 5.26 g/m*3 7.9 C 0 km/h
2679 07-11-2009 07:01:05 7.1 C 5.54 g/m*3 7.1 C 0 km/h
2680 07-11-2009 07:13:05 6.6 C 5.81 g/m*3 6.6 C 0 km/h
2681 07-11-2009 07:25:05 6.4 C 5.89 g/m*3 6.4 C 0 km/h
2682 07-11-2009 07:37:05 6.3 C 6 g/m*3 6.3 C 0 km/h
2683 07-11-2009 07:49:05 6.3 C 6.07 g/m*3 6.3 C 0 km/h
2684 07-11-2009 08:01:03 6.3 C 6.07 g/m*3 6.3 C 0 km/h
2685 07-11-2009 08:13:03 6.8 C 6.35 g/m*3 6.8 C 0 km/h
2686 07-11-2009 08:25:03 6.8 C 6.35 g/m*3 6.8 C 0 km/h
2687 07-11-2009 08:37:03 6.9 C 6.24 g/m*3 6.9 C 0 km/h
2688 07-11-2009 08:49:02 6.9 C 6.24 g/m*3 6.9 C 0 km/h
2689 07-11-2009 09:01:01 7.1 C 6.08 g/m*3 7.1 C 0 km/h
2690 07-11-2009 09:13:01 7.5 C 6 g/m*3 7.5 C 0 km/h
2691 07-11-2009 09:25:02 7.8 C 5.88 g/m*3 7.8 C 0 km/h
2692 07-11-2009 09:37:01 8 C 5.7 g/m*3 8 C 0 km/h
2693 07-11-2009 09:49:02 8 C 5.79 g/m*3 8 C 0 km/h
2694 07-11-2009 10:01:01 7.8 C 5.71 g/m*3 7.8 C 0 km/h
2695 07-11-2009 10:13:01 7.5 C 5.76 g/m*3 7.5 C 0 km/h
2696 07-11-2009 10:25:01 7.3 C 5.93 g/m*3 7.3 C 0 km/h
2697 07-11-2009 10:37:01 7.3 C 5.93 g/m*3 7.3 C 0 km/h
2698 07-11-2009 10:49:02 7.5 C 5.92 g/m*3 7.5 C 0 km/h
2699 07-11-2009 11:01:01 7.8 C 5.96 g/m*3 7.8 C 0 km/h
2700 07-11-2009 11:13:01 7.8 C 5.96 g/m*3 7.8 C 0 km/h
Sensor: Nr:Datum:Temp:Abs-Feuchte:Windchill:Wind:
Aussen-T/F 2701 07-11-2009 11:25:02 7.9 C 5.91 g/m*3 7.9 C 0 km/h
2702 07-11-2009 11:37:02 7.9 C 5.91 g/m*3 7.9 C 0 km/h
2703 07-11-2009 11:49:01 8.1 C 5.91 g/m*3 8.1 C 0 km/h
2704 07-11-2009 12:01:02 8.3 C 5.82 g/m*3 8.3 C 0 km/h
2705 07-11-2009 12:13:02 8.3 C 5.9 g/m*3 8.3 C 0 km/h
2706 07-11-2009 12:25:01 8.3 C 5.9 g/m*3 8.3 C 0 km/h
2707 07-11-2009 12:37:02 8.3 C 5.98 g/m*3 8.3 C 0 km/h
2708 07-11-2009 12:49:02 8.4 C 6.02 g/m*3 8.4 C 0 km/h
2709 07-11-2009 13:01:02 8.5 C 5.98 g/m*3 8.5 C 0 km/h
2710 07-11-2009 13:13:02 8.5 C 5.98 g/m*3 8.5 C 0 km/h
2711 07-11-2009 13:25:01 8.3 C 6.07 g/m*3 8.3 C 0 km/h
2712 07-11-2009 13:37:02 8 C 6.2 g/m*3 8 C 0 km/h
2713 07-11-2009 13:49:02 8.5 C 6.4 g/m*3 8.5 C 0 km/h
2714 07-11-2009 14:01:02 9.2 C 6.52 g/m*3 9.2 C 0 km/h
2715 07-11-2009 14:13:02 9.7 C 6.36 g/m*3 9.7 C 0 km/h
2716 07-11-2009 14:25:02 10 C 6.2 g/m*3 10 C 0 km/h
2717 07-11-2009 14:37:02 10.5 C 6.21 g/m*3 10.5 C 0 km/h
2718 07-11-2009 14:49:02 10.6 C 5.95 g/m*3 10.6 C 0 km/h
2719 07-11-2009 15:01:02 10.8 C 6.03 g/m*3 10.8 C 0 km/h
2720 07-11-2009 15:13:03 11.2 C 5.98 g/m*3 11.2 C 0 km/h
2721 07-11-2009 15:25:02 10.8 C 5.93 g/m*3 10.8 C 0 km/h
2722 07-11-2009 15:37:02 10.7 C 5.99 g/m*3 10.7 C 0 km/h
2723 07-11-2009 15:49:02 10.3 C 5.94 g/m*3 10.3 C 0 km/h
2724 07-11-2009 16:01:02 10.1 C 5.86 g/m*3 10.1 C 0 km/h
2725 07-11-2009 16:13:02 9.9 C 5.98 g/m*3 9.9 C 0 km/h
Sensor: Nr:Datum:Temp:Abs-Feuchte:Windchill:Wind:
Aussen-T/F 2726 07-11-2009 16:25:02 9.9 C 5.98 g/m*3 9.9 C 0 km/h
2727 07-11-2009 16:37:02 9.8 C 5.94 g/m*3 9.8 C 0 km/h
2728 07-11-2009 16:49:02 9.4 C 5.88 g/m*3 9.4 C 0 km/h
2729 07-11-2009 17:01:02 9 C 5.82 g/m*3 9 C 0 km/h
2730 07-11-2009 17:13:02 8.5 C 5.81 g/m*3 8.5 C 0 km/h
2731 07-11-2009 17:25:03 8.1 C 5.74 g/m*3 8.1 C 0 km/h
2732 07-11-2009 17:37:02 7.9 C 5.91 g/m*3 7.9 C 0 km/h
2733 07-11-2009 17:49:03 8 C 6.04 g/m*3 8 C 0 km/h
2734 07-11-2009 18:01:02 8.2 C 6.11 g/m*3 8.2 C 0 km/h
2735 07-11-2009 18:13:02 8.5 C 6.15 g/m*3 8.5 C 0 km/h
2736 07-11-2009 18:25:02 8.7 C 6.14 g/m*3 8.7 C 0 km/h
2737 07-11-2009 18:37:02 8.7 C 6.14 g/m*3 8.7 C 0 km/h
2738 07-11-2009 18:49:02 8.7 C 6.14 g/m*3 8.7 C 0 km/h
2739 07-11-2009 19:01:02 8.6 C 6.1 g/m*3 8.6 C 0 km/h
2740 07-11-2009 19:13:02 8.6 C 6.19 g/m*3 8.6 C 0 km/h
2741 07-11-2009 19:25:02 8.6 C 6.19 g/m*3 8.6 C 0 km/h
2742 07-11-2009 19:37:02 8.5 C 6.15 g/m*3 8.5 C 0 km/h
2743 07-11-2009 19:49:02 8.5 C 6.15 g/m*3 8.5 C 0 km/h
2744 07-11-2009 20:01:01 8.5 C 6.15 g/m*3 8.5 C 0 km/h
2745 07-11-2009 20:13:01 8.4 C 6.11 g/m*3 8.4 C 0 km/h
2746 07-11-2009 20:25:02 8.3 C 6.07 g/m*3 8.3 C 0 km/h
2747 07-11-2009 20:37:02 8.3 C 6.15 g/m*3 8.3 C 0 km/h
2748 07-11-2009 20:49:01 8.2 C 6.11 g/m*3 8.2 C 0 km/h
2749 07-11-2009 21:01:01 8.3 C 6.24 g/m*3 8.3 C 0 km/h
2750 07-11-2009 21:13:01 8.3 C 6.24 g/m*3 8.3 C 0 km/h
Sensor: Nr:Datum:Temp:Abs-Feuchte:Windchill:Wind:
Aussen-T/F 2751 07-11-2009 21:25:01 8.2 C 6.2 g/m*3 8.2 C 0 km/h
2752 07-11-2009 21:37:02 8.1 C 6.24 g/m*3 8.1 C 0 km/h
2753 07-11-2009 21:49:02 8 C 6.28 g/m*3 8 C 0 km/h
2754 07-11-2009 22:01:02 8 C 6.28 g/m*3 8 C 0 km/h
2755 07-11-2009 22:13:02 7.9 C 6.32 g/m*3 7.9 C 0 km/h
2756 07-11-2009 22:25:02 7.8 C 6.37 g/m*3 7.8 C 0 km/h
2757 07-11-2009 22:37:01 7.9 C 6.41 g/m*3 7.9 C 0 km/h
2758 07-11-2009 22:49:02 7.9 C 6.41 g/m*3 7.9 C 0 km/h
2759 07-11-2009 23:01:01 7.9 C 6.41 g/m*3 7.9 C 0 km/h
2760 07-11-2009 23:13:01 7.9 C 6.41 g/m*3 7.9 C 0 km/h
2761 07-11-2009 23:25:02 7.8 C 6.37 g/m*3 7.8 C 0 km/h
2762 07-11-2009 23:37:02 7.9 C 6.49 g/m*3 7.9 C 0 km/h
2763 07-11-2009 23:49:02 7.8 C 6.45 g/m*3 7.8 C 0 km/h
2764 08-11-2009 00:02:02 7.6 C 6.44 g/m*3 7.6 C 0 km/h
2765 08-11-2009 00:14:02 7.3 C 6.48 g/m*3 7.3 C 0 km/h
2766 08-11-2009 00:26:02 7.1 C 6.47 g/m*3 7.1 C 0 km/h
2767 08-11-2009 00:38:02 7.1 C 6.55 g/m*3 7.1 C 0 km/h
2768 08-11-2009 00:50:02 7.1 C 6.55 g/m*3 7.1 C 0 km/h
2769 08-11-2009 01:02:03 7.2 C 6.67 g/m*3 7.2 C 0 km/h
2770 08-11-2009 01:14:03 7.2 C 6.67 g/m*3 7.2 C 0 km/h
2771 08-11-2009 01:26:03 7.2 C 6.67 g/m*3 7.2 C 0 km/h
2772 08-11-2009 01:38:03 7.3 C 6.72 g/m*3 7.3 C 0 km/h
2773 08-11-2009 01:50:03 7.3 C 6.64 g/m*3 7.3 C 0 km/h
2774 08-11-2009 02:02:03 7.3 C 6.64 g/m*3 7.3 C 0 km/h
2775 08-11-2009 02:14:03 7.3 C 6.64 g/m*3 7.3 C 0 km/h
Sensor: Nr:Datum:Temp:Abs-Feuchte:Windchill:Wind:
Aussen-T/F 2776 08-11-2009 02:26:03 7.4 C 6.68 g/m*3 7.4 C 0 km/h
2777 08-11-2009 02:38:03 7.3 C 6.56 g/m*3 7.3 C 0 km/h
2778 08-11-2009 02:50:03 7.2 C 6.52 g/m*3 7.2 C 0 km/h
2779 08-11-2009 03:02:03 7.1 C 6.55 g/m*3 7.1 C 0 km/h
2780 08-11-2009 03:14:03 7 C 6.51 g/m*3 7 C 0 km/h
2781 08-11-2009 03:26:03 7 C 6.59 g/m*3 7 C 0 km/h
2782 08-11-2009 03:38:03 7 C 6.59 g/m*3 7 C 0 km/h
2783 08-11-2009 03:50:03 7 C 6.59 g/m*3 7 C 0 km/h
2784 08-11-2009 04:02:03 7.1 C 6.71 g/m*3 7.1 C 0 km/h
2785 08-11-2009 04:14:03 7 C 6.66 g/m*3 7 C 0 km/h
2786 08-11-2009 04:26:03 7 C 6.66 g/m*3 7 C 0 km/h
2787 08-11-2009 04:38:03 7 C 6.74 g/m*3 7 C 0 km/h
2788 08-11-2009 04:50:03 7 C 6.74 g/m*3 7 C 0 km/h
2789 08-11-2009 05:02:04 7.1 C 6.79 g/m*3 7.1 C 0 km/h
2790 08-11-2009 05:14:04 6.5 C 6.52 g/m*3 6.5 C 0 km/h
2791 08-11-2009 05:26:04 6.2 C 6.4 g/m*3 6.2 C 0 km/h
2792 08-11-2009 05:38:04 5.8 C 6.3 g/m*3 5.8 C 0 km/h
2793 08-11-2009 05:50:04 5.4 C 6.14 g/m*3 5.4 C 0 km/h
2794 08-11-2009 06:02:04 5.1 C 6.09 g/m*3 5.1 C 0 km/h
2795 08-11-2009 06:14:04 4.9 C 6.01 g/m*3 4.9 C 0 km/h
2796 08-11-2009 06:26:04 4.8 C 6.04 g/m*3 4.8 C 0 km/h
2797 08-11-2009 06:38:04 5 C 6.12 g/m*3 5 C 0 km/h
2798 08-11-2009 06:50:04 5.1 C 6.16 g/m*3 5.1 C 0 km/h
2799 08-11-2009 07:02:04 5.1 C 6.22 g/m*3 5.1 C 0 km/h
2800 08-11-2009 07:14:04 4.9 C 6.14 g/m*3 4.9 C 0 km/h
Sensor: Nr:Datum:Temp:Abs-Feuchte:Windchill:Wind:
Aussen-T/F 2801 08-11-2009 07:26:04 4.6 C 6.02 g/m*3 4.6 C 0 km/h
2802 08-11-2009 07:38:04 4.4 C 5.94 g/m*3 4.4 C 0 km/h
2803 08-11-2009 07:50:04 4.3 C 5.9 g/m*3 4.3 C 0 km/h
2804 08-11-2009 08:02:04 4.1 C 5.82 g/m*3 4.1 C 0 km/h
2805 08-11-2009 08:14:04 4 C 5.79 g/m*3 4 C 0 km/h
2806 08-11-2009 08:26:04 3.8 C 5.77 g/m*3 3.8 C 0 km/h
2807 08-11-2009 08:38:04 3.8 C 5.77 g/m*3 3.8 C 0 km/h
2808 08-11-2009 08:50:04 3.7 C 5.73 g/m*3 3.7 C 0 km/h
2809 08-11-2009 09:02:05 3.7 C 5.8 g/m*3 3.7 C 0 km/h
2810 08-11-2009 09:14:05 3.6 C 5.76 g/m*3 3.6 C 0 km/h
2811 08-11-2009 09:26:05 3.7 C 5.8 g/m*3 3.7 C 0 km/h
2812 08-11-2009 09:38:05 4 C 5.91 g/m*3 4 C 0 km/h
2813 08-11-2009 09:50:05 4.4 C 6.14 g/m*3 4.4 C 0 km/h
2814 08-11-2009 10:02:01 4.5 C 6.11 g/m*3 4.5 C 0 km/h
2815 08-11-2009 10:14:01 4.5 C 6.11 g/m*3 4.5 C 0 km/h
2816 08-11-2009 10:26:02 4.8 C 6.24 g/m*3 4.8 C 0 km/h
2817 08-11-2009 10:38:01 5.2 C 6.33 g/m*3 5.2 C 0 km/h
2818 08-11-2009 10:50:02 5.6 C 6.5 g/m*3 5.6 C 0 km/h
2819 08-11-2009 11:02:01 6.3 C 6.66 g/m*3 6.3 C 0 km/h
2820 08-11-2009 11:14:01 6.8 C 6.65 g/m*3 6.8 C 0 km/h
2821 08-11-2009 11:26:02 7.1 C 6.24 g/m*3 7.1 C 0 km/h
2822 08-11-2009 11:38:01 7.4 C 6.28 g/m*3 7.4 C 0 km/h
2823 08-11-2009 11:50:02 7.6 C 6.12 g/m*3 7.6 C 0 km/h
2824 08-11-2009 12:02:03 7.6 C 5.88 g/m*3 7.6 C 0 km/h
2825 08-11-2009 12:14:03 7.8 C 5.79 g/m*3 7.8 C 0 km/h
Sensor: Nr:Datum:Temp:Abs-Feuchte:Windchill:Wind:
Aussen-T/F 2826 08-11-2009 12:26:02 8.2 C 5.78 g/m*3 8.2 C 0 km/h
2827 08-11-2009 12:38:02 8.2 C 5.69 g/m*3 8.2 C 0 km/h
2828 08-11-2009 12:50:01 8.2 C 5.69 g/m*3 8.2 C 0 km/h
2829 08-11-2009 13:02:02 8.2 C 5.78 g/m*3 8.2 C 0 km/h
2830 08-11-2009 13:14:02 8.3 C 5.98 g/m*3 8.3 C 0 km/h
2831 08-11-2009 13:26:01 8.4 C 5.94 g/m*3 8.4 C 0 km/h
2832 08-11-2009 13:38:01 8 C 5.79 g/m*3 8 C 0 km/h
2833 08-11-2009 13:50:02 7.9 C 5.91 g/m*3 7.9 C 0 km/h
2834 08-11-2009 14:02:02 8.2 C 6.03 g/m*3 8.2 C 0 km/h
2835 08-11-2009 14:14:03 8.4 C 6.02 g/m*3 8.4 C 0 km/h
2836 08-11-2009 14:26:01 8.4 C 6.02 g/m*3 8.4 C 0 km/h
2837 08-11-2009 14:38:01 8.3 C 5.98 g/m*3 8.3 C 0 km/h
2838 08-11-2009 14:50:01 8.3 C 5.98 g/m*3 8.3 C 0 km/h
2839 08-11-2009 15:02:01 8.5 C 6.06 g/m*3 8.5 C 0 km/h
2840 08-11-2009 15:14:01 8.9 C 6.22 g/m*3 8.9 C 0 km/h
2841 08-11-2009 15:26:02 9 C 6.08 g/m*3 9 C 0 km/h
2842 08-11-2009 15:38:01 8.9 C 6.04 g/m*3 8.9 C 0 km/h
2843 08-11-2009 15:50:02 8.9 C 6.22 g/m*3 8.9 C 0 km/h
2844 08-11-2009 16:02:02 8.7 C 6.14 g/m*3 8.7 C 0 km/h
2845 08-11-2009 16:14:02 8.6 C 6.1 g/m*3 8.6 C 0 km/h
2846 08-11-2009 16:26:03 8.5 C 6.15 g/m*3 8.5 C 0 km/h
2847 08-11-2009 16:38:02 8.4 C 6.19 g/m*3 8.4 C 0 km/h
2848 08-11-2009 16:50:03 8.2 C 6.2 g/m*3 8.2 C 0 km/h
2849 08-11-2009 17:02:02 8.1 C 6.24 g/m*3 8.1 C 0 km/h
2850 08-11-2009 17:14:02 8 C 6.2 g/m*3 8 C 0 km/h
Sensor: Nr:Datum:Temp:Abs-Feuchte:Windchill:Wind:
Aussen-T/F 2851 08-11-2009 17:26:03 8 C 6.2 g/m*3 8 C 0 km/h
2852 08-11-2009 17:38:02 7.7 C 6.24 g/m*3 7.7 C 0 km/h
2853 08-11-2009 17:50:02 7.5 C 6.24 g/m*3 7.5 C 0 km/h
2854 08-11-2009 18:02:02 7.4 C 6.28 g/m*3 7.4 C 0 km/h
2855 08-11-2009 18:14:02 7.4 C 6.36 g/m*3 7.4 C 0 km/h
2856 08-11-2009 18:26:02 7.2 C 6.44 g/m*3 7.2 C 0 km/h
2857 08-11-2009 18:38:03 7.1 C 6.47 g/m*3 7.1 C 0 km/h
2858 08-11-2009 18:50:02 7.2 C 6.59 g/m*3 7.2 C 0 km/h
2859 08-11-2009 19:02:01 7.3 C 6.64 g/m*3 7.3 C 0 km/h
2860 08-11-2009 19:14:01 7.4 C 6.68 g/m*3 7.4 C 0 km/h
2861 08-11-2009 19:26:02 7.4 C 6.68 g/m*3 7.4 C 0 km/h
2862 08-11-2009 19:38:02 7.4 C 6.68 g/m*3 7.4 C 0 km/h
2863 08-11-2009 19:50:02 7.4 C 6.68 g/m*3 7.4 C 0 km/h
2864 08-11-2009 20:02:03 7.4 C 6.68 g/m*3 7.4 C 0 km/h
2865 08-11-2009 20:14:03 7.5 C 6.72 g/m*3 7.5 C 0 km/h
2866 08-11-2009 20:26:02 7.5 C 6.72 g/m*3 7.5 C 0 km/h
2867 08-11-2009 20:38:02 7.5 C 6.64 g/m*3 7.5 C 0 km/h
2868 08-11-2009 20:50:01 7.5 C 6.64 g/m*3 7.5 C 0 km/h
2869 08-11-2009 21:02:02 7.6 C 6.69 g/m*3 7.6 C 0 km/h
2870 08-11-2009 21:14:02 7.5 C 6.56 g/m*3 7.5 C 0 km/h
2871 08-11-2009 21:26:01 7.4 C 6.52 g/m*3 7.4 C 0 km/h
2872 08-11-2009 21:38:01 7.4 C 6.6 g/m*3 7.4 C 0 km/h
2873 08-11-2009 21:50:01 7.4 C 6.6 g/m*3 7.4 C 0 km/h
2874 08-11-2009 22:03:02 7.6 C 6.69 g/m*3 7.6 C 0 km/h
2875 08-11-2009 22:15:02 7.5 C 6.56 g/m*3 7.5 C 0 km/h
Sensor: Nr:Datum:Temp:Abs-Feuchte:Windchill:Wind:
Aussen-T/F 2876 08-11-2009 22:27:02 7.5 C 6.56 g/m*3 7.5 C 0 km/h
2877 08-11-2009 22:39:02 7.6 C 6.61 g/m*3 7.6 C 0 km/h
2878 08-11-2009 22:51:02 7.5 C 6.56 g/m*3 7.5 C 0 km/h
2879 08-11-2009 23:03:02 7.5 C 6.56 g/m*3 7.5 C 0 km/h
2880 08-11-2009 23:15:02 7.5 C 6.48 g/m*3 7.5 C 0 km/h
2881 08-11-2009 23:27:02 7.5 C 6.48 g/m*3 7.5 C 0 km/h
2882 08-11-2009 23:39:02 7.4 C 6.44 g/m*3 7.4 C 0 km/h
2883 08-11-2009 23:51:02 7.3 C 6.4 g/m*3 7.3 C 0 km/h
2884 09-11-2009 00:03:02 7.1 C 6.32 g/m*3 7.1 C 0 km/h
2885 09-11-2009 00:15:02 7 C 6.35 g/m*3 7 C 0 km/h
2886 09-11-2009 00:27:02 7 C 6.35 g/m*3 7 C 0 km/h
2887 09-11-2009 00:39:02 6.9 C 6.39 g/m*3 6.9 C 0 km/h
2888 09-11-2009 00:51:02 6.7 C 6.31 g/m*3 6.7 C 0 km/h
2889 09-11-2009 01:03:02 6.8 C 6.35 g/m*3 6.8 C 0 km/h
2890 09-11-2009 01:15:02 6.8 C 6.42 g/m*3 6.8 C 0 km/h
2891 09-11-2009 01:27:02 6.8 C 6.35 g/m*3 6.8 C 0 km/h
2892 09-11-2009 01:39:02 6.8 C 6.35 g/m*3 6.8 C 0 km/h
2893 09-11-2009 01:51:02 6.8 C 6.35 g/m*3 6.8 C 0 km/h
2894 09-11-2009 02:03:02 6.8 C 6.27 g/m*3 6.8 C 0 km/h
2895 09-11-2009 02:15:03 6.9 C 6.31 g/m*3 6.9 C 0 km/h
2896 09-11-2009 02:27:03 6.9 C 6.24 g/m*3 6.9 C 0 km/h
2897 09-11-2009 02:39:03 7 C 6.2 g/m*3 7 C 0 km/h
2898 09-11-2009 02:51:03 7 C 6.12 g/m*3 7 C 0 km/h
2899 09-11-2009 03:03:03 7 C 6.12 g/m*3 7 C 0 km/h
2900 09-11-2009 03:15:03 7.1 C 6.08 g/m*3 7.1 C 0 km/h
Sensor: Nr:Datum:Temp:Abs-Feuchte:Windchill:Wind:
Aussen-T/F 2901 09-11-2009 03:27:03 7 C 6.04 g/m*3 7 C 0 km/h
2902 09-11-2009 03:39:03 7 C 6.04 g/m*3 7 C 0 km/h
2903 09-11-2009 03:51:03 7 C 6.04 g/m*3 7 C 0 km/h
2904 09-11-2009 04:03:03 7 C 6.04 g/m*3 7 C 0 km/h
2905 09-11-2009 04:15:03 7 C 5.97 g/m*3 7 C 0 km/h
2906 09-11-2009 04:27:03 7.1 C 6.01 g/m*3 7.1 C 0 km/h
2907 09-11-2009 04:39:03 7.1 C 5.93 g/m*3 7.1 C 0 km/h
2908 09-11-2009 04:51:03 7.1 C 5.93 g/m*3 7.1 C 0 km/h
2909 09-11-2009 05:03:03 7.2 C 5.89 g/m*3 7.2 C 0 km/h
2910 09-11-2009 05:15:03 7.2 C 5.89 g/m*3 7.2 C 0 km/h
2911 09-11-2009 05:27:03 7.2 C 5.89 g/m*3 7.2 C 0 km/h
2912 09-11-2009 05:39:03 7.1 C 5.85 g/m*3 7.1 C 0 km/h
2913 09-11-2009 05:51:03 7.1 C 5.85 g/m*3 7.1 C 0 km/h
2914 09-11-2009 06:03:04 6.9 C 5.93 g/m*3 6.9 C 0 km/h
2915 09-11-2009 06:15:04 7 C 5.89 g/m*3 7 C 0 km/h
2916 09-11-2009 06:27:04 7.1 C 5.77 g/m*3 7.1 C 0 km/h
2917 09-11-2009 06:39:04 7.1 C 5.77 g/m*3 7.1 C 0 km/h
2918 09-11-2009 06:51:04 7 C 5.73 g/m*3 7 C 0 km/h
2919 09-11-2009 07:03:02 7 C 5.73 g/m*3 7 C 0 km/h
2920 09-11-2009 07:15:02 7 C 5.66 g/m*3 7 C 0 km/h
2921 09-11-2009 07:27:02 7 C 5.66 g/m*3 7 C 0 km/h
2922 09-11-2009 07:39:01 6.9 C 5.7 g/m*3 6.9 C 0 km/h
2923 09-11-2009 07:51:02 6.9 C 5.62 g/m*3 6.9 C 0 km/h
2924 09-11-2009 08:03:01 6.9 C 5.62 g/m*3 6.9 C 0 km/h
2925 09-11-2009 08:15:02 6.9 C 5.62 g/m*3 6.9 C 0 km/h
Sensor: Nr:Datum:Temp:Abs-Feuchte:Windchill:Wind:
Aussen-T/F 2926 09-11-2009 08:27:02 6.9 C 5.62 g/m*3 6.9 C 0 km/h
2927 09-11-2009 08:39:01 6.9 C 5.62 g/m*3 6.9 C 0 km/h
2928 09-11-2009 08:51:02 6.9 C 5.62 g/m*3 6.9 C 0 km/h
2929 09-11-2009 09:03:02 6.8 C 5.58 g/m*3 6.8 C 0 km/h
2930 09-11-2009 09:15:02 6.8 C 5.66 g/m*3 6.8 C 0 km/h
2931 09-11-2009 09:27:02 6.9 C 5.7 g/m*3 6.9 C 0 km/h
2932 09-11-2009 09:39:02 7 C 5.58 g/m*3 7 C 0 km/h
2933 09-11-2009 09:51:02 7 C 5.58 g/m*3 7 C 0 km/h
2934 09-11-2009 10:03:02 6.9 C 5.62 g/m*3 6.9 C 0 km/h
2935 09-11-2009 10:15:01 6.9 C 5.7 g/m*3 6.9 C 0 km/h
2936 09-11-2009 10:27:01 6.8 C 5.81 g/m*3 6.8 C 0 km/h
2937 09-11-2009 10:39:01 6.7 C 5.85 g/m*3 6.7 C 0 km/h
2938 09-11-2009 10:51:01 6.6 C 6.04 g/m*3 6.6 C 0 km/h
2939 09-11-2009 11:03:02 6.4 C 6.11 g/m*3 6.4 C 0 km/h
2940 09-11-2009 11:15:02 6.4 C 6.26 g/m*3 6.4 C 0 km/h
2941 09-11-2009 11:27:02 6.5 C 6.37 g/m*3 6.5 C 0 km/h
2942 09-11-2009 11:39:01 6.7 C 6.53 g/m*3 6.7 C 0 km/h
2943 09-11-2009 11:51:01 6.3 C 6.29 g/m*3 6.3 C 0 km/h
2944 09-11-2009 12:03:02 6.3 C 6.37 g/m*3 6.3 C 0 km/h
2945 09-11-2009 12:15:02 6.3 C 6.37 g/m*3 6.3 C 0 km/h
2946 09-11-2009 12:27:02 6.3 C 6.44 g/m*3 6.3 C 0 km/h
2947 09-11-2009 12:39:01 6.2 C 6.4 g/m*3 6.2 C 0 km/h
2948 09-11-2009 12:51:01 6.2 C 6.4 g/m*3 6.2 C 0 km/h
2949 09-11-2009 13:03:01 6.2 C 6.4 g/m*3 6.2 C 0 km/h
2950 09-11-2009 13:15:02 6.2 C 6.4 g/m*3 6.2 C 0 km/h
Sensor: Nr:Datum:Temp:Abs-Feuchte:Windchill:Wind:
Aussen-T/F 2951 09-11-2009 13:27:02 6.2 C 6.4 g/m*3 6.2 C 0 km/h
2952 09-11-2009 13:39:01 6.2 C 6.4 g/m*3 6.2 C 0 km/h
2953 09-11-2009 13:51:03 6.2 C 6.4 g/m*3 6.2 C 0 km/h
2954 09-11-2009 14:03:02 6.2 C 6.4 g/m*3 6.2 C 0 km/h
2955 09-11-2009 14:15:02 6.3 C 6.44 g/m*3 6.3 C 0 km/h
2956 09-11-2009 14:27:03 6.2 C 6.4 g/m*3 6.2 C 0 km/h
2957 09-11-2009 14:39:02 6.2 C 6.47 g/m*3 6.2 C 0 km/h
2958 09-11-2009 14:51:02 6.1 C 6.5 g/m*3 6.1 C 0 km/h
2959 09-11-2009 15:03:01 6 C 6.46 g/m*3 6 C 0 km/h
2960 09-11-2009 15:15:02 5.9 C 6.56 g/m*3 5.9 C 0 km/h
2961 09-11-2009 15:27:02 6 C 6.6 g/m*3 6 C 0 km/h
2962 09-11-2009 15:39:02 5.8 C 6.59 g/m*3 5.8 C 0 km/h
2963 09-11-2009 15:51:01 5.9 C 6.71 g/m*3 5.9 C 0 km/h
2964 09-11-2009 16:03:01 5.8 C 6.66 g/m*3 5.8 C 0 km/h
2965 09-11-2009 16:15:01 5.7 C 6.62 g/m*3 5.7 C 0 km/h
2966 09-11-2009 16:27:01 5.7 C 6.69 g/m*3 5.7 C 0 km/h
2967 09-11-2009 16:39:02 5.7 C 6.69 g/m*3 5.7 C 0 km/h
2968 09-11-2009 16:51:02 5.7 C 6.69 g/m*3 5.7 C 0 km/h
2969 09-11-2009 17:03:02 5.6 C 6.72 g/m*3 5.6 C 0 km/h
2970 09-11-2009 17:15:01 5.5 C 6.67 g/m*3 5.5 C 0 km/h
2971 09-11-2009 17:27:01 5.4 C 6.63 g/m*3 5.4 C 0 km/h
2972 09-11-2009 17:39:02 5.3 C 6.58 g/m*3 5.3 C 0 km/h
2973 09-11-2009 17:51:02 5.2 C 6.54 g/m*3 5.2 C 0 km/h
2974 09-11-2009 18:03:02 5.2 C 6.54 g/m*3 5.2 C 0 km/h
2975 09-11-2009 18:15:02 5.1 C 6.5 g/m*3 5.1 C 0 km/h
Sensor: Nr:Datum:Temp:Abs-Feuchte:Windchill:Wind:
Aussen-T/F 2976 09-11-2009 18:27:02 5.1 C 6.5 g/m*3 5.1 C 0 km/h
2977 09-11-2009 18:39:02 5 C 6.46 g/m*3 5 C 0 km/h
2978 09-11-2009 18:51:01 5 C 6.46 g/m*3 5 C 0 km/h
2979 09-11-2009 19:03:01 5 C 6.46 g/m*3 5 C 0 km/h
2980 09-11-2009 19:15:01 5.1 C 6.5 g/m*3 5.1 C 0 km/h
2981 09-11-2009 19:27:01 5.1 C 6.5 g/m*3 5.1 C 0 km/h
2982 09-11-2009 19:39:01 5.2 C 6.54 g/m*3 5.2 C 0 km/h
2983 09-11-2009 19:51:01 5.2 C 6.54 g/m*3 5.2 C 0 km/h
2984 09-11-2009 20:03:01 5.2 C 6.54 g/m*3 5.2 C 0 km/h
2985 09-11-2009 20:15:02 5.2 C 6.54 g/m*3 5.2 C 0 km/h
2986 09-11-2009 20:27:02 5.2 C 6.54 g/m*3 5.2 C 0 km/h
2987 09-11-2009 20:39:01 5.2 C 6.54 g/m*3 5.2 C 0 km/h
2988 09-11-2009 20:51:01 5.2 C 6.54 g/m*3 5.2 C 0 km/h
2989 09-11-2009 21:03:01 5.1 C 6.5 g/m*3 5.1 C 0 km/h
2990 09-11-2009 21:15:01 5.1 C 6.5 g/m*3 5.1 C 0 km/h
2991 09-11-2009 21:27:01 5.1 C 6.5 g/m*3 5.1 C 0 km/h
2992 09-11-2009 21:39:02 5.1 C 6.5 g/m*3 5.1 C 0 km/h
2993 09-11-2009 21:51:02 5 C 6.46 g/m*3 5 C 0 km/h
2994 09-11-2009 22:03:02 5 C 6.46 g/m*3 5 C 0 km/h
2995 09-11-2009 22:16:40 5 C 6.46 g/m*3 5 C 0 km/h
2996 09-11-2009 22:28:40 5 C 6.46 g/m*3 5 C 0 km/h
2997 09-11-2009 22:40:40 5 C 6.46 g/m*3 5 C 0 km/h
2998 09-11-2009 22:52:40 5 C 6.46 g/m*3 5 C 0 km/h
2999 09-11-2009 23:04:40 5 C 6.46 g/m*3 5 C 0 km/h
3000 09-11-2009 23:16:40 5 C 6.46 g/m*3 5 C 0 km/h
Sensor: Nr:Datum:Temp:Abs-Feuchte:Windchill:Wind:
Aussen-T/F 3001 09-11-2009 23:28:40 5 C 6.46 g/m*3 5 C 0 km/h
3002 09-11-2009 23:40:40 4.9 C 6.41 g/m*3 4.9 C 0 km/h
3003 09-11-2009 23:52:41 5 C 6.46 g/m*3 5 C 0 km/h
3004 10-11-2009 00:04:41 5 C 6.46 g/m*3 5 C 0 km/h
3005 10-11-2009 00:16:41 5 C 6.46 g/m*3 5 C 0 km/h
3006 10-11-2009 00:28:41 5 C 6.46 g/m*3 5 C 0 km/h
3007 10-11-2009 00:40:41 5 C 6.46 g/m*3 5 C 0 km/h
3008 10-11-2009 00:52:41 4.9 C 6.41 g/m*3 4.9 C 0 km/h
3009 10-11-2009 01:04:41 4.9 C 6.41 g/m*3 4.9 C 0 km/h
3010 10-11-2009 01:16:41 5 C 6.46 g/m*3 5 C 0 km/h
3011 10-11-2009 01:28:41 5 C 6.46 g/m*3 5 C 0 km/h
3012 10-11-2009 01:40:41 5 C 6.46 g/m*3 5 C 0 km/h
3013 10-11-2009 01:52:41 5 C 6.46 g/m*3 5 C 0 km/h
3014 10-11-2009 02:04:41 5 C 6.46 g/m*3 5 C 0 km/h
3015 10-11-2009 02:16:41 5 C 6.46 g/m*3 5 C 0 km/h
3016 10-11-2009 02:28:41 4.9 C 6.41 g/m*3 4.9 C 0 km/h
3017 10-11-2009 02:40:41 4.9 C 6.41 g/m*3 4.9 C 0 km/h
3018 10-11-2009 02:52:41 4.9 C 6.41 g/m*3 4.9 C 0 km/h
3019 10-11-2009 03:04:41 4.8 C 6.37 g/m*3 4.8 C 0 km/h
3020 10-11-2009 03:16:41 4.9 C 6.41 g/m*3 4.9 C 0 km/h
3021 10-11-2009 03:28:41 4.9 C 6.41 g/m*3 4.9 C 0 km/h
3022 10-11-2009 03:40:42 5 C 6.46 g/m*3 5 C 0 km/h
3023 10-11-2009 03:52:42 5 C 6.46 g/m*3 5 C 0 km/h
3024 10-11-2009 04:04:42 5 C 6.46 g/m*3 5 C 0 km/h
3025 10-11-2009 04:16:42 5 C 6.46 g/m*3 5 C 0 km/h
Sensor: Nr:Datum:Temp:Abs-Feuchte:Windchill:Wind:
Aussen-T/F 3026 10-11-2009 04:28:42 5.1 C 6.5 g/m*3 5.1 C 0 km/h
3027 10-11-2009 04:40:42 5.1 C 6.5 g/m*3 5.1 C 0 km/h
3028 10-11-2009 04:52:42 5.1 C 6.5 g/m*3 5.1 C 0 km/h
3029 10-11-2009 05:04:42 5.1 C 6.5 g/m*3 5.1 C 0 km/h
3030 10-11-2009 05:16:42 5.2 C 6.54 g/m*3 5.2 C 0 km/h
3031 10-11-2009 05:28:42 5.2 C 6.54 g/m*3 5.2 C 0 km/h
3032 10-11-2009 05:40:42 5.2 C 6.54 g/m*3 5.2 C 0 km/h
3033 10-11-2009 05:52:42 5.3 C 6.58 g/m*3 5.3 C 0 km/h
3034 10-11-2009 06:04:42 5.3 C 6.58 g/m*3 5.3 C 0 km/h
3035 10-11-2009 06:16:42 5.4 C 6.63 g/m*3 5.4 C 0 km/h
3036 10-11-2009 06:28:42 5.4 C 6.63 g/m*3 5.4 C 0 km/h
3037 10-11-2009 06:40:42 5.4 C 6.63 g/m*3 5.4 C 0 km/h
3038 10-11-2009 06:52:02 5.4 C 6.63 g/m*3 5.4 C 0 km/h
3039 10-11-2009 07:04:03 5.4 C 6.63 g/m*3 5.4 C 0 km/h
3040 10-11-2009 07:16:02 5.4 C 6.63 g/m*3 5.4 C 0 km/h
3041 10-11-2009 07:28:02 5.4 C 6.63 g/m*3 5.4 C 0 km/h
3042 10-11-2009 07:40:02 5.4 C 6.63 g/m*3 5.4 C 0 km/h
3043 10-11-2009 07:52:01 5.3 C 6.58 g/m*3 5.3 C 0 km/h
3044 10-11-2009 08:04:02 5.3 C 6.58 g/m*3 5.3 C 0 km/h
3045 10-11-2009 08:16:01 5.3 C 6.58 g/m*3 5.3 C 0 km/h
3046 10-11-2009 08:28:01 5.2 C 6.54 g/m*3 5.2 C 0 km/h
3047 10-11-2009 08:40:02 5.2 C 6.54 g/m*3 5.2 C 0 km/h
3048 10-11-2009 08:52:02 5.3 C 6.58 g/m*3 5.3 C 0 km/h
3049 10-11-2009 09:04:02 5.4 C 6.63 g/m*3 5.4 C 0 km/h
3050 10-11-2009 09:16:01 5.6 C 6.72 g/m*3 5.6 C 0 km/h
Sensor: Nr:Datum:Temp:Abs-Feuchte:Windchill:Wind:
Aussen-T/F 3051 10-11-2009 09:28:01 5.7 C 6.76 g/m*3 5.7 C 0 km/h
3052 10-11-2009 09:40:02 5.9 C 6.85 g/m*3 5.9 C 0 km/h
3053 10-11-2009 09:52:02 5.9 C 6.85 g/m*3 5.9 C 0 km/h
3054 10-11-2009 10:04:02 5.8 C 6.81 g/m*3 5.8 C 0 km/h
3055 10-11-2009 10:16:02 5.7 C 6.76 g/m*3 5.7 C 0 km/h
3056 10-11-2009 10:28:02 5.6 C 6.72 g/m*3 5.6 C 0 km/h
3057 10-11-2009 10:40:01 5.8 C 6.81 g/m*3 5.8 C 0 km/h
3058 10-11-2009 10:52:02 5.9 C 6.85 g/m*3 5.9 C 0 km/h
3059 10-11-2009 11:04:01 6 C 6.9 g/m*3 6 C 0 km/h
3060 10-11-2009 11:16:01 6.3 C 7.03 g/m*3 6.3 C 0 km/h
3061 10-11-2009 11:28:01 6 C 6.9 g/m*3 6 C 0 km/h
3062 10-11-2009 11:40:02 6.2 C 6.99 g/m*3 6.2 C 0 km/h
3063 10-11-2009 11:52:02 6.4 C 7.08 g/m*3 6.4 C 0 km/h
3064 10-11-2009 12:04:01 6.4 C 7.08 g/m*3 6.4 C 0 km/h
3065 10-11-2009 12:16:02 6.3 C 7.03 g/m*3 6.3 C 0 km/h
3066 10-11-2009 12:28:02 6.3 C 7.03 g/m*3 6.3 C 0 km/h
3067 10-11-2009 12:40:02 6.3 C 7.03 g/m*3 6.3 C 0 km/h
3068 10-11-2009 12:52:01 6.3 C 7.03 g/m*3 6.3 C 0 km/h
3069 10-11-2009 13:04:02 6.6 C 7.17 g/m*3 6.6 C 0 km/h
3070 10-11-2009 13:16:01 6.6 C 7.17 g/m*3 6.6 C 0 km/h
3071 10-11-2009 13:28:01 7 C 7.28 g/m*3 7 C 0 km/h
3072 10-11-2009 13:40:02 7.5 C 7.44 g/m*3 7.5 C 0 km/h
3073 10-11-2009 13:52:02 7.5 C 7.2 g/m*3 7.5 C 0 km/h
3074 10-11-2009 14:04:02 7.8 C 7.26 g/m*3 7.8 C 0 km/h
3075 10-11-2009 14:16:01 8 C 7.19 g/m*3 8 C 0 km/h
Sensor: Nr:Datum:Temp:Abs-Feuchte:Windchill:Wind:
Aussen-T/F 3076 10-11-2009 14:28:01 7.8 C 6.94 g/m*3 7.8 C 0 km/h
3077 10-11-2009 14:40:02 7.7 C 6.89 g/m*3 7.7 C 0 km/h
3078 10-11-2009 14:52:02 7.6 C 6.93 g/m*3 7.6 C 0 km/h
3079 10-11-2009 15:04:02 7.6 C 7.01 g/m*3 7.6 C 0 km/h
3080 10-11-2009 15:16:01 7.4 C 7 g/m*3 7.4 C 0 km/h
3081 10-11-2009 15:28:01 7.1 C 6.86 g/m*3 7.1 C 0 km/h
3082 10-11-2009 15:40:02 6.9 C 6.93 g/m*3 6.9 C 0 km/h
3083 10-11-2009 15:52:02 6.8 C 6.88 g/m*3 6.8 C 0 km/h
3084 10-11-2009 16:04:02 6.8 C 6.96 g/m*3 6.8 C 0 km/h
3085 10-11-2009 16:16:01 6.7 C 6.99 g/m*3 6.7 C 0 km/h
3086 10-11-2009 16:28:01 6.7 C 6.99 g/m*3 6.7 C 0 km/h
3087 10-11-2009 16:40:02 6.6 C 6.95 g/m*3 6.6 C 0 km/h
3088 10-11-2009 16:52:02 6.5 C 6.97 g/m*3 6.5 C 0 km/h
3089 10-11-2009 17:04:02 6.5 C 6.97 g/m*3 6.5 C 0 km/h
3090 10-11-2009 17:16:02 6.5 C 6.97 g/m*3 6.5 C 0 km/h
3091 10-11-2009 17:28:02 6.5 C 6.97 g/m*3 6.5 C 0 km/h
3092 10-11-2009 17:40:02 6.5 C 6.97 g/m*3 6.5 C 0 km/h
3093 10-11-2009 17:52:02 6.5 C 6.97 g/m*3 6.5 C 0 km/h
3094 10-11-2009 18:04:01 6.5 C 6.97 g/m*3 6.5 C 0 km/h
3095 10-11-2009 18:16:02 6.5 C 6.97 g/m*3 6.5 C 0 km/h
3096 10-11-2009 18:28:02 6.6 C 6.95 g/m*3 6.6 C 0 km/h
3097 10-11-2009 18:40:01 6.5 C 6.9 g/m*3 6.5 C 0 km/h
3098 10-11-2009 18:52:03 6.6 C 6.87 g/m*3 6.6 C 0 km/h
3099 10-11-2009 19:04:02 6.6 C 6.87 g/m*3 6.6 C 0 km/h
3100 10-11-2009 19:16:02 6.6 C 6.87 g/m*3 6.6 C 0 km/h
Sensor: Nr:Datum:Temp:Abs-Feuchte:Windchill:Wind:
Aussen-T/F 3101 10-11-2009 19:28:02 6.7 C 6.91 g/m*3 6.7 C 0 km/h
3102 10-11-2009 19:40:02 6.7 C 6.91 g/m*3 6.7 C 0 km/h
3103 10-11-2009 19:52:02 6.7 C 6.84 g/m*3 6.7 C 0 km/h
3104 10-11-2009 20:04:02 6.7 C 6.84 g/m*3 6.7 C 0 km/h
3105 10-11-2009 20:16:02 6.7 C 6.84 g/m*3 6.7 C 0 km/h
3106 10-11-2009 20:28:02 6.7 C 6.84 g/m*3 6.7 C 0 km/h
3107 10-11-2009 20:40:01 6.7 C 6.84 g/m*3 6.7 C 0 km/h
3108 10-11-2009 20:52:02 6.7 C 6.91 g/m*3 6.7 C 0 km/h
3109 10-11-2009 21:04:02 6.6 C 6.87 g/m*3 6.6 C 0 km/h
3110 10-11-2009 21:16:02 6.6 C 6.95 g/m*3 6.6 C 0 km/h
3111 10-11-2009 21:28:02 6.6 C 6.95 g/m*3 6.6 C 0 km/h
3112 10-11-2009 21:40:01 6.6 C 6.95 g/m*3 6.6 C 0 km/h
3113 10-11-2009 21:53:02 6.6 C 6.95 g/m*3 6.6 C 0 km/h
3114 10-11-2009 22:05:02 6.6 C 7.02 g/m*3 6.6 C 0 km/h
3115 10-11-2009 22:17:02 6.5 C 6.97 g/m*3 6.5 C 0 km/h
3116 10-11-2009 22:29:02 6.5 C 6.97 g/m*3 6.5 C 0 km/h
3117 10-11-2009 22:41:02 6.5 C 7.05 g/m*3 6.5 C 0 km/h
3118 10-11-2009 22:53:02 6.5 C 7.05 g/m*3 6.5 C 0 km/h
3119 10-11-2009 23:05:02 6.5 C 7.05 g/m*3 6.5 C 0 km/h
3120 10-11-2009 23:17:02 6.5 C 7.05 g/m*3 6.5 C 0 km/h
3121 10-11-2009 23:29:02 6.5 C 7.05 g/m*3 6.5 C 0 km/h
3122 10-11-2009 23:41:02 6.5 C 7.12 g/m*3 6.5 C 0 km/h
3123 10-11-2009 23:53:02 6.5 C 7.12 g/m*3 6.5 C 0 km/h
3124 11-11-2009 00:05:02 6.5 C 7.12 g/m*3 6.5 C 0 km/h
3125 11-11-2009 00:17:02 6.5 C 7.12 g/m*3 6.5 C 0 km/h
Sensor: Nr:Datum:Temp:Abs-Feuchte:Windchill:Wind:
Aussen-T/F 3126 11-11-2009 00:29:03 6.5 C 7.12 g/m*3 6.5 C 0 km/h
3127 11-11-2009 00:41:03 6.4 C 7.08 g/m*3 6.4 C 0 km/h
3128 11-11-2009 00:53:03 6.3 C 7.03 g/m*3 6.3 C 0 km/h
3129 11-11-2009 01:05:03 6.3 C 7.03 g/m*3 6.3 C 0 km/h
3130 11-11-2009 01:17:03 6.3 C 7.03 g/m*3 6.3 C 0 km/h
3131 11-11-2009 01:29:03 6.2 C 6.99 g/m*3 6.2 C 0 km/h
3132 11-11-2009 01:41:03 6.2 C 6.99 g/m*3 6.2 C 0 km/h
3133 11-11-2009 01:53:03 6.2 C 6.99 g/m*3 6.2 C 0 km/h
3134 11-11-2009 02:05:03 5.9 C 6.85 g/m*3 5.9 C 0 km/h
3135 11-11-2009 02:17:03 5.4 C 6.63 g/m*3 5.4 C 0 km/h
3136 11-11-2009 02:29:03 5.2 C 6.54 g/m*3 5.2 C 0 km/h
3137 11-11-2009 02:41:03 5 C 6.46 g/m*3 5 C 0 km/h
3138 11-11-2009 02:53:03 5.1 C 6.5 g/m*3 5.1 C 0 km/h
3139 11-11-2009 03:05:03 5.2 C 6.54 g/m*3 5.2 C 0 km/h
3140 11-11-2009 03:17:03 5.4 C 6.63 g/m*3 5.4 C 0 km/h
3141 11-11-2009 03:29:03 5.4 C 6.63 g/m*3 5.4 C 0 km/h
3142 11-11-2009 03:41:03 5.4 C 6.63 g/m*3 5.4 C 0 km/h
3143 11-11-2009 03:53:03 5.4 C 6.63 g/m*3 5.4 C 0 km/h
3144 11-11-2009 04:05:03 5.4 C 6.63 g/m*3 5.4 C 0 km/h
3145 11-11-2009 04:17:04 5.4 C 6.63 g/m*3 5.4 C 0 km/h
3146 11-11-2009 04:29:04 5.4 C 6.63 g/m*3 5.4 C 0 km/h
3147 11-11-2009 04:41:04 5.4 C 6.63 g/m*3 5.4 C 0 km/h
3148 11-11-2009 04:53:04 5.4 C 6.56 g/m*3 5.4 C 0 km/h
3149 11-11-2009 05:05:04 5.4 C 6.49 g/m*3 5.4 C 0 km/h
3150 11-11-2009 05:17:04 5.5 C 6.39 g/m*3 5.5 C 0 km/h
Sensor: Nr:Datum:Temp:Abs-Feuchte:Windchill:Wind:
Aussen-T/F 3151 11-11-2009 05:29:04 5.5 C 6.32 g/m*3 5.5 C 0 km/h
3152 11-11-2009 05:41:04 5.5 C 6.25 g/m*3 5.5 C 0 km/h
3153 11-11-2009 05:53:04 5.6 C 6.15 g/m*3 5.6 C 0 km/h
3154 11-11-2009 06:05:04 5.5 C 6.04 g/m*3 5.5 C 0 km/h
3155 11-11-2009 06:17:04 5.6 C 6.01 g/m*3 5.6 C 0 km/h
3156 11-11-2009 06:29:04 5.6 C 6.01 g/m*3 5.6 C 0 km/h
3157 11-11-2009 06:41:04 5.7 C 6.05 g/m*3 5.7 C 0 km/h
3158 11-11-2009 06:53:04 5.7 C 5.98 g/m*3 5.7 C 0 km/h
3159 11-11-2009 07:05:02 5.7 C 5.98 g/m*3 5.7 C 0 km/h
3160 11-11-2009 07:17:02 5.7 C 5.91 g/m*3 5.7 C 0 km/h
3161 11-11-2009 07:29:02 5.7 C 5.91 g/m*3 5.7 C 0 km/h
3162 11-11-2009 07:41:02 5.7 C 5.84 g/m*3 5.7 C 0 km/h
3163 11-11-2009 07:53:02 5.7 C 5.84 g/m*3 5.7 C 0 km/h
3164 11-11-2009 08:05:02 5.7 C 5.84 g/m*3 5.7 C 0 km/h
3165 11-11-2009 08:17:02 5.7 C 5.84 g/m*3 5.7 C 0 km/h
3166 11-11-2009 08:29:02 5.7 C 5.84 g/m*3 5.7 C 0 km/h
3167 11-11-2009 08:41:02 5.7 C 5.84 g/m*3 5.7 C 0 km/h
3168 11-11-2009 08:53:02 5.7 C 5.84 g/m*3 5.7 C 0 km/h
3169 11-11-2009 09:05:02 5.8 C 5.87 g/m*3 5.8 C 0 km/h
3170 11-11-2009 09:17:03 5.9 C 5.84 g/m*3 5.9 C 0 km/h
3171 11-11-2009 09:29:03 6 C 5.81 g/m*3 6 C 0 km/h
3172 11-11-2009 09:41:02 6 C 5.88 g/m*3 6 C 0 km/h
3173 11-11-2009 09:53:02 6.1 C 5.92 g/m*3 6.1 C 0 km/h
3174 11-11-2009 10:05:02 6.2 C 6.03 g/m*3 6.2 C 0 km/h
3175 11-11-2009 10:17:03 6.3 C 6.07 g/m*3 6.3 C 0 km/h
Sensor: Nr:Datum:Temp:Abs-Feuchte:Windchill:Wind:
Aussen-T/F 3176 11-11-2009 10:29:03 6.5 C 6.22 g/m*3 6.5 C 0 km/h
3177 11-11-2009 10:41:02 6.5 C 6.22 g/m*3 6.5 C 0 km/h
3178 11-11-2009 10:53:03 6.7 C 6.31 g/m*3 6.7 C 0 km/h
3179 11-11-2009 11:05:02 6.6 C 6.27 g/m*3 6.6 C 0 km/h
3180 11-11-2009 11:17:02 6.7 C 6.23 g/m*3 6.7 C 0 km/h
3181 11-11-2009 11:29:02 7.1 C 6.32 g/m*3 7.1 C 0 km/h
3182 11-11-2009 11:41:02 7.4 C 6.28 g/m*3 7.4 C 0 km/h
3183 11-11-2009 11:53:02 7.5 C 6.16 g/m*3 7.5 C 0 km/h
3184 11-11-2009 12:05:02 7.3 C 6 g/m*3 7.3 C 0 km/h
3185 11-11-2009 12:17:02 7.3 C 6.16 g/m*3 7.3 C 0 km/h
3186 11-11-2009 12:29:03 7.2 C 6.12 g/m*3 7.2 C 0 km/h
3187 11-11-2009 12:41:02 7.3 C 6.16 g/m*3 7.3 C 0 km/h
3188 11-11-2009 12:53:02 7.2 C 6.12 g/m*3 7.2 C 0 km/h
3189 11-11-2009 13:05:01 7.4 C 6.28 g/m*3 7.4 C 0 km/h
3190 11-11-2009 13:17:02 7.3 C 6.24 g/m*3 7.3 C 0 km/h
3191 11-11-2009 13:29:02 7.5 C 6.24 g/m*3 7.5 C 0 km/h
3192 11-11-2009 13:41:01 7.6 C 6.28 g/m*3 7.6 C 0 km/h
3193 11-11-2009 13:53:02 7.6 C 6.2 g/m*3 7.6 C 0 km/h
3194 11-11-2009 14:05:01 7.8 C 6.28 g/m*3 7.8 C 0 km/h
3195 11-11-2009 14:17:01 7.7 C 6.16 g/m*3 7.7 C 0 km/h
3196 11-11-2009 14:29:01 7.7 C 6.16 g/m*3 7.7 C 0 km/h
3197 11-11-2009 14:41:02 7.7 C 6.16 g/m*3 7.7 C 0 km/h
3198 11-11-2009 14:53:02 7.8 C 6.2 g/m*3 7.8 C 0 km/h
3199 11-11-2009 15:05:02 7.7 C 6.16 g/m*3 7.7 C 0 km/h
3200 11-11-2009 15:17:02 7.7 C 6.16 g/m*3 7.7 C 0 km/h
Sensor: Nr:Datum:Temp:Abs-Feuchte:Windchill:Wind:
Aussen-T/F 3201 11-11-2009 15:29:02 7.6 C 6.2 g/m*3 7.6 C 0 km/h
3202 11-11-2009 15:41:02 7.6 C 6.2 g/m*3 7.6 C 0 km/h
3203 11-11-2009 15:53:01 7.7 C 6.24 g/m*3 7.7 C 0 km/h
3204 11-11-2009 16:05:02 7.4 C 6.12 g/m*3 7.4 C 0 km/h
3205 11-11-2009 16:17:01 7.1 C 6.08 g/m*3 7.1 C 0 km/h
3206 11-11-2009 16:29:01 6.9 C 6.16 g/m*3 6.9 C 0 km/h
3207 11-11-2009 16:41:02 6.8 C 6.19 g/m*3 6.8 C 0 km/h
3208 11-11-2009 16:53:02 6.7 C 6.15 g/m*3 6.7 C 0 km/h
3209 11-11-2009 17:05:02 6.7 C 6.23 g/m*3 6.7 C 0 km/h
3210 11-11-2009 17:17:01 6.5 C 6.15 g/m*3 6.5 C 0 km/h
3211 11-11-2009 17:29:01 6.5 C 6.15 g/m*3 6.5 C 0 km/h
3212 11-11-2009 17:41:02 6.3 C 6.07 g/m*3 6.3 C 0 km/h
3213 11-11-2009 17:53:02 6.4 C 6.11 g/m*3 6.4 C 0 km/h
3214 11-11-2009 18:05:02 6.4 C 6.11 g/m*3 6.4 C 0 km/h
3215 11-11-2009 18:17:01 6.6 C 6.19 g/m*3 6.6 C 0 km/h
3216 11-11-2009 18:29:01 6.6 C 6.11 g/m*3 6.6 C 0 km/h
3217 11-11-2009 18:41:02 6.6 C 6.11 g/m*3 6.6 C 0 km/h
3218 11-11-2009 18:53:02 6.6 C 6.11 g/m*3 6.6 C 0 km/h
3219 11-11-2009 19:05:02 6.6 C 6.04 g/m*3 6.6 C 0 km/h
3220 11-11-2009 19:17:02 6.6 C 6.11 g/m*3 6.6 C 0 km/h
3221 11-11-2009 19:29:02 6.6 C 6.11 g/m*3 6.6 C 0 km/h
3222 11-11-2009 19:41:02 6.6 C 6.11 g/m*3 6.6 C 0 km/h
3223 11-11-2009 19:53:02 6.4 C 6.04 g/m*3 6.4 C 0 km/h
3224 11-11-2009 20:05:02 6.4 C 5.96 g/m*3 6.4 C 0 km/h
3225 11-11-2009 20:17:02 6.4 C 5.89 g/m*3 6.4 C 0 km/h
Sensor: Nr:Datum:Temp:Abs-Feuchte:Windchill:Wind:
Aussen-T/F 3226 11-11-2009 20:29:02 6.4 C 5.89 g/m*3 6.4 C 0 km/h
3227 11-11-2009 20:41:02 6.4 C 5.89 g/m*3 6.4 C 0 km/h
3228 11-11-2009 20:53:02 6.3 C 5.85 g/m*3 6.3 C 0 km/h
3229 11-11-2009 21:05:02 6.3 C 5.77 g/m*3 6.3 C 0 km/h
3230 11-11-2009 21:17:02 6.3 C 5.77 g/m*3 6.3 C 0 km/h
3231 11-11-2009 21:29:02 6.3 C 5.77 g/m*3 6.3 C 0 km/h
3232 11-11-2009 21:41:02 6.3 C 5.7 g/m*3 6.3 C 0 km/h
3233 11-11-2009 21:53:01 6.2 C 5.66 g/m*3 6.2 C 0 km/h
3234 11-11-2009 22:05:01 6.2 C 5.66 g/m*3 6.2 C 0 km/h
3235 11-11-2009 22:18:03 6.2 C 5.66 g/m*3 6.2 C 0 km/h
3236 11-11-2009 22:30:03 6 C 5.66 g/m*3 6 C 0 km/h
3237 11-11-2009 22:42:03 5.7 C 5.62 g/m*3 5.7 C 0 km/h
3238 11-11-2009 22:54:03 5.2 C 5.44 g/m*3 5.2 C 0 km/h
3239 11-11-2009 23:06:03 4.8 C 5.5 g/m*3 4.8 C 0 km/h
3240 11-11-2009 23:18:03 4.4 C 5.42 g/m*3 4.4 C 0 km/h
3241 11-11-2009 23:30:03 4 C 5.34 g/m*3 4 C 0 km/h
3242 11-11-2009 23:42:03 3.7 C 5.3 g/m*3 3.7 C 0 km/h
3243 11-11-2009 23:54:03 3.5 C 5.29 g/m*3 3.5 C 0 km/h
3244 12-11-2009 00:06:03 3.3 C 5.28 g/m*3 3.3 C 0 km/h
3245 12-11-2009 00:18:03 3.1 C 5.21 g/m*3 3.1 C 0 km/h
3246 12-11-2009 00:30:03 2.8 C